Provisional Data: Grays Run near Gray, PA


Please select a monitoring station.
Please select start date.
Please select start date.

Toggle Unit: C/F Toggle Unit: C/F
Sample Time Temperature (C) Temperature (F) Specific Conductivity (mS/cm) pH   Turbidity (NTU+) DO (mg/L)
6/22/2021 12:00:00 AM 15.86 60.548 0.034 7.12 5 9.34
6/22/2021 12:15:00 AM 15.83 60.494 0.034 7.1 5.38 9.34
6/22/2021 12:30:00 AM 15.8 60.44 0.034 7.14 4.63 9.35
6/22/2021 12:45:00 AM 15.77 60.386 0.033 7.11 4.59 9.36
6/22/2021 1:00:00 AM 15.73 60.314 0.033 7.1 4.91 9.36
6/22/2021 1:15:00 AM 15.69 60.242 0.033 7.1 4.65 9.37
6/22/2021 1:30:00 AM 15.64 60.152 0.033 7.11 4.69 9.38
6/22/2021 1:45:00 AM 15.61 60.098 0.033 7.11 4.4 9.38
6/22/2021 2:00:00 AM 15.56 60.008 0.033 7.1 4.41 9.39
6/22/2021 2:15:00 AM 15.52 59.936 0.033 7.12 4.34 9.4
6/22/2021 2:30:00 AM 15.49 59.882 0.033 7.12 4.3 9.41
6/22/2021 2:45:00 AM 15.46 59.828 0.033 7.15 4.5 9.42
6/22/2021 3:00:00 AM 15.43 59.774 0.033 7.15 4.26 9.44
6/22/2021 3:15:00 AM 15.39 59.702 0.033 7.16 4.44 9.44
6/22/2021 3:30:00 AM 15.36 59.648 0.033 7.16 4.27 9.45
6/22/2021 3:45:00 AM 15.32 59.576 0.033 7.19 4.19 9.46
6/22/2021 4:00:00 AM 15.28 59.504 0.032 7.2 4.46 9.47
6/22/2021 4:15:00 AM 15.24 59.432 0.032 7.19 4.01 9.47
6/22/2021 4:30:00 AM 15.2 59.36 0.032 7.21 4.15 9.48
6/22/2021 4:45:00 AM 15.15 59.27 0.032 7.18 4.04 9.49
6/22/2021 5:00:00 AM 15.12 59.216 0.032 7.18 4.04 9.5
6/22/2021 5:15:00 AM 15.08 59.144 0.032 7.17 4.12 9.51
6/22/2021 5:30:00 AM 15.04 59.072 0.032 7.17 4.08 9.51
6/22/2021 5:45:00 AM 15 59 0.032 7.18 4.13 9.53
6/22/2021 6:00:00 AM 14.97 58.946 0.032 7.18 4.14 9.53
6/22/2021 6:15:00 AM 14.93 58.874 0.032 7.16 4.03 9.54
6/22/2021 6:30:00 AM 14.9 58.82 0.032 7.2 3.89 9.55
6/22/2021 6:45:00 AM 14.86 58.748 0.032 7.18 4.05 9.56
6/22/2021 7:00:00 AM 14.83 58.694 0.031 7.17 3.99 9.58
6/22/2021 7:15:00 AM 14.8 58.64 0.031 7.15 4.02 9.58
6/22/2021 7:30:00 AM 14.78 58.604 0.031 7.18 3.84 9.6
6/22/2021 7:45:00 AM 14.75 58.55 0.031 7.16 3.78 9.61
6/22/2021 8:00:00 AM 14.72 58.496 0.031 7.18 3.77 9.61
6/22/2021 8:15:00 AM 14.7 58.46 0.031 7.18 3.74 9.62
6/22/2021 8:30:00 AM 14.68 58.424 0.031 7.16 3.99 9.65
6/22/2021 8:45:00 AM 14.65 58.37 0.031 7.2 3.76 9.66
6/22/2021 9:00:00 AM 14.63 58.334 0.031 7.21 3.96 9.67
6/22/2021 9:15:00 AM 14.6 58.28 0.031 7.18 3.78 9.68
6/22/2021 9:30:00 AM 14.58 58.244 0.031 7.2 4.19 9.69
6/22/2021 9:45:00 AM 14.57 58.226 0.031 7.2 3.79 9.71
6/22/2021 10:00:00 AM 14.57 58.226 0.031 7.21 3.73 9.75
6/22/2021 10:15:00 AM 14.56 58.208 0.031 7.22 3.91 9.76
6/22/2021 10:30:00 AM 14.55 58.19 0.031 7.23 3.8 9.78
6/22/2021 10:45:00 AM 14.54 58.172 0.031 7.21 3.69 9.78
6/22/2021 11:00:00 AM 14.52 58.136 0.031 7.24 3.75 9.78
6/22/2021 11:15:00 AM 14.5 58.1 0.031 7.23 4.24 9.79
6/22/2021 11:30:00 AM 14.48 58.064 0.031 7.22 3.76 9.78
6/22/2021 11:45:00 AM 14.46 58.028 0.031 7.23 4.16 9.79
6/22/2021 12:00:00 PM 14.46 58.028 0.031 7.24 3.77 9.81
6/22/2021 12:15:00 PM 14.45 58.01 0.031 7.24 3.77 9.81
6/22/2021 12:30:00 PM 14.45 58.01 0.031 7.24 3.68 9.82
6/22/2021 12:45:00 PM 14.45 58.01 0.031 7.24 3.65 9.84
6/22/2021 1:00:00 PM 14.45 58.01 0.031 7.25 3.6 9.84
6/22/2021 1:15:00 PM 14.44 57.992 0.031 7.25 3.53 9.84
6/22/2021 1:30:00 PM 14.42 57.956 0.031 7.23 4.02 9.83
6/22/2021 1:45:00 PM 14.41 57.938 0.031 7.23 3.78 9.82
6/22/2021 2:00:00 PM 14.4 57.92 0.031 7.22 4.01 9.81
6/22/2021 2:15:00 PM 14.37 57.866 0.031 7.23 3.62 9.79
6/22/2021 2:30:00 PM 14.36 57.848 0.031 7.25 3.57 9.8
6/22/2021 2:45:00 PM 14.35 57.83 0.031 7.24 3.67 9.81
6/22/2021 3:00:00 PM 14.34 57.812 0.031 7.23 3.69 9.81
6/22/2021 3:15:00 PM 14.32 57.776 0.031 7.22 3.63 9.82
6/22/2021 3:30:00 PM 14.31 57.758 0.031 7.23 3.62 9.83
6/22/2021 3:45:00 PM 14.3 57.74 0.031 7.24 3.71 9.85
6/22/2021 4:00:00 PM 14.29 57.722 0.031 7.22 3.66 9.86
6/22/2021 4:15:00 PM 14.28 57.704 0.031 7.26 3.57 9.87
6/22/2021 4:30:00 PM 14.29 57.722 0.031 7.24 3.74 9.88
6/22/2021 4:45:00 PM 14.28 57.704 0.031 7.24 3.57 9.85
6/22/2021 5:00:00 PM 14.26 57.668 0.031 7.24 3.66 9.85
6/22/2021 5:15:00 PM 14.25 57.65 0.031 7.24 3.73 9.86
6/22/2021 5:30:00 PM 14.23 57.614 0.031 7.23 4.04 9.85
6/22/2021 5:45:00 PM 14.21 57.578 0.031 7.22 3.64 9.84
6/22/2021 6:00:00 PM 14.2 57.56 0.031 7.22 3.63 9.84
6/22/2021 6:15:00 PM 14.18 57.524 0.031 7.22 3.54 9.83
6/22/2021 6:30:00 PM 14.15 57.47 0.031 7.21 3.37 9.84
6/22/2021 6:45:00 PM 14.13 57.434 0.031 7.22 3.47 9.84
6/22/2021 7:00:00 PM 14.11 57.398 0.031 7.21 3.65 9.84
6/22/2021 7:15:00 PM 14.07 57.326 0.031 7.2 3.59 9.83
6/22/2021 7:30:00 PM 14.04 57.272 0.031 7.19 3.58 9.84
6/22/2021 7:45:00 PM 14.01 57.218 0.031 7.22 3.5 9.84
6/22/2021 8:00:00 PM 13.97 57.146 0.031 7.22 3.61 9.84
6/22/2021 8:15:00 PM 13.93 57.074 0.031 7.21 3.56 9.84
6/22/2021 8:30:00 PM 13.87 56.966 0.03 7.18 3.71 9.85
6/22/2021 8:45:00 PM 13.83 56.894 0.03 7.19 3.49 9.85
6/22/2021 9:00:00 PM 13.78 56.804 0.031 7.17 3.42 9.86
6/22/2021 9:15:00 PM 13.73 56.714 0.03 7.19 3.59 9.87
6/22/2021 9:30:00 PM 13.68 56.624 0.03 7.22 3.63 9.88
6/22/2021 9:45:00 PM 13.63 56.534 0.03 7.19 3.73 9.89
6/22/2021 10:00:00 PM 13.58 56.444 0.03 7.19 3.61 9.91
6/22/2021 10:15:00 PM 13.52 56.336 0.03 7.19 3.62 9.92
6/22/2021 10:30:00 PM 13.46 56.228 0.03 7.19 3.53 9.94
6/22/2021 10:45:00 PM 13.4 56.12 0.03 7.21 3.68 9.95
6/22/2021 11:00:00 PM 13.33 55.994 0.03 7.2 3.6 9.97
6/22/2021 11:15:00 PM 13.26 55.868 0.03 7.19 3.6 9.99
6/22/2021 11:30:00 PM 13.2 55.76 0.03 7.2 3.57 10
6/22/2021 11:45:00 PM 13.13 55.634 0.03 7.19 3.6 10.02
6/23/2021 12:00:00 AM 13.07 55.526 0.03 7.19 3.48 10.03
6/23/2021 12:15:00 AM 13.01 55.418 0.03 7.19 3.42 10.06
6/23/2021 12:30:00 AM 12.95 55.31 0.03 7.17 3.49 10.07
6/23/2021 12:45:00 AM 12.88 55.184 0.03 7.19 3.45 10.08
6/23/2021 1:00:00 AM 12.82 55.076 0.03 7.22 3.51 10.1
6/23/2021 1:15:00 AM 12.76 54.968 0.03 7.2 3.53 10.11
6/23/2021 1:30:00 AM 12.7 54.86 0.03 7.2 3.51 10.13
6/23/2021 1:45:00 AM 12.64 54.752 0.03 7.19 3.54 10.14
6/23/2021 2:00:00 AM 12.58 54.644 0.03 7.2 3.54 10.16
6/23/2021 2:15:00 AM 12.52 54.536 0.03 7.22 3.55 10.17
6/23/2021 2:30:00 AM 12.46 54.428 0.03 7.22 3.67 10.18
6/23/2021 2:45:00 AM 12.4 54.32 0.03 7.21 3.42 10.2
6/23/2021 3:00:00 AM 12.35 54.23 0.03 7.2 3.72 10.22
6/23/2021 3:15:00 AM 12.29 54.122 0.03 7.2 3.51 10.24
6/23/2021 3:30:00 AM 12.24 54.032 0.03 7.21 3.47 10.25
6/23/2021 3:45:00 AM 12.18 53.924 0.03 7.2 3.47 10.25
6/23/2021 4:00:00 AM 12.13 53.834 0.03 7.21 3.43 10.27
6/23/2021 4:15:00 AM 12.08 53.744 0.03 7.21 3.6 10.29
6/23/2021 4:30:00 AM 12.04 53.672 0.03 7.2 3.77 10.29
6/23/2021 4:45:00 AM 11.99 53.582 0.03 7.2 3.76 10.31
6/23/2021 5:00:00 AM 11.94 53.492 0.03 7.2 3.62 10.33
6/23/2021 5:15:00 AM 11.89 53.402 0.03 7.2 3.51 10.34
6/23/2021 5:30:00 AM 11.84 53.312 0.03 7.2 3.49 10.35
6/23/2021 5:45:00 AM 11.79 53.222 0.03 7.2 3.4 10.37
6/23/2021 6:00:00 AM 11.75 53.15 0.03 7.21 3.42 10.38
6/23/2021 6:15:00 AM 11.7 53.06 0.03 7.22 3.49 10.4
6/23/2021 6:30:00 AM 11.66 52.988 0.03 7.23 3.35 10.42
6/23/2021 6:45:00 AM 11.62 52.916 0.03 7.2 3.43 10.43
6/23/2021 7:00:00 AM 11.59 52.862 0.03 7.2 3.37 10.45
6/23/2021 7:15:00 AM 11.56 52.808 0.03 7.22 3.36 10.46
6/23/2021 7:30:00 AM 11.55 52.79 0.03 7.22 3.34 10.48
6/23/2021 7:45:00 AM 11.54 52.772 0.03 7.22 3.34 10.48
6/23/2021 8:00:00 AM 11.54 52.772 0.03 7.24 3.37 10.49
6/23/2021 8:15:00 AM 11.55 52.79 0.03 7.22 3.3 10.49
6/23/2021 8:30:00 AM 11.57 52.826 0.03 7.23 3.47 10.5
6/23/2021 8:45:00 AM 11.6 52.88 0.03 7.24 3.34 10.5
6/23/2021 9:00:00 AM 11.63 52.934 0.03 7.24 3.34 10.5
6/23/2021 9:15:00 AM 11.67 53.006 0.03 7.21 3.33 10.5
6/23/2021 9:30:00 AM 11.72 53.096 0.03 7.25 3.34 10.5
6/23/2021 9:45:00 AM 11.77 53.186 0.03 7.26 3.4 10.49
6/23/2021 10:00:00 AM 11.84 53.312 0.03 7.25 3.6 10.49
6/23/2021 10:15:00 AM 11.92 53.456 0.03 7.26 3.33 10.48
6/23/2021 10:30:00 AM 12.01 53.618 0.03 7.25 3.11 10.48
6/23/2021 10:45:00 AM 12.11 53.798 0.03 7.25 3.49 10.47
6/23/2021 11:00:00 AM 12.19 53.942 0.03 7.25 3.38 10.46
6/23/2021 11:15:00 AM 12.3 54.14 0.03 7.26 3.34 10.45
6/23/2021 11:30:00 AM 12.41 54.338 0.03 7.25 3.34 10.45
6/23/2021 11:45:00 AM 12.5 54.5 0.03 7.25 5.28 10.43
6/23/2021 12:00:00 PM 12.63 54.734 0.03 7.25 3.55 10.41
6/23/2021 12:15:00 PM 12.68 54.824 0.03 7.25 3.43 10.4
6/23/2021 12:30:00 PM 12.79 55.022 0.03 7.26 3.49 10.38
6/23/2021 12:45:00 PM 12.86 55.148 0.03 7.25 3.24 10.34
6/23/2021 1:00:00 PM 13.1 55.58 0.03 7.25 3.46 10.33
6/23/2021 1:15:00 PM 13.27 55.886 0.03 7.24 3.31 10.3
6/23/2021 1:30:00 PM 13.34 56.012 0.03 7.24 3.45 10.27
6/23/2021 1:45:00 PM 13.49 56.282 0.03 7.24 3.33 10.25
6/23/2021 2:00:00 PM 13.6 56.48 0.03 7.23 3.28 10.22
6/23/2021 2:15:00 PM 13.55 56.39 0.03 7.21 3.33 10.2
6/23/2021 2:30:00 PM 13.54 56.372 0.03 7.21 3.43 10.16
6/23/2021 2:45:00 PM 13.58 56.444 0.03 7.21 3.5 10.16
6/23/2021 3:00:00 PM 13.69 56.642 0.03 7.21 3.36 10.16
6/23/2021 3:15:00 PM 13.71 56.678 0.03 7.21 3.27 10.13
6/23/2021 3:30:00 PM 13.74 56.732 0.03 7.22 3.3 10.09
6/23/2021 3:45:00 PM 13.77 56.786 0.03 7.2 3.27 10.07
6/23/2021 4:00:00 PM 13.84 56.912 0.03 7.21 3.34 10.06
6/23/2021 4:15:00 PM 13.88 56.984 0.03 7.21 3.33 10.05
6/23/2021 4:30:00 PM 13.9 57.02 0.03 7.19 3.32 10.02
6/23/2021 4:45:00 PM 13.92 57.056 0.03 7.2 3.34 10.01
6/23/2021 5:00:00 PM 13.95 57.11 0.03 7.19 3.3 10.02
6/23/2021 5:15:00 PM 13.98 57.164 0.03 7.2 3.47 10.01
6/23/2021 5:30:00 PM 14 57.2 0.03 7.18 3.41 9.99
6/23/2021 5:45:00 PM 13.99 57.182 0.03 7.17 3.31 9.96
6/23/2021 6:00:00 PM 13.98 57.164 0.03 7.16 3.43 9.96
6/23/2021 6:15:00 PM 13.97 57.146 0.03 7.17 3.3 9.96
6/23/2021 6:30:00 PM 13.95 57.11 0.03 7.16 3.3 9.96
6/23/2021 6:45:00 PM 13.93 57.074 0.03 7.17 3.28 9.96
6/23/2021 7:00:00 PM 13.92 57.056 0.03 7.16 3.42 9.96
6/23/2021 7:15:00 PM 13.91 57.038 0.03 7.16 3.32 9.95
6/23/2021 7:30:00 PM 13.89 57.002 0.03 7.13 3.29 9.94
6/23/2021 7:45:00 PM 13.86 56.948 0.03 7.13 3.33 9.94
6/23/2021 8:00:00 PM 13.83 56.894 0.03 7.13 3.29 9.94
6/23/2021 8:15:00 PM 13.79 56.822 0.03 7.15 3.31 9.95
6/23/2021 8:30:00 PM 13.76 56.768 0.03 7.15 3.41 9.95
6/23/2021 8:45:00 PM 13.73 56.714 0.03 7.16 3.41 9.95
6/23/2021 9:00:00 PM 13.7 56.66 0.03 7.16 3.43 9.96
6/23/2021 9:15:00 PM 13.67 56.606 0.03 7.14 3.56 9.96
6/23/2021 9:30:00 PM 13.64 56.552 0.03 7.17 3.34 9.97
6/23/2021 9:45:00 PM 13.61 56.498 0.03 7.15 3.43 9.98
6/23/2021 10:00:00 PM 13.57 56.426 0.03 7.17 3.41 9.98
6/23/2021 10:15:00 PM 13.52 56.336 0.03 7.16 3.37 10
6/23/2021 10:30:00 PM 13.47 56.246 0.03 7.14 3.4 10.01
6/23/2021 10:45:00 PM 13.41 56.138 0.03 7.14 3.41 10.02
6/23/2021 11:00:00 PM 13.35 56.03 0.03 7.14 3.32 10.04
6/23/2021 11:15:00 PM 13.29 55.922 0.03 7.14 3.58 10.06
6/23/2021 11:30:00 PM 13.23 55.814 0.03 7.15 3.36 10.07
6/23/2021 11:45:00 PM 13.17 55.706 0.03 7.15 3.46 10.08
6/24/2021 12:00:00 AM 13.11 55.598 0.03 7.16 3.32 10.09
6/24/2021 12:15:00 AM 13.06 55.508 0.03 7.17 3.22 10.11
6/24/2021 12:30:00 AM 13 55.4 0.03 7.16 3.44 10.12
6/24/2021 12:45:00 AM 12.95 55.31 0.03 7.15 3.3 10.13
6/24/2021 1:00:00 AM 12.9 55.22 0.03 7.15 3.33 10.14
6/24/2021 1:15:00 AM 12.85 55.13 0.03 7.15 3.48 10.16
6/24/2021 1:30:00 AM 12.81 55.058 0.03 7.17 3.48 10.17
6/24/2021 1:45:00 AM 12.76 54.968 0.03 7.15 3.49 10.18
6/24/2021 2:00:00 AM 12.72 54.896 0.03 7.14 3.3 10.19
6/24/2021 2:15:00 AM 12.67 54.806 0.03 7.14 3.54 10.21
6/24/2021 2:30:00 AM 12.63 54.734 0.03 7.16 3.47 10.21
6/24/2021 2:45:00 AM 12.59 54.662 0.03 7.15 3.37 10.23
6/24/2021 3:00:00 AM 12.54 54.572 0.03 7.14 3.44 10.24
6/24/2021 3:15:00 AM 12.5 54.5 0.03 7.15 3.49 10.25
6/24/2021 3:30:00 AM 12.45 54.41 0.03 7.14 3.42 10.26
6/24/2021 3:45:00 AM 12.41 54.338 0.03 7.15 3.47 10.27
6/24/2021 4:00:00 AM 12.37 54.266 0.03 7.15 3.48 10.29
6/24/2021 4:15:00 AM 12.33 54.194 0.03 7.15 3.46 10.29
6/24/2021 4:30:00 AM 12.29 54.122 0.03 7.18 3.45 10.3
6/24/2021 4:45:00 AM 12.24 54.032 0.03 7.18 3.58 10.31
6/24/2021 5:00:00 AM 12.2 53.96 0.03 7.16 3.5 10.33
6/24/2021 5:15:00 AM 12.16 53.888 0.03 7.18 3.25 10.34
6/24/2021 5:30:00 AM 12.13 53.834 0.03 7.16 3.33 10.35
6/24/2021 5:45:00 AM 12.08 53.744 0.03 7.16 3.62 10.36
6/24/2021 6:00:00 AM 12.05 53.69 0.03 7.15 3.4 10.37
6/24/2021 6:15:00 AM 12.01 53.618 0.03 7.16 4.19 10.39
6/24/2021 6:30:00 AM 11.98 53.564 0.03 7.16 3.32 10.41
6/24/2021 6:45:00 AM 11.95 53.51 0.03 7.16 3.62 10.42
6/24/2021 7:00:00 AM 11.92 53.456 0.03 7.17 3.34 10.43
6/24/2021 7:15:00 AM 11.9 53.42 0.03 7.16 3.17 10.45
6/24/2021 7:30:00 AM 11.89 53.402 0.03 7.17 3.28 10.45
6/24/2021 7:45:00 AM 11.88 53.384 0.03 7.18 3.25 10.45
6/24/2021 8:00:00 AM 11.88 53.384 0.03 7.18 3.29 10.47
6/24/2021 8:15:00 AM 11.89 53.402 0.03 7.19 3.32 10.48
6/24/2021 8:30:00 AM 11.91 53.438 0.03 7.19 3.61 10.48
6/24/2021 8:45:00 AM 11.94 53.492 0.03 7.18 3.33 10.48
6/24/2021 9:00:00 AM 11.97 53.546 0.03 7.19 3.52 10.47
6/24/2021 9:15:00 AM 12.02 53.636 0.03 7.19 3.25 10.5
6/24/2021 9:30:00 AM 12.07 53.726 0.03 7.19 3.33 10.5
6/24/2021 9:45:00 AM 12.11 53.798 0.03 7.18 3.53 10.48
6/24/2021 10:00:00 AM 12.16 53.888 0.03 7.18 3.33 10.46
6/24/2021 10:15:00 AM 12.24 54.032 0.03 7.2 3.24 10.45
6/24/2021 10:30:00 AM 12.33 54.194 0.03 7.21 3.23 10.45
6/24/2021 10:45:00 AM 12.43 54.374 0.03 7.21 3.24 10.43
6/24/2021 11:00:00 AM 12.54 54.572 0.03 7.19 3.22 10.42
6/24/2021 11:15:00 AM 12.67 54.806 0.03 7.18 3.27 10.4
6/24/2021 11:30:00 AM 12.79 55.022 0.03 7.2 3.39 10.39
6/24/2021 11:45:00 AM 12.93 55.274 0.03 7.2 3.27 10.37
6/24/2021 12:00:00 PM 13.07 55.526 0.03 7.21 3.23 10.35
6/24/2021 12:15:00 PM 13.22 55.796 0.03 7.21 3.2 10.32
6/24/2021 12:30:00 PM 13.38 56.084 0.03 7.21 3.22 10.31
6/24/2021 12:45:00 PM 13.55 56.39 0.03 7.22 3.16 10.27
6/24/2021 1:00:00 PM 13.73 56.714 0.03 7.21 3.19 10.25
6/24/2021 1:15:00 PM 13.89 57.002 0.03 7.2 3.4 10.22
6/24/2021 1:30:00 PM 14.03 57.254 0.03 7.2 3.36 10.19
6/24/2021 1:45:00 PM 14.16 57.488 0.03 7.19 3.24 10.15
6/24/2021 2:00:00 PM 14.26 57.668 0.03 7.2 3.27 10.12
6/24/2021 2:15:00 PM 14.35 57.83 0.03 7.2 3.26 10.08
6/24/2021 2:30:00 PM 14.41 57.938 0.029 7.18 3.34 10.05
6/24/2021 2:45:00 PM 14.45 58.01 0.029 7.18 3.19 10.02
6/24/2021 3:00:00 PM 14.46 58.028 0.029 7.17 3.32 9.98
6/24/2021 3:15:00 PM 14.49 58.082 0.029 7.18 3.39 9.96
6/24/2021 3:30:00 PM 14.52 58.136 0.03 7.17 3.26 9.93
6/24/2021 3:45:00 PM 14.56 58.208 0.03 7.17 3.4 9.92
6/24/2021 4:00:00 PM 14.59 58.262 0.03 7.16 3.31 9.91
6/24/2021 4:15:00 PM 14.61 58.298 0.031 7.16 5.27 9.88
6/24/2021 4:30:00 PM 14.63 58.334 0.03 7.15 3.25 9.86
6/24/2021 4:45:00 PM 14.63 58.334 0.03 7.15 3.34 9.86
6/24/2021 5:00:00 PM 14.62 58.316 0.03 7.16 3.32 9.84
6/24/2021 5:15:00 PM 14.61 58.298 0.03 7.16 3.26 9.84
6/24/2021 5:30:00 PM 14.58 58.244 0.03 7.15 3.29 9.84
6/24/2021 5:45:00 PM 14.55 58.19 0.03 7.14 3.22 9.82
6/24/2021 6:00:00 PM 14.52 58.136 0.03 7.15 3.24 9.83
6/24/2021 6:15:00 PM 14.48 58.064 0.03 7.15 3.46 9.83
6/24/2021 6:30:00 PM 14.44 57.992 0.03 7.14 3.29 9.84
6/24/2021 6:45:00 PM 14.4 57.92 0.03 7.1 3.27 9.84
6/24/2021 7:00:00 PM 14.37 57.866 0.03 7.15 3.19 9.85
6/24/2021 7:15:00 PM 14.33 57.794 0.03 7.13 3.27 9.84
6/24/2021 7:30:00 PM 14.29 57.722 0.03 7.12 3.29 9.84
6/24/2021 7:45:00 PM 14.25 57.65 0.03 7.1 3.11 9.85
6/24/2021 8:00:00 PM 14.22 57.596 0.03 7.11 3.18 9.86
6/24/2021 8:15:00 PM 14.18 57.524 0.03 7.09 3.21 9.86
6/24/2021 8:30:00 PM 14.15 57.47 0.03 7.08 3.26 9.86
6/24/2021 8:45:00 PM 14.12 57.416 0.03 7.11 3.43 9.86
6/24/2021 9:00:00 PM 14.08 57.344 0.03 7.1 3.13 9.87
6/24/2021 9:15:00 PM 14.05 57.29 0.03 7.12 3.32 9.87
6/24/2021 9:30:00 PM 14.01 57.218 0.03 7.12 3.3 9.88
6/24/2021 9:45:00 PM 13.98 57.164 0.03 7.13 3.28 9.89
6/24/2021 10:00:00 PM 13.94 57.092 0.03 7.13 3.34 9.9
6/24/2021 10:15:00 PM 13.91 57.038 0.03 7.13 3.25 9.9
6/24/2021 10:30:00 PM 13.87 56.966 0.03 7.12 3.21 9.91
6/24/2021 10:45:00 PM 13.83 56.894 0.03 7.14 3.27 9.92
6/24/2021 11:00:00 PM 13.79 56.822 0.03 7.14 3.38 9.93
6/24/2021 11:15:00 PM 13.75 56.75 0.03 7.12 3.34 9.94
6/24/2021 11:30:00 PM 13.72 56.696 0.03 7.13 3.18 9.95
6/24/2021 11:45:00 PM 13.68 56.624 0.03 7.12 3.19 9.96
6/25/2021 12:00:00 AM 13.64 56.552 0.03 7.14 3.28 9.96
6/25/2021 12:15:00 AM 13.6 56.48 0.03 7.14 3.27 9.97
6/25/2021 12:30:00 AM 13.56 56.408 0.03 7.13 3.41 9.98
6/25/2021 12:45:00 AM 13.52 56.336 0.03 7.13 3.17 9.99
6/25/2021 1:00:00 AM 13.48 56.264 0.03 7.1 3.34 9.99
6/25/2021 1:15:00 AM 13.44 56.192 0.03 7.11 3.28 10
6/25/2021 1:30:00 AM 13.4 56.12 0.03 7.1 3.31 10.01
6/25/2021 1:45:00 AM 13.36 56.048 0.03 7.14 3.24 10.02
6/25/2021 2:00:00 AM 13.32 55.976 0.03 7.13 3.41 10.03
6/25/2021 2:15:00 AM 13.29 55.922 0.03 7.13 3.23 10.03
6/25/2021 2:30:00 AM 13.25 55.85 0.03 7.1 3.31 10.04
6/25/2021 2:45:00 AM 13.22 55.796 0.03 7.13 3.2 10.05
6/25/2021 3:00:00 AM 13.18 55.724 0.03 7.13 3.24 10.06
6/25/2021 3:15:00 AM 13.15 55.67 0.03 7.13 3.47 10.06
6/25/2021 3:30:00 AM 13.11 55.598 0.03 7.14 3.2 10.08
6/25/2021 3:45:00 AM 13.07 55.526 0.03 7.13 3.35 10.09
6/25/2021 4:00:00 AM 13.04 55.472 0.03 7.14 3.14 10.1
6/25/2021 4:15:00 AM 13 55.4 0.03 7.14 3.4 10.1
6/25/2021 4:30:00 AM 12.97 55.346 0.03 7.12 3.22 10.12
6/25/2021 4:45:00 AM 12.93 55.274 0.03 7.14 3.23 10.13
6/25/2021 5:00:00 AM 12.9 55.22 0.03 7.15 3.33 10.14
6/25/2021 5:15:00 AM 12.86 55.148 0.03 7.15 3.44 10.14
6/25/2021 5:30:00 AM 12.83 55.094 0.03 7.14 3.24 10.15
6/25/2021 5:45:00 AM 12.8 55.04 0.03 7.14 3.45 10.17
6/25/2021 6:00:00 AM 12.77 54.986 0.03 7.15 3.45 10.18
6/25/2021 6:15:00 AM 12.74 54.932 0.03 7.15 3.19 10.19
6/25/2021 6:30:00 AM 12.72 54.896 0.03 7.14 3.23 10.2
6/25/2021 6:45:00 AM 12.7 54.86 0.03 7.14 3.43 10.21
6/25/2021 7:00:00 AM 12.68 54.824 0.03 7.14 3.14 10.23
6/25/2021 7:15:00 AM 12.68 54.824 0.03 7.16 3.14 10.25
6/25/2021 7:30:00 AM 12.67 54.806 0.03 7.16 3.33 10.26
6/25/2021 7:45:00 AM 12.68 54.824 0.03 7.14 3.29 10.27
6/25/2021 8:00:00 AM 12.69 54.842 0.03 7.14 3.24 10.28
6/25/2021 8:15:00 AM 12.71 54.878 0.03 7.2 3.28 10.29
6/25/2021 8:30:00 AM 12.73 54.914 0.03 7.16 3.53 10.29
6/25/2021 8:45:00 AM 12.76 54.968 0.03 7.15 3.31 10.29
6/25/2021 9:00:00 AM 12.79 55.022 0.03 7.16 3.19 10.29
6/25/2021 9:15:00 AM 12.82 55.076 0.03 7.16 3.24 10.28
6/25/2021 9:30:00 AM 12.86 55.148 0.03 7.19 3.18 10.28
6/25/2021 9:45:00 AM 12.9 55.22 0.03 7.18 3.22 10.27
6/25/2021 10:00:00 AM 12.95 55.31 0.03 7.16 3.26 10.27
6/25/2021 10:15:00 AM 13.01 55.418 0.03 7.18 3.21 10.26
6/25/2021 10:30:00 AM 13.09 55.562 0.03 7.2 3.32 10.26
6/25/2021 10:45:00 AM 13.17 55.706 0.03 7.17 3.06 10.26
6/25/2021 11:00:00 AM 13.26 55.868 0.03 7.17 3.36 10.25
6/25/2021 11:15:00 AM 13.38 56.084 0.03 7.2 3.26 10.24
6/25/2021 11:30:00 AM 13.47 56.246 0.03 7.21 3.18 10.23
6/25/2021 11:45:00 AM 13.59 56.462 0.03 7.22 3.85 10.22
6/25/2021 12:00:00 PM 13.73 56.714 0.03 7.22 3.22 10.2
6/25/2021 12:15:00 PM 13.85 56.93 0.03 7.22 3.16 10.18
6/25/2021 12:30:00 PM 13.97 57.146 0.03 7.2 3.29 10.16
6/25/2021 12:45:00 PM 14.12 57.416 0.03 7.22 3.43 10.14
6/25/2021 1:00:00 PM 14.3 57.74 0.03 7.2 3.46 10.11
6/25/2021 1:15:00 PM 14.42 57.956 0.03 7.2 3.17 10.09
6/25/2021 1:30:00 PM 14.54 58.172 0.03 7.21 3.19 10.06
6/25/2021 1:45:00 PM 14.61 58.298 0.03 7.21 3.06 10.04
6/25/2021 2:00:00 PM 14.64 58.352 0.03 7.18 3.16 10.01
6/25/2021 2:15:00 PM 14.74 58.532 0.03 7.2 3.39 10
6/25/2021 2:30:00 PM 14.72 58.496 0.03 7.19 3.77 9.97
6/25/2021 2:45:00 PM 14.75 58.55 0.03 7.18 3.21 9.95
6/25/2021 3:00:00 PM 14.81 58.658 0.03 7.19 3.14 9.94
6/25/2021 3:15:00 PM 14.86 58.748 0.03 7.18 3.1 9.91
6/25/2021 3:30:00 PM 14.89 58.802 0.03 7.17 3.14 9.89
6/25/2021 3:45:00 PM 14.92 58.856 0.03 7.17 3.15 9.84
6/25/2021 4:00:00 PM 14.95 58.91 0.03 7.18 3.27 9.81
6/25/2021 4:15:00 PM 14.98 58.964 0.03 7.15 3.25 9.79
6/25/2021 4:30:00 PM 15.02 59.036 0.03 7.16 3.23 9.76
6/25/2021 4:45:00 PM 15.04 59.072 0.03 7.17 3.17 9.74
6/25/2021 5:00:00 PM 15.05 59.09 0.03 7.15 3.13 9.73
6/25/2021 5:15:00 PM 15.05 59.09 0.03 7.14 3.13 9.73
6/25/2021 5:30:00 PM 15.05 59.09 0.03 7.14 3.01 9.74
6/25/2021 5:45:00 PM 15.03 59.054 0.03 7.14 2.99 9.74
6/25/2021 6:00:00 PM 15 59 0.03 7.13 3.1 9.74
6/25/2021 6:15:00 PM 14.99 58.982 0.03 7.14 3.07 9.75
6/25/2021 6:30:00 PM 14.96 58.928 0.03 7.15 3.19 9.75
6/25/2021 6:45:00 PM 14.93 58.874 0.03 7.13 2.98 9.74
6/25/2021 7:00:00 PM 14.9 58.82 0.03 7.13 3.36 9.74
6/25/2021 7:15:00 PM 14.89 58.802 0.03 7.14 3.07 9.74
6/25/2021 7:30:00 PM 14.87 58.766 0.03 7.14 3.29 9.74
6/25/2021 7:45:00 PM 14.84 58.712 0.03 7.13 3.23 9.73
6/25/2021 8:00:00 PM 14.8 58.64 0.03 7.12 3.32 9.7
6/25/2021 8:15:00 PM 14.77 58.586 0.03 7.12 3.13 9.69
6/25/2021 8:30:00 PM 14.74 58.532 0.03 7.1 3.05 9.69
6/25/2021 8:45:00 PM 14.72 58.496 0.03 7.11 3.13 9.69
6/25/2021 9:00:00 PM 14.69 58.442 0.03 7.11 3.17 9.69
6/25/2021 9:15:00 PM 14.67 58.406 0.03 7.12 3.34 9.69
6/25/2021 9:30:00 PM 14.65 58.37 0.03 7.12 3.43 9.69
6/25/2021 9:45:00 PM 14.62 58.316 0.03 7.1 3.32 9.7
6/25/2021 10:00:00 PM 14.59 58.262 0.03 7.12 3.06 9.7
6/25/2021 10:15:00 PM 14.56 58.208 0.03 7.11 3.1 9.71
6/25/2021 10:30:00 PM 14.53 58.154 0.03 7.11 3.05 9.71
6/25/2021 10:45:00 PM 14.49 58.082 0.03 7.1 3.06 9.72
6/25/2021 11:00:00 PM 14.46 58.028 0.03 7.12 3.15 9.73
6/25/2021 11:15:00 PM 14.43 57.974 0.03 7.12 3.08 9.74
6/25/2021 11:30:00 PM 14.39 57.902 0.03 7.11 3.12 9.74
6/25/2021 11:45:00 PM 14.37 57.866 0.03 7.11 3 9.75
6/26/2021 12:00:00 AM 14.35 57.83 0.03 7.11 3.05 9.75
6/26/2021 12:15:00 AM 14.32 57.776 0.03 7.1 3.23 9.75
6/26/2021 12:30:00 AM 14.31 57.758 0.03 7.11 3.14 9.76
6/26/2021 12:45:00 AM 14.29 57.722 0.03 7.11 3.18 9.76
6/26/2021 1:00:00 AM 14.27 57.686 0.03 7.12 3.13 9.76
6/26/2021 1:15:00 AM 14.25 57.65 0.03 7.1 3.07 9.77
6/26/2021 1:30:00 AM 14.24 57.632 0.03 7.1 2.97 9.77
6/26/2021 1:45:00 AM 14.22 57.596 0.03 7.12 3.04 9.78
6/26/2021 2:00:00 AM 14.19 57.542 0.03 7.11 3.03 9.79
6/26/2021 2:15:00 AM 14.16 57.488 0.03 7.11 3.19 9.8
6/26/2021 2:30:00 AM 14.13 57.434 0.03 7.12 2.96 9.8
6/26/2021 2:45:00 AM 14.11 57.398 0.03 7.11 3.18 9.81
6/26/2021 3:00:00 AM 14.09 57.362 0.03 7.1 3.02 9.81
6/26/2021 3:15:00 AM 14.08 57.344 0.03 7.11 2.96 9.81
6/26/2021 3:30:00 AM 14.07 57.326 0.03 7.12 3.04 9.82
6/26/2021 3:45:00 AM 14.06 57.308 0.03 7.13 3 9.82
6/26/2021 4:00:00 AM 14.05 57.29 0.03 7.11 3.08 9.82
6/26/2021 4:15:00 AM 14.06 57.308 0.03 7.11 3.06 9.82
6/26/2021 4:30:00 AM 14.05 57.29 0.03 7.13 3.21 9.82
6/26/2021 4:45:00 AM 14.04 57.272 0.03 7.13 3.14 9.83
6/26/2021 5:00:00 AM 14.02 57.236 0.03 7.11 3.35 9.82
6/26/2021 5:15:00 AM 14.01 57.218 0.03 7.09 3.04 9.82
6/26/2021 5:30:00 AM 14 57.2 0.03 7.1 2.86 9.82
6/26/2021 5:45:00 AM 14 57.2 0.03 7.09 3.34 9.82
6/26/2021 6:00:00 AM 13.99 57.182 0.03 7.08 2.51 9.82
6/26/2021 6:15:00 AM 13.98 57.164 0.03 7.08 2.3 9.83
6/26/2021 6:30:00 AM 13.97 57.146 0.03 7.08 2.31 9.84
6/26/2021 6:45:00 AM 13.96 57.128 0.03 7.08 2.36 9.86
6/26/2021 7:00:00 AM 13.95 57.11 0.03 7.08 2.28 9.86
6/26/2021 7:15:00 AM 13.95 57.11 0.03 7.07 2.2 9.88
6/26/2021 7:30:00 AM 13.95 57.11 0.03 7.08 2.32 9.9
6/26/2021 7:45:00 AM 13.95 57.11 0.03 7.06 2.2 9.91
6/26/2021 8:00:00 AM 13.96 57.128 0.03 7.07 2.44 9.93
6/26/2021 8:15:00 AM 13.97 57.146 0.03 7.07 2.2 9.94
6/26/2021 8:30:00 AM 14.01 57.218 0.03 7.09 2.08 9.96
6/26/2021 8:45:00 AM 14.04 57.272 0.03 7.1 2.2 9.96
6/26/2021 9:00:00 AM 14.07 57.326 0.03 7.1 2.21 9.96
6/26/2021 9:15:00 AM 14.08 57.344 0.03 7.1 2.3 9.97
6/26/2021 9:30:00 AM 14.13 57.434 0.03 7.1 2.27 9.97
6/26/2021 9:45:00 AM 14.18 57.524 0.03 7.11 2.43 9.98
6/26/2021 10:00:00 AM 14.28 57.704 0.03 7.12 2.28 10
6/26/2021 10:15:00 AM 14.36 57.848 0.03 7.13 2.28 10
6/26/2021 10:30:00 AM 14.45 58.01 0.03 7.14 2.58 9.99
6/26/2021 10:45:00 AM 14.54 58.172 0.03 7.13 2.39 9.98
6/26/2021 11:00:00 AM 14.62 58.316 0.03 7.14 2.36 9.97
6/26/2021 11:15:00 AM 14.65 58.37 0.03 7.15 2.47 9.94
6/26/2021 11:30:00 AM 14.69 58.442 0.03 7.14 2.5 9.93
6/26/2021 11:45:00 AM 14.77 58.586 0.03 7.14 2.46 9.92
6/26/2021 12:00:00 PM 14.87 58.766 0.03 7.16 2.35 9.91
6/26/2021 12:15:00 PM 14.96 58.928 0.03 7.14 2.37 9.9
6/26/2021 12:30:00 PM 15.13 59.234 0.03 7.14 2.38 9.88
6/26/2021 12:45:00 PM 15.18 59.324 0.03 7.14 2.4 9.87
6/26/2021 1:00:00 PM 15.24 59.432 0.03 7.16 2.43 9.85
6/26/2021 1:15:00 PM 15.4 59.72 0.03 7.15 2.43 9.84
6/26/2021 1:30:00 PM 15.55 59.99 0.03 7.15 2.43 9.82
6/26/2021 1:45:00 PM 15.5 59.9 0.03 7.13 2.45 9.78
6/26/2021 2:00:00 PM 15.59 60.062 0.03 7.15 2.4 9.76
6/26/2021 2:15:00 PM 15.62 60.116 0.03 7.14 2.39 9.75
6/26/2021 2:30:00 PM 15.67 60.206 0.03 7.14 2.46 9.72
6/26/2021 2:45:00 PM 15.72 60.296 0.03 7.15 2.37 9.72
6/26/2021 3:00:00 PM 15.74 60.332 0.03 7.14 2.52 9.68
6/26/2021 3:15:00 PM 15.77 60.386 0.03 7.12 2.55 9.66
6/26/2021 3:30:00 PM 15.8 60.44 0.03 7.12 2.38 9.65
6/26/2021 3:45:00 PM 15.83 60.494 0.03 7.12 2.36 9.63
6/26/2021 4:00:00 PM 15.86 60.548 0.03 7.13 2.38 9.61
6/26/2021 4:15:00 PM 15.9 60.62 0.03 7.12 2.39 9.6
6/26/2021 4:30:00 PM 15.93 60.674 0.03 7.12 2.38 9.59
6/26/2021 4:45:00 PM 15.96 60.728 0.03 7.12 2.37 9.57
6/26/2021 5:00:00 PM 15.99 60.782 0.03 7.13 2.49 9.55
6/26/2021 5:15:00 PM 15.99 60.782 0.03 7.12 2.41 9.53
6/26/2021 5:30:00 PM 15.99 60.782 0.03 7.09 2.54 9.52
6/26/2021 5:45:00 PM 15.97 60.746 0.03 7.09 2.63 9.49
6/26/2021 6:00:00 PM 15.96 60.728 0.03 7.09 2.57 9.48
6/26/2021 6:15:00 PM 15.94 60.692 0.03 7.11 2.65 9.47
6/26/2021 6:30:00 PM 15.92 60.656 0.03 7.11 2.35 9.47
6/26/2021 6:45:00 PM 15.91 60.638 0.03 7.11 2.34 9.46
6/26/2021 7:00:00 PM 15.88 60.584 0.03 7.08 2.42 9.44
6/26/2021 7:15:00 PM 15.85 60.53 0.03 7.07 2.41 9.44
6/26/2021 7:30:00 PM 15.81 60.458 0.03 7.09 2.43 9.44
6/26/2021 7:45:00 PM 15.78 60.404 0.03 7.07 2.39 9.45
6/26/2021 8:00:00 PM 15.73 60.314 0.03 7.05 2.51 9.44
6/26/2021 8:15:00 PM 15.7 60.26 0.03 7.07 2.4 9.44
6/26/2021 8:30:00 PM 15.66 60.188 0.03 7.07 2.4 9.44
6/26/2021 8:45:00 PM 15.62 60.116 0.03 7.07 2.33 9.44
6/26/2021 9:00:00 PM 15.59 60.062 0.03 7.05 2.52 9.44
6/26/2021 9:15:00 PM 15.56 60.008 0.03 7.04 2.41 9.44
6/26/2021 9:30:00 PM 15.52 59.936 0.031 7.03 2.39 9.44
6/26/2021 9:45:00 PM 15.48 59.864 0.031 7.04 2.39 9.45
6/26/2021 10:00:00 PM 15.45 59.81 0.031 7.05 2.37 9.46
6/26/2021 10:15:00 PM 15.41 59.738 0.031 7.05 2.36 9.47
6/26/2021 10:30:00 PM 15.38 59.684 0.031 7.03 2.4 9.47
6/26/2021 10:45:00 PM 15.35 59.63 0.031 7.04 2.52 9.48
6/26/2021 11:00:00 PM 15.31 59.558 0.031 7.06 2.35 9.49
6/26/2021 11:15:00 PM 15.28 59.504 0.031 7.05 2.37 9.49
6/26/2021 11:30:00 PM 15.24 59.432 0.031 7.05 2.5 9.5
6/26/2021 11:45:00 PM 15.21 59.378 0.031 7.06 2.48 9.51
6/27/2021 12:00:00 AM 15.17 59.306 0.031 7.06 2.51 9.51
6/27/2021 12:15:00 AM 15.14 59.252 0.031 7.06 2.39 9.52
6/27/2021 12:30:00 AM 15.11 59.198 0.031 7.05 2.47 9.53
6/27/2021 12:45:00 AM 15.08 59.144 0.031 7.07 2.38 9.53
6/27/2021 1:00:00 AM 15.06 59.108 0.031 7.06 2.35 9.54
6/27/2021 1:15:00 AM 15.03 59.054 0.031 7.05 2.44 9.55
6/27/2021 1:30:00 AM 15 59 0.031 7.06 2.38 9.55
6/27/2021 1:45:00 AM 14.98 58.964 0.031 7.06 2.53 9.56
6/27/2021 2:00:00 AM 14.96 58.928 0.031 7.07 2.44 9.56
6/27/2021 2:15:00 AM 14.94 58.892 0.031 7.05 2.39 9.56
6/27/2021 2:30:00 AM 14.92 58.856 0.031 7.05 2.43 9.57
6/27/2021 2:45:00 AM 14.9 58.82 0.031 7.05 2.55 9.58
6/27/2021 3:00:00 AM 14.88 58.784 0.031 7.06 2.4 9.58
6/27/2021 3:15:00 AM 14.86 58.748 0.031 7.07 2.4 9.58
6/27/2021 3:30:00 AM 14.85 58.73 0.031 7.05 2.49 9.59
6/27/2021 3:45:00 AM 14.83 58.694 0.031 7.07 2.4 9.59
6/27/2021 4:00:00 AM 14.82 58.676 0.031 7.08 2.44 9.59
6/27/2021 4:15:00 AM 14.81 58.658 0.031 7.07 2.42 9.6
6/27/2021 4:30:00 AM 14.8 58.64 0.03 7.06 2.45 9.6
6/27/2021 4:45:00 AM 14.78 58.604 0.031 7.06 2.62 9.61
6/27/2021 5:00:00 AM 14.76 58.568 0.031 7.06 2.49 9.61
6/27/2021 5:15:00 AM 14.75 58.55 0.031 7.06 2.44 9.62
6/27/2021 5:30:00 AM 14.74 58.532 0.031 7.09 2.46 9.62
6/27/2021 5:45:00 AM 14.72 58.496 0.031 7.09 2.36 9.63
6/27/2021 6:00:00 AM 14.7 58.46 0.03 7.06 2.42 9.64
6/27/2021 6:15:00 AM 14.69 58.442 0.031 7.07 2.5 9.65
6/27/2021 6:30:00 AM 14.67 58.406 0.03 7.06 2.43 9.65
6/27/2021 6:45:00 AM 14.66 58.388 0.03 7.08 2.54 9.67
6/27/2021 7:00:00 AM 14.65 58.37 0.03 7.09 2.34 9.68
6/27/2021 7:15:00 AM 14.64 58.352 0.03 7.08 2.66 9.69
6/27/2021 7:30:00 AM 14.63 58.334 0.03 7.08 2.51 9.69
6/27/2021 7:45:00 AM 14.63 58.334 0.03 7.08 2.58 9.7
6/27/2021 8:00:00 AM 14.63 58.334 0.031 7.11 2.54 9.71
6/27/2021 8:15:00 AM 14.64 58.352 0.03 7.09 2.49 9.72
6/27/2021 8:30:00 AM 14.66 58.388 0.03 7.08 2.43 9.72
6/27/2021 8:45:00 AM 14.68 58.424 0.031 7.08 2.43 9.74
6/27/2021 9:00:00 AM 14.71 58.478 0.03 7.09 2.46 9.74
6/27/2021 9:15:00 AM 14.73 58.514 0.03 7.09 2.43 9.74
6/27/2021 9:30:00 AM 14.78 58.604 0.03 7.11 2.39 9.74
6/27/2021 9:45:00 AM 14.82 58.676 0.03 7.12 2.38 9.75
6/27/2021 10:00:00 AM 14.89 58.802 0.03 7.13 2.38 9.77
6/27/2021 10:15:00 AM 14.97 58.946 0.03 7.16 2.39 9.78
6/27/2021 10:30:00 AM 15.05 59.09 0.03 7.15 2.46 9.78
6/27/2021 10:45:00 AM 15.08 59.144 0.03 7.15 2.44 9.77
6/27/2021 11:00:00 AM 15.12 59.216 0.03 7.15 2.54 9.75
6/27/2021 11:15:00 AM 15.19 59.342 0.03 7.15 2.4 9.75
6/27/2021 11:30:00 AM 15.25 59.45 0.03 7.16 2.57 9.75
6/27/2021 11:45:00 AM 15.39 59.702 0.03 7.17 2.55 9.75
6/27/2021 12:00:00 PM 15.47 59.846 0.03 7.17 2.57 9.73
6/27/2021 12:15:00 PM 15.64 60.152 0.03 7.19 2.48 9.72
6/27/2021 12:30:00 PM 15.78 60.404 0.03 7.17 2.71 9.71
6/27/2021 12:45:00 PM 15.98 60.764 0.03 7.18 2.78 9.69
6/27/2021 1:00:00 PM 16.19 61.142 0.03 7.18 2.59 9.65
6/27/2021 1:15:00 PM 16.33 61.394 0.03 7.17 2.74 9.63
6/27/2021 1:30:00 PM 16.54 61.772 0.03 7.19 2.63 9.6
6/27/2021 1:45:00 PM 16.7 62.06 0.03 7.19 2.76 9.57
6/27/2021 2:00:00 PM 16.67 62.006 0.03 7.16 2.75 9.53
6/27/2021 2:15:00 PM 16.81 62.258 0.03 7.19 2.72 9.52
6/27/2021 2:30:00 PM 16.83 62.294 0.03 7.18 2.69 9.5
6/27/2021 2:45:00 PM 16.87 62.366 0.03 7.16 2.66 9.47
6/27/2021 3:00:00 PM 16.85 62.33 0.03 7.15 2.64 9.44
6/27/2021 3:15:00 PM 16.88 62.384 0.03 7.15 3.9 9.41
6/27/2021 3:30:00 PM 16.89 62.402 0.03 7.14 2.96 9.39
6/27/2021 3:45:00 PM 16.93 62.474 0.03 7.16 2.77 9.38
6/27/2021 4:00:00 PM 16.94 62.492 0.03 7.16 2.7 9.36
6/27/2021 4:15:00 PM 16.92 62.456 0.03 7.15 2.86 9.34
6/27/2021 4:30:00 PM 16.91 62.438 0.03 7.14 3.32 9.32
6/27/2021 4:45:00 PM 16.89 62.402 0.03 7.14 2.6 9.33
6/27/2021 5:00:00 PM 16.87 62.366 0.03 7.12 2.74 9.33
6/27/2021 5:15:00 PM 16.85 62.33 0.03 7.13 2.63 9.33
6/27/2021 5:30:00 PM 16.83 62.294 0.03 7.11 2.68 9.33
6/27/2021 5:45:00 PM 16.79 62.222 0.03 7.11 2.52 9.33
6/27/2021 6:00:00 PM 16.76 62.168 0.03 7.11 2.56 9.31
6/27/2021 6:15:00 PM 16.72 62.096 0.03 7.1 2.79 9.31
6/27/2021 6:30:00 PM 16.68 62.024 0.03 7.11 2.62 9.3
6/27/2021 6:45:00 PM 16.63 61.934 0.03 7.09 2.71 9.3
6/27/2021 7:00:00 PM 16.58 61.844 0.03 7.09 2.63 9.29
6/27/2021 7:15:00 PM 16.54 61.772 0.031 7.1 2.73 9.28
6/27/2021 7:30:00 PM 16.49 61.682 0.031 7.1 2.65 9.28
6/27/2021 7:45:00 PM 16.45 61.61 0.031 7.1 2.68 9.28
6/27/2021 8:00:00 PM 16.41 61.538 0.031 7.09 2.64 9.28
6/27/2021 8:15:00 PM 16.36 61.448 0.031 7.07 2.81 9.29
6/27/2021 8:30:00 PM 16.31 61.358 0.031 7.07 2.58 9.29
6/27/2021 8:45:00 PM 16.26 61.268 0.031 7.06 2.67 9.29
6/27/2021 9:00:00 PM 16.21 61.178 0.031 7.08 2.69 9.29
6/27/2021 9:15:00 PM 16.17 61.106 0.031 7.05 2.59 9.29
6/27/2021 9:30:00 PM 16.13 61.034 0.031 7.05 2.84 9.3
6/27/2021 9:45:00 PM 16.09 60.962 0.031 7.03 2.89 9.3
6/27/2021 10:00:00 PM 16.07 60.926 0.031 7.06 2.71 9.31
6/27/2021 10:15:00 PM 16.04 60.872 0.031 7.03 2.66 9.32
6/27/2021 10:30:00 PM 16 60.8 0.031 7.05 2.69 9.32
6/27/2021 10:45:00 PM 15.97 60.746 0.031 7.04 2.56 9.33
6/27/2021 11:00:00 PM 15.94 60.692 0.031 7.03 2.5 9.33
6/27/2021 11:15:00 PM 15.91 60.638 0.031 7.03 2.72 9.34
6/27/2021 11:30:00 PM 15.89 60.602 0.031 7.03 2.46 9.35
6/27/2021 11:45:00 PM 15.86 60.548 0.031 7.05 2.87 9.35
6/28/2021 12:00:00 AM 15.84 60.512 0.031 7.06 2.75 9.35
6/28/2021 12:15:00 AM 15.81 60.458 0.031 7.04 2.6 9.36
6/28/2021 12:30:00 AM 15.79 60.422 0.031 7.06 2.59 9.37
6/28/2021 12:45:00 AM 15.77 60.386 0.031 7.04 2.56 9.37
6/28/2021 1:00:00 AM 15.76 60.368 0.031 7.04 2.61 9.38
6/28/2021 1:15:00 AM 15.74 60.332 0.031 7.05 2.57 9.38
6/28/2021 1:30:00 AM 15.73 60.314 0.031 7.07 2.58 9.39
6/28/2021 1:45:00 AM 15.71 60.278 0.031 7.07 2.72 9.39
6/28/2021 2:00:00 AM 15.7 60.26 0.031 7.07 2.52 9.39
6/28/2021 2:15:00 AM 15.68 60.224 0.031 7.06 2.66 9.4
6/28/2021 2:30:00 AM 15.66 60.188 0.031 7.05 2.6 9.41
6/28/2021 2:45:00 AM 15.65 60.17 0.031 7.05 2.86 9.41
6/28/2021 3:00:00 AM 15.63 60.134 0.031 7.06 2.61 9.41
6/28/2021 3:15:00 AM 15.61 60.098 0.031 7.05 2.56 9.41
6/28/2021 3:30:00 AM 15.6 60.08 0.031 7.06 2.54 9.41
6/28/2021 3:45:00 AM 15.58 60.044 0.031 7.05 2.58 9.42
6/28/2021 4:00:00 AM 15.57 60.026 0.031 7.05 2.56 9.43
6/28/2021 4:15:00 AM 15.55 59.99 0.031 7.06 2.48 9.43
6/28/2021 4:30:00 AM 15.54 59.972 0.031 7.06 2.59 9.44
6/28/2021 4:45:00 AM 15.52 59.936 0.031 7.06 2.58 9.44
6/28/2021 5:00:00 AM 15.51 59.918 0.031 7.06 2.67 9.44
6/28/2021 5:15:00 AM 15.49 59.882 0.031 7.1 2.65 9.44
6/28/2021 5:30:00 AM 15.47 59.846 0.031 7.07 2.54 9.45
6/28/2021 5:45:00 AM 15.46 59.828 0.031 7.07 2.56 9.46
6/28/2021 6:00:00 AM 15.44 59.792 0.031 7.08 2.48 9.47
6/28/2021 6:15:00 AM 15.42 59.756 0.031 7.07 2.61 9.48
6/28/2021 6:30:00 AM 15.41 59.738 0.031 7.09 2.56 9.5
6/28/2021 6:45:00 AM 15.39 59.702 0.031 7.06 2.57 9.5
6/28/2021 7:00:00 AM 15.37 59.666 0.031 7.07 2.54 9.51
6/28/2021 7:15:00 AM 15.36 59.648 0.031 7.06 2.77 9.53
6/28/2021 7:30:00 AM 15.35 59.63 0.031 7.08 2.64 9.53
6/28/2021 7:45:00 AM 15.34 59.612 0.031 7.06 2.56 9.54
6/28/2021 8:00:00 AM 15.33 59.594 0.031 7.07 2.57 9.55
6/28/2021 8:15:00 AM 15.33 59.594 0.031 7.07 2.49 9.55
6/28/2021 8:30:00 AM 15.34 59.612 0.031 7.06 2.54 9.56
6/28/2021 8:45:00 AM 15.35 59.63 0.031 7.07 2.58 9.57
6/28/2021 9:00:00 AM 15.36 59.648 0.031 7.06 2.45 9.58
6/28/2021 9:15:00 AM 15.39 59.702 0.031 7.05 2.56 9.58
6/28/2021 9:30:00 AM 15.42 59.756 0.031 7.07 2.51 9.59
6/28/2021 9:45:00 AM 15.46 59.828 0.031 7.09 2.51 9.59
6/28/2021 10:00:00 AM 15.5 59.9 0.031 7.1 2.44 9.6
6/28/2021 10:15:00 AM 15.56 60.008 0.031 7.1 2.47 9.6
6/28/2021 10:30:00 AM 15.63 60.134 0.031 7.13 2.53 9.6
6/28/2021 10:45:00 AM 15.72 60.296 0.031 7.13 2.5 9.6
6/28/2021 11:00:00 AM 15.83 60.494 0.031 7.14 2.53 9.61
6/28/2021 11:15:00 AM 15.94 60.692 0.031 7.15 2.55 9.62
6/28/2021 11:30:00 AM 16.03 60.854 0.031 7.12 2.52 9.59
6/28/2021 11:45:00 AM 16.16 61.088 0.031 7.14 2.56 9.58
6/28/2021 12:00:00 PM 16.29 61.322 0.031 7.15 2.51 9.57
6/28/2021 12:15:00 PM 16.44 61.592 0.03 7.16 2.57 9.56
6/28/2021 12:30:00 PM 16.62 61.916 0.031 7.15 2.58 9.54
6/28/2021 12:45:00 PM 16.81 62.258 0.03 7.16 2.58 9.51
6/28/2021 1:00:00 PM 17.04 62.672 0.03 7.16 2.49 9.5
6/28/2021 1:15:00 PM 17.24 63.032 0.03 7.16 2.58 9.47
6/28/2021 1:30:00 PM 17.38 63.284 0.03 7.15 2.5 9.44
6/28/2021 1:45:00 PM 17.51 63.518 0.03 7.15 2.5 9.41
6/28/2021 2:00:00 PM 17.6 63.68 0.03 7.16 2.56 9.37
6/28/2021 2:15:00 PM 17.58 63.644 0.03 7.15 2.64 9.36
6/28/2021 2:30:00 PM 17.63 63.734 0.03 7.13 2.63 9.33
6/28/2021 2:45:00 PM 17.64 63.752 0.03 7.13 2.75 9.31
6/28/2021 3:00:00 PM 17.62 63.716 0.03 7.13 2.65 9.27
6/28/2021 3:15:00 PM 17.6 63.68 0.03 7.15 2.64 9.25
6/28/2021 3:30:00 PM 17.61 63.698 0.03 7.13 2.75 9.22
6/28/2021 3:45:00 PM 17.63 63.734 0.03 7.12 2.72 9.21
6/28/2021 4:00:00 PM 17.66 63.788 0.03 7.13 2.6 9.19
6/28/2021 4:15:00 PM 17.68 63.824 0.03 7.12 2.69 9.17
6/28/2021 4:30:00 PM 17.68 63.824 0.03 7.12 2.67 9.15
6/28/2021 4:45:00 PM 17.67 63.806 0.03 7.11 2.73 9.14
6/28/2021 5:00:00 PM 17.64 63.752 0.03 7.1 2.64 9.12
6/28/2021 5:15:00 PM 17.59 63.662 0.03 7.1 2.81 9.12
6/28/2021 5:30:00 PM 17.55 63.59 0.031 7.1 2.59 9.11
6/28/2021 5:45:00 PM 17.51 63.518 0.031 7.07 2.66 9.11
6/28/2021 6:00:00 PM 17.47 63.446 0.031 7.07 2.57 9.11
6/28/2021 6:15:00 PM 17.43 63.374 0.031 7.09 2.61 9.11
6/28/2021 6:30:00 PM 17.37 63.266 0.031 7.09 2.68 9.12
6/28/2021 6:45:00 PM 17.3 63.14 0.031 7.07 2.72 9.12
6/28/2021 7:00:00 PM 17.23 63.014 0.031 7.06 2.62 9.13
6/28/2021 7:15:00 PM 17.16 62.888 0.031 7.05 2.7 9.14
6/28/2021 7:30:00 PM 17.1 62.78 0.031 7.06 2.8 9.14
6/28/2021 7:45:00 PM 17.04 62.672 0.031 7.04 2.64 9.15
6/28/2021 8:00:00 PM 16.99 62.582 0.031 7.04 2.78 9.15
6/28/2021 8:15:00 PM 16.94 62.492 0.031 7.05 2.7 9.15
6/28/2021 8:30:00 PM 16.89 62.402 0.031 7.05 2.69 9.15
6/28/2021 8:45:00 PM 16.84 62.312 0.031 7.04 2.84 9.15
6/28/2021 9:00:00 PM 16.78 62.204 0.031 7.02 2.64 9.15
6/28/2021 9:15:00 PM 16.73 62.114 0.031 7.01 2.63 9.16
6/28/2021 9:30:00 PM 16.69 62.042 0.031 7.01 2.83 9.17
6/28/2021 9:45:00 PM 16.64 61.952 0.031 7.03 2.8 9.18
6/28/2021 10:00:00 PM 16.6 61.88 0.031 7.02 2.8 9.18
6/28/2021 10:15:00 PM 16.57 61.826 0.031 7.03 2.81 9.2
6/28/2021 10:30:00 PM 16.53 61.754 0.031 7.03 2.84 9.21
6/28/2021 10:45:00 PM 16.49 61.682 0.031 7.01 2.77 9.21
6/28/2021 11:00:00 PM 16.45 61.61 0.031 7.02 2.9 9.22
6/28/2021 11:15:00 PM 16.42 61.556 0.031 7.04 2.77 9.22
6/28/2021 11:30:00 PM 16.38 61.484 0.031 7.03 2.89 9.24
6/28/2021 11:45:00 PM 16.35 61.43 0.031 7.05 2.84 9.25
6/29/2021 12:00:00 AM 16.32 61.376 0.031 7.02 2.8 9.26
6/29/2021 12:15:00 AM 16.29 61.322 0.031 7.02 2.74 9.26
6/29/2021 12:30:00 AM 16.27 61.286 0.031 7.03 2.69 9.27
6/29/2021 12:45:00 AM 16.24 61.232 0.031 7.03 2.71 9.28
6/29/2021 1:00:00 AM 16.21 61.178 0.031 7.05 2.8 9.28
6/29/2021 1:15:00 AM 16.18 61.124 0.031 7.04 2.86 9.29
6/29/2021 1:30:00 AM 16.16 61.088 0.031 7.05 2.73 9.29
6/29/2021 1:45:00 AM 16.14 61.052 0.031 7.06 2.94 9.3
6/29/2021 2:00:00 AM 16.12 61.016 0.031 7.06 2.76 9.3
6/29/2021 2:15:00 AM 16.1 60.98 0.031 7.05 2.87 9.31
6/29/2021 2:30:00 AM 16.09 60.962 0.031 7.05 2.71 9.31
6/29/2021 2:45:00 AM 16.07 60.926 0.031 7.05 2.84 9.31
6/29/2021 3:00:00 AM 16.05 60.89 0.031 7.05 2.78 9.31
6/29/2021 3:15:00 AM 16.04 60.872 0.031 7.04 2.63 9.32
6/29/2021 3:30:00 AM 16.03 60.854 0.031 7.05 2.71 9.32
6/29/2021 3:45:00 AM 16.02 60.836 0.031 7.06 2.69 9.33
6/29/2021 4:00:00 AM 16.01 60.818 0.031 7.06 2.75 9.33
6/29/2021 4:15:00 AM 16 60.8 0.031 7.07 2.79 9.33
6/29/2021 4:30:00 AM 15.99 60.782 0.031 7.07 2.85 9.33
6/29/2021 4:45:00 AM 15.98 60.764 0.031 7.08 2.78 9.34
6/29/2021 5:00:00 AM 15.97 60.746 0.031 7.08 2.89 9.34
6/29/2021 5:15:00 AM 15.96 60.728 0.031 7.09 2.85 9.35
6/29/2021 5:30:00 AM 15.95 60.71 0.031 7.09 2.75 9.35
6/29/2021 5:45:00 AM 15.94 60.692 0.031 7.09 2.86 9.36
6/29/2021 6:00:00 AM 15.93 60.674 0.031 7.09 2.74 9.36
6/29/2021 6:15:00 AM 15.91 60.638 0.031 7.09 2.73 9.37
6/29/2021 6:30:00 AM 15.9 60.62 0.031 7.07 2.7 9.38
6/29/2021 6:45:00 AM 15.89 60.602 0.031 7.08 2.68 9.4
6/29/2021 7:00:00 AM 15.88 60.584 0.031 7.09 2.64 9.41
6/29/2021 7:15:00 AM 15.87 60.566 0.031 7.08 2.69 9.41
6/29/2021 7:30:00 AM 15.86 60.548 0.031 7.08 2.6 9.42
6/29/2021 7:45:00 AM 15.86 60.548 0.031 7.07 2.64 9.43
6/29/2021 8:00:00 AM 15.85 60.53 0.031 7.07 2.67 9.44
6/29/2021 8:15:00 AM 15.86 60.548 0.031 7.07 2.66 9.44
6/29/2021 8:30:00 AM 15.86 60.548 0.031 7.07 2.67 9.45
6/29/2021 8:45:00 AM 15.87 60.566 0.031 7.07 2.58 9.45
6/29/2021 9:00:00 AM 15.89 60.602 0.031 7.07 2.63 9.46
6/29/2021 9:15:00 AM 15.91 60.638 0.031 7.07 2.74 9.46
6/29/2021 9:30:00 AM 15.94 60.692 0.031 7.09 2.66 9.47
6/29/2021 9:45:00 AM 15.97 60.746 0.031 7.11 3.1 9.47
6/29/2021 10:00:00 AM 16.01 60.818 0.031 7.11 2.66 9.47
6/29/2021 10:15:00 AM 16.05 60.89 0.031 7.11 2.75 9.48
6/29/2021 10:30:00 AM 16.12 61.016 0.031 7.12 2.58 9.48
6/29/2021 10:45:00 AM 16.21 61.178 0.031 7.12 2.61 9.47
6/29/2021 11:00:00 AM 16.29 61.322 0.031 7.12 2.57 9.47
6/29/2021 11:15:00 AM 16.38 61.484 0.031 7.12 2.61 9.46
6/29/2021 11:30:00 AM 16.51 61.718 0.031 7.13 2.59 9.47
6/29/2021 11:45:00 AM 16.62 61.916 0.031 7.15 2.62 9.48
6/29/2021 12:00:00 PM 16.77 62.186 0.031 7.15 2.66 9.46
6/29/2021 12:15:00 PM 16.9 62.42 0.031 7.16 2.77 9.45
6/29/2021 12:30:00 PM 17.05 62.69 0.031 7.18 2.57 9.44
6/29/2021 12:45:00 PM 17.21 62.978 0.031 7.17 2.54 9.41
6/29/2021 1:00:00 PM 17.42 63.356 0.031 7.18 2.62 9.4
6/29/2021 1:15:00 PM 17.49 63.482 0.031 7.16 2.55 9.36
6/29/2021 1:30:00 PM 17.33 63.194 0.031 7.11 2.64 9.29
6/29/2021 1:45:00 PM 17.62 63.716 0.031 7.16 2.6 9.29
6/29/2021 2:00:00 PM 17.62 63.716 0.031 7.13 2.63 9.3
6/29/2021 2:15:00 PM 17.43 63.374 0.031 7.11 2.61 9.24
6/29/2021 2:30:00 PM 17.49 63.482 0.031 7.13 2.6 9.22
6/29/2021 2:45:00 PM 17.64 63.752 0.031 7.15 2.92 9.25
6/29/2021 3:00:00 PM 17.65 63.77 0.031 7.13 2.57 9.24
6/29/2021 3:15:00 PM 17.64 63.752 0.031 7.12 2.56 9.22
6/29/2021 3:30:00 PM 17.68 63.824 0.031 7.11 2.62 9.2
6/29/2021 3:45:00 PM 17.66 63.788 0.031 7.11 2.68 9.16
6/29/2021 4:00:00 PM 17.7 63.86 0.031 7.1 2.7 9.14
6/29/2021 4:15:00 PM 17.73 63.914 0.031 7.09 2.66 9.13
6/29/2021 4:30:00 PM 17.73 63.914 0.03 7.09 2.63 9.12
6/29/2021 4:45:00 PM 17.75 63.95 0.031 7.1 2.67 9.1
6/29/2021 5:00:00 PM 17.78 64.004 0.031 7.1 2.72 9.09
6/29/2021 5:15:00 PM 17.79 64.022 0.031 7.1 2.74 9.07
6/29/2021 5:30:00 PM 17.78 64.004 0.031 7.09 2.68 9.06
6/29/2021 5:45:00 PM 17.77 63.986 0.031 7.1 6.33 9.04
6/29/2021 6:00:00 PM 17.75 63.95 0.031 7.09 3.72 9.03
6/29/2021 6:15:00 PM 17.72 63.896 0.031 7.07 2.84 9.03
6/29/2021 6:30:00 PM 17.67 63.806 0.031 7.06 2.83 9.03
6/29/2021 6:45:00 PM 17.62 63.716 0.031 7.06 2.82 9.03
6/29/2021 7:00:00 PM 17.57 63.626 0.031 7.06 2.81 9.03
6/29/2021 7:15:00 PM 17.52 63.536 0.031 7.06 2.69 9.04
6/29/2021 7:30:00 PM 17.47 63.446 0.031 7.04 2.71 9.04
6/29/2021 7:45:00 PM 17.42 63.356 0.031 7.07 2.92 9.04
6/29/2021 8:00:00 PM 17.36 63.248 0.031 7.07 2.82 9.04
6/29/2021 8:15:00 PM 17.32 63.176 0.031 7.07 2.74 9.04
6/29/2021 8:30:00 PM 17.27 63.086 0.031 7.07 2.84 9.04
6/29/2021 8:45:00 PM 17.23 63.014 0.031 7.06 2.81 9.05
6/29/2021 9:00:00 PM 17.19 62.942 0.031 7.05 3 9.05
6/29/2021 9:15:00 PM 17.16 62.888 0.031 7.06 2.83 9.06
6/29/2021 9:30:00 PM 17.14 62.852 0.031 7.05 2.76 9.06
6/29/2021 9:45:00 PM 17.1 62.78 0.031 7.06 2.68 9.07
6/29/2021 10:00:00 PM 17.06 62.708 0.031 7.06 2.81 9.08
6/29/2021 10:15:00 PM 17.03 62.654 0.031 7.05 2.68 9.08
6/29/2021 10:30:00 PM 16.99 62.582 0.031 7.06 2.75 9.1
6/29/2021 10:45:00 PM 16.95 62.51 0.031 7.06 2.64 9.1
6/29/2021 11:00:00 PM 16.91 62.438 0.031 7.07 2.69 9.11
6/29/2021 11:15:00 PM 16.9 62.42 0.031 7.06 2.95 9.12
6/29/2021 11:30:00 PM 16.9 62.42 0.031 7.08 2.85 9.13
6/29/2021 11:45:00 PM 16.87 62.366 0.031 7.09 2.84 9.09
6/30/2021 12:00:00 AM 16.83 62.294 0.031 7.07 2.84 9.09
6/30/2021 12:15:00 AM 16.82 62.276 0.031 7.08 2.78 9.1
6/30/2021 12:30:00 AM 16.77 62.186 0.031 7.06 2.8 9.11
6/30/2021 12:45:00 AM 16.74 62.132 0.031 7.06 2.75 9.11
6/30/2021 1:00:00 AM 16.71 62.078 0.031 7.07 2.77 9.12
6/30/2021 1:15:00 AM 16.68 62.024 0.031 7.05 2.84 9.12
6/30/2021 1:30:00 AM 16.65 61.97 0.031 7.06 2.99 9.13
6/30/2021 1:45:00 AM 16.63 61.934 0.031 7.05 2.82 9.14
6/30/2021 2:00:00 AM 16.61 61.898 0.031 7.08 2.8 9.15
6/30/2021 2:15:00 AM 16.6 61.88 0.031 7.07 2.85 9.16
6/30/2021 2:30:00 AM 16.58 61.844 0.031 7.06 2.69 9.16
6/30/2021 2:45:00 AM 16.57 61.826 0.031 7.06 2.75 9.17
6/30/2021 3:00:00 AM 16.55 61.79 0.031 7.05 2.87 9.17
6/30/2021 3:15:00 AM 16.54 61.772 0.031 7.05 2.72 9.18
6/30/2021 3:30:00 AM 16.53 61.754 0.031 7.06 2.72 9.18
6/30/2021 3:45:00 AM 16.52 61.736 0.031 7.07 2.73 9.19
6/30/2021 4:00:00 AM 16.5 61.7 0.031 7.06 2.76 9.19
6/30/2021 4:15:00 AM 16.5 61.7 0.031 7.05 2.85 9.2
6/30/2021 4:30:00 AM 16.48 61.664 0.031 7.05 2.78 9.2
6/30/2021 4:45:00 AM 16.47 61.646 0.031 7.07 2.89 9.2
6/30/2021 5:00:00 AM 16.46 61.628 0.031 7.07 2.83 9.2
6/30/2021 5:15:00 AM 16.45 61.61 0.031 7.06 2.72 9.21
6/30/2021 5:30:00 AM 16.44 61.592 0.031 7.07 2.68 9.21
6/30/2021 5:45:00 AM 16.43 61.574 0.031 7.07 2.75 9.22
6/30/2021 6:00:00 AM 16.41 61.538 0.031 7.07 2.72 9.23
6/30/2021 6:15:00 AM 16.4 61.52 0.031 7.09 2.69 9.23
6/30/2021 6:30:00 AM 16.39 61.502 0.031 7.06 2.75 9.25
6/30/2021 6:45:00 AM 16.39 61.502 0.031 7.06 2.85 9.26
6/30/2021 7:00:00 AM 16.39 61.502 0.031 7.08 2.71 9.27
6/30/2021 7:15:00 AM 16.38 61.484 0.031 7.1 2.79 9.29
6/30/2021 7:30:00 AM 16.37 61.466 0.031 7.12 2.73 9.3
6/30/2021 7:45:00 AM 16.36 61.448 0.031 7.12 2.62 9.31
6/30/2021 8:00:00 AM 16.36 61.448 0.031 7.1 2.74 9.32
6/30/2021 8:15:00 AM 16.36 61.448 0.031 7.11 2.62 9.34
6/30/2021 8:30:00 AM 16.36 61.448 0.031 7.11 2.69 9.35
6/30/2021 8:45:00 AM 16.36 61.448 0.031 7.11 2.7 9.34
6/30/2021 9:00:00 AM 16.35 61.43 0.031 7.11 2.62 9.34
6/30/2021 9:15:00 AM 16.37 61.466 0.031 7.13 2.61 9.35
6/30/2021 9:30:00 AM 16.38 61.484 0.031 7.11 2.71 9.35
6/30/2021 9:45:00 AM 16.4 61.52 0.031 7.13 2.56 9.34
6/30/2021 10:00:00 AM 16.43 61.574 0.031 7.14 2.61 9.34
6/30/2021 10:15:00 AM 16.47 61.646 0.031 7.13 2.64 9.34
6/30/2021 10:30:00 AM 16.52 61.736 0.031 7.14 2.7 9.34
6/30/2021 10:45:00 AM 16.59 61.862 0.031 7.13 2.55 9.34
6/30/2021 11:00:00 AM 16.68 62.024 0.031 7.15 2.62 9.34
6/30/2021 11:15:00 AM 16.78 62.204 0.031 7.16 2.7 9.34
6/30/2021 11:30:00 AM 16.88 62.384 0.031 7.15 2.65 9.33
6/30/2021 11:45:00 AM 17 62.6 0.031 7.15 2.58 9.33
6/30/2021 12:00:00 PM 17.15 62.87 0.031 7.17 2.64 9.32
6/30/2021 12:15:00 PM 17.24 63.032 0.031 7.16 2.73 9.31
6/30/2021 12:30:00 PM 17.37 63.266 0.031 7.16 2.74 9.3
6/30/2021 12:45:00 PM 17.55 63.59 0.031 7.18 2.69 9.28
6/30/2021 1:00:00 PM 17.77 63.986 0.031 7.16 2.57 9.27
6/30/2021 1:15:00 PM 17.84 64.112 0.031 7.18 2.63 9.25
6/30/2021 1:30:00 PM 17.92 64.256 0.031 7.18 2.77 9.24
6/30/2021 1:45:00 PM 18.12 64.616 0.031 7.18 2.57 9.22
6/30/2021 2:00:00 PM 18.19 64.742 0.031 7.16 3.07 9.2
6/30/2021 2:15:00 PM 17.9 64.22 0.031 7.1 2.78 9.11
6/30/2021 2:30:00 PM 17.77 63.986 0.031 7.11 2.73 9.05
6/30/2021 2:45:00 PM 17.69 63.842 0.031 7.11 2.71 9.04
6/30/2021 3:00:00 PM 17.78 64.004 0.031 7.14 2.69 9.12
6/30/2021 3:15:00 PM 17.78 64.004 0.031 7.14 2.66 9.15
6/30/2021 3:30:00 PM 17.77 63.986 0.031 7.16 2.56 9.16
6/30/2021 3:45:00 PM 17.69 63.842 0.031 7.13 2.57 9.1
6/30/2021 4:00:00 PM 17.74 63.932 0.03 7.13 3.39 9.06
6/30/2021 4:15:00 PM 17.7 63.86 0.03 7.11 3.6 9.01
6/30/2021 4:30:00 PM 17.67 63.806 0.03 7.1 3.06 8.99
6/30/2021 4:45:00 PM 17.63 63.734 0.03 7.09 3.06 8.98
6/30/2021 5:00:00 PM 17.6 63.68 0.03 7.08 2.92 8.96
6/30/2021 5:15:00 PM 17.62 63.716 0.03 7.1 2.97 8.97
6/30/2021 5:30:00 PM 17.6 63.68 0.03 7.1 3.07 8.95
6/30/2021 5:45:00 PM 17.58 63.644 0.032 7.1 2.15 8.93
6/30/2021 6:00:00 PM 17.55 63.59 0.032 7.09 2.15 8.92
6/30/2021 6:15:00 PM 17.57 63.626 0.032 7.08 2.98 8.92
6/30/2021 6:30:00 PM 17.52 63.536 0.032 7.07 2.62 8.93
6/30/2021 6:45:00 PM 17.49 63.482 0.032 7.08 2.45 8.94
6/30/2021 7:00:00 PM 17.46 63.428 0.032 7.08 2.46 8.95
6/30/2021 7:15:00 PM 17.43 63.374 0.032 7.06 2.53 8.97
6/30/2021 7:30:00 PM 17.39 63.302 0.032 7.1 2.61 8.99
6/30/2021 7:45:00 PM 17.36 63.248 0.033 7.1 2.78 9.01
6/30/2021 8:00:00 PM 17.33 63.194 0.033 7.12 3.14 9.01
6/30/2021 8:15:00 PM 17.31 63.158 0.033 7.12 3.2 9.03
6/30/2021 8:30:00 PM 17.28 63.104 0.033 7.12 3.16 9.04
6/30/2021 8:45:00 PM 17.26 63.068 0.033 7.13 3.21 9.03
6/30/2021 9:00:00 PM 17.34 63.212 0.033 7.12 7.87 9.06
6/30/2021 9:15:00 PM 17.5 63.5 0.033 7.14 10.33 9.1
6/30/2021 9:30:00 PM 17.64 63.752 0.033 7.2 9.65 9.09
6/30/2021 9:45:00 PM 17.88 64.184 0.033 7.18 8.09 9.05
6/30/2021 10:00:00 PM 18.08 64.544 0.033 7.2 6.49 9.02
6/30/2021 10:15:00 PM 18.19 64.742 0.032 7.16 5.45 9
6/30/2021 10:30:00 PM 18.2 64.76 0.032 7.11 4.78 9
6/30/2021 10:45:00 PM 18.15 64.67 0.032 7.13 3.96 9.01
6/30/2021 11:00:00 PM 18.06 64.508 0.032 7.12 3.63 9.02
6/30/2021 11:15:00 PM 17.96 64.328 0.032 7.12 3.28 9.04
6/30/2021 11:30:00 PM 17.86 64.148 0.032 7.12 3.25 9.06
6/30/2021 11:45:00 PM 17.76 63.968 0.032 7.11 3.16 9.07
7/1/2021 12:00:00 AM 17.68 63.824 0.032 7.08 3.09 9.08
7/1/2021 12:15:00 AM 17.59 63.662 0.032 7.11 3.13 9.09
7/1/2021 12:30:00 AM 17.52 63.536 0.032 7.1 2.98 9.1
7/1/2021 12:45:00 AM 17.44 63.392 0.032 7.11 2.89 9.12
7/1/2021 1:00:00 AM 17.37 63.266 0.032 7.11 2.98 9.13
7/1/2021 1:15:00 AM 17.31 63.158 0.032 7.1 2.87 9.13
7/1/2021 1:30:00 AM 17.25 63.05 0.032 7.08 2.86 9.14
7/1/2021 1:45:00 AM 17.19 62.942 0.032 7.1 2.7 9.14
7/1/2021 2:00:00 AM 17.13 62.834 0.032 7.06 2.78 9.15
7/1/2021 2:15:00 AM 17.09 62.762 0.032 7.07 2.66 9.16
7/1/2021 2:30:00 AM 17.03 62.654 0.032 7.09 2.58 9.17
7/1/2021 2:45:00 AM 16.98 62.564 0.032 7.1 2.56 9.17
7/1/2021 3:00:00 AM 16.94 62.492 0.032 7.1 2.48 9.18
7/1/2021 3:15:00 AM 16.89 62.402 0.032 7.06 2.52 9.19
7/1/2021 3:30:00 AM 16.85 62.33 0.032 7.11 2.53 9.19
7/1/2021 3:45:00 AM 16.8 62.24 0.032 7.06 2.6 9.2
7/1/2021 4:00:00 AM 16.76 62.168 0.032 7.1 2.5 9.2
7/1/2021 4:15:00 AM 16.73 62.114 0.032 7.1 2.46 9.2
7/1/2021 4:30:00 AM 16.69 62.042 0.032 7.09 2.43 9.21
7/1/2021 4:45:00 AM 16.66 61.988 0.032 7.05 2.48 9.21
7/1/2021 5:00:00 AM 16.62 61.916 0.032 7.1 2.52 9.21
7/1/2021 5:15:00 AM 16.59 61.862 0.032 7.08 2.53 9.22
7/1/2021 5:30:00 AM 16.58 61.844 0.032 7.05 2.61 9.22
7/1/2021 5:45:00 AM 16.57 61.826 0.032 7.09 2.68 9.22
7/1/2021 6:00:00 AM 16.55 61.79 0.032 7.08 2.57 9.22
7/1/2021 6:15:00 AM 16.53 61.754 0.032 7.07 2.64 9.21
7/1/2021 6:30:00 AM 16.5 61.7 0.032 7.08 2.59 9.23
7/1/2021 6:45:00 AM 16.47 61.646 0.032 7.07 2.63 9.24
7/1/2021 7:00:00 AM 16.44 61.592 0.032 7.09 2.59 9.25
7/1/2021 7:15:00 AM 16.41 61.538 0.032 7.04 2.69 9.26
7/1/2021 7:30:00 AM 16.38 61.484 0.032 7.06 2.66 9.28
7/1/2021 7:45:00 AM 16.35 61.43 0.032 7.08 2.45 9.29
7/1/2021 8:00:00 AM 16.33 61.394 0.032 7.1 2.35 9.29
7/1/2021 8:15:00 AM 16.32 61.376 0.032 7.09 2.36 9.3
7/1/2021 8:30:00 AM 16.31 61.358 0.033 7.1 2.34 9.3
7/1/2021 8:45:00 AM 16.31 61.358 0.033 7.1 2.4 9.31
7/1/2021 9:00:00 AM 16.3 61.34 0.033 7.08 2.37 9.31
7/1/2021 9:15:00 AM 16.29 61.322 0.033 7.14 2.43 9.32
7/1/2021 9:30:00 AM 16.27 61.286 0.033 7.15 2.35 9.33
7/1/2021 9:45:00 AM 16.26 61.268 0.032 7.16 2.26 9.34
7/1/2021 10:00:00 AM 16.27 61.286 0.032 7.17 2.35 9.37
7/1/2021 10:15:00 AM 16.27 61.286 0.032 7.15 2.36 9.39
7/1/2021 10:30:00 AM 16.27 61.286 0.032 7.18 2.31 9.39
7/1/2021 10:45:00 AM 16.27 61.286 0.032 7.19 2.34 9.4
7/1/2021 11:00:00 AM 16.29 61.322 0.032 7.18 2.33 9.43
7/1/2021 11:15:00 AM 16.3 61.34 0.032 7.19 2.32 9.43
7/1/2021 11:30:00 AM 16.34 61.412 0.032 7.19 2.23 9.45
7/1/2021 11:45:00 AM 16.35 61.43 0.032 7.17 2.25 9.45
7/1/2021 12:00:00 PM 16.34 61.412 0.032 7.19 2.12 9.42
7/1/2021 12:15:00 PM 16.34 61.412 0.032 7.19 2.2 9.39
7/1/2021 12:30:00 PM 16.34 61.412 0.032 7.16 2.13 9.4
7/1/2021 12:45:00 PM 16.33 61.394 0.032 7.18 2.02 9.39
7/1/2021 1:00:00 PM 16.32 61.376 0.032 7.17 2.17 9.4
7/1/2021 1:15:00 PM 16.31 61.358 0.032 7.16 2.02 9.4
7/1/2021 1:30:00 PM 16.31 61.358 0.032 7.16 2.11 9.4
7/1/2021 1:45:00 PM 16.3 61.34 0.032 7.16 2.07 9.4
7/1/2021 2:00:00 PM 16.3 61.34 0.032 7.16 2.07 9.39
7/1/2021 2:15:00 PM 16.29 61.322 0.032 7.12 2.11 9.4
7/1/2021 2:30:00 PM 16.28 61.304 0.032 7.16 2.07 9.38
7/1/2021 2:45:00 PM 16.26 61.268 0.032 7.15 2.02 9.36
7/1/2021 3:00:00 PM 16.25 61.25 0.032 7.13 2.05 9.38
7/1/2021 3:15:00 PM 16.26 61.268 0.032 7.16 2.03 9.39
7/1/2021 3:30:00 PM 16.25 61.25 0.032 7.12 1.98 9.39
7/1/2021 3:45:00 PM 16.24 61.232 0.032 7.15 2.02 9.39
7/1/2021 4:00:00 PM 16.23 61.214 0.032 7.16 2.03 9.39
7/1/2021 4:15:00 PM 16.23 61.214 0.032 7.15 2.06 9.4
7/1/2021 4:30:00 PM 16.24 61.232 0.032 7.17 1.99 9.41
7/1/2021 4:45:00 PM 16.24 61.232 0.032 7.11 2.04 9.42
7/1/2021 5:00:00 PM 16.22 61.196 0.032 7.17 2.01 9.4
7/1/2021 5:15:00 PM 16.21 61.178 0.032 7.16 2.02 9.39
7/1/2021 5:30:00 PM 16.2 61.16 0.032 7.12 2.05 9.38
7/1/2021 5:45:00 PM 16.18 61.124 0.032 7.13 2.1 9.37
7/1/2021 6:00:00 PM 16.17 61.106 0.032 7.15 2.07 9.36
7/1/2021 6:15:00 PM 16.16 61.088 0.032 7.14 2.03 9.35
7/1/2021 6:30:00 PM 16.16 61.088 0.032 7.13 2.07 9.34
7/1/2021 6:45:00 PM 16.15 61.07 0.032 7.15 2.15 9.32
7/1/2021 7:00:00 PM 16.13 61.034 0.032 7.13 2.09 9.32
7/1/2021 7:15:00 PM 16.11 60.998 0.032 7.13 2.04 9.33
7/1/2021 7:30:00 PM 16.1 60.98 0.032 7.14 2.02 9.33
7/1/2021 7:45:00 PM 16.08 60.944 0.032 7.14 2.01 9.33
7/1/2021 8:00:00 PM 16.06 60.908 0.031 7.12 2.02 9.33
7/1/2021 8:15:00 PM 16.03 60.854 0.031 7.13 1.97 9.33
7/1/2021 8:30:00 PM 16.01 60.818 0.031 7.13 2.03 9.33
7/1/2021 8:45:00 PM 15.99 60.782 0.031 7.12 1.95 9.34
7/1/2021 9:00:00 PM 15.96 60.728 0.031 7.13 2.01 9.33
7/1/2021 9:15:00 PM 15.94 60.692 0.031 7.09 2.05 9.34
7/1/2021 9:30:00 PM 15.92 60.656 0.031 7.11 2.15 9.34
7/1/2021 9:45:00 PM 15.9 60.62 0.031 7.11 2.11 9.35
7/1/2021 10:00:00 PM 15.87 60.566 0.031 7.12 2.16 9.35
7/1/2021 10:15:00 PM 15.85 60.53 0.031 7.1 2.06 9.36
7/1/2021 10:30:00 PM 15.83 60.494 0.031 7.11 2.03 9.36
7/1/2021 10:45:00 PM 15.81 60.458 0.031 7.11 2.11 9.37
7/1/2021 11:00:00 PM 15.79 60.422 0.031 7.13 2.03 9.37
7/1/2021 11:15:00 PM 15.77 60.386 0.031 7.11 2.05 9.37
7/1/2021 11:30:00 PM 15.76 60.368 0.031 7.12 2.03 9.38
7/1/2021 11:45:00 PM 15.75 60.35 0.031 7.14 2.15 9.37
7/2/2021 12:00:00 AM 15.74 60.332 0.031 7.14 2.01 9.38
7/2/2021 12:15:00 AM 15.72 60.296 0.031 7.14 2.04 9.38
7/2/2021 12:30:00 AM 15.7 60.26 0.031 7.15 2.05 9.39
7/2/2021 12:45:00 AM 15.69 60.242 0.031 7.14 2.16 9.39
7/2/2021 1:00:00 AM 15.66 60.188 0.031 7.12 1.98 9.39
7/2/2021 1:15:00 AM 15.64 60.152 0.031 7.13 2.03 9.4
7/2/2021 1:30:00 AM 15.61 60.098 0.031 7.14 1.91 9.4
7/2/2021 1:45:00 AM 15.58 60.044 0.031 7.13 1.94 9.41
7/2/2021 2:00:00 AM 15.55 59.99 0.031 7.14 2.1 9.41
7/2/2021 2:15:00 AM 15.52 59.936 0.031 7.14 2.07 9.43
7/2/2021 2:30:00 AM 15.49 59.882 0.031 7.16 2 9.44
7/2/2021 2:45:00 AM 15.46 59.828 0.031 7.17 2.03 9.44
7/2/2021 3:00:00 AM 15.42 59.756 0.031 7.13 1.94 9.44
7/2/2021 3:15:00 AM 15.39 59.702 0.031 7.17 2.02 9.45
7/2/2021 3:30:00 AM 15.36 59.648 0.031 7.15 2.02 9.45
7/2/2021 3:45:00 AM 15.32 59.576 0.031 7.15 2.01 9.46
7/2/2021 4:00:00 AM 15.29 59.522 0.031 7.17 2.03 9.47
7/2/2021 4:15:00 AM 15.25 59.45 0.031 7.17 1.94 9.48
7/2/2021 4:30:00 AM 15.22 59.396 0.031 7.16 2.04 9.49
7/2/2021 4:45:00 AM 15.18 59.324 0.031 7.17 1.92 9.49
7/2/2021 5:00:00 AM 15.14 59.252 0.031 7.17 2.12 9.51
7/2/2021 5:15:00 AM 15.11 59.198 0.031 7.18 1.98 9.51
7/2/2021 5:30:00 AM 15.07 59.126 0.031 7.17 2.13 9.52
7/2/2021 5:45:00 AM 15.04 59.072 0.031 7.17 1.97 9.52
7/2/2021 6:00:00 AM 15.01 59.018 0.031 7.17 2.05 9.54
7/2/2021 6:15:00 AM 14.98 58.964 0.031 7.18 1.99 9.55
7/2/2021 6:30:00 AM 14.96 58.928 0.031 7.18 1.96 9.56
7/2/2021 6:45:00 AM 14.94 58.892 0.031 7.18 1.94 9.57
7/2/2021 7:00:00 AM 14.91 58.838 0.031 7.15 2.01 9.58
7/2/2021 7:15:00 AM 14.9 58.82 0.031 7.16 1.98 9.6
7/2/2021 7:30:00 AM 14.88 58.784 0.031 7.16 1.98 9.6
7/2/2021 7:45:00 AM 14.89 58.802 0.031 7.17 2.05 9.62
7/2/2021 8:00:00 AM 14.88 58.784 0.031 7.17 1.87 9.64
7/2/2021 8:15:00 AM 14.89 58.802 0.031 7.19 1.92 9.65
7/2/2021 8:30:00 AM 14.91 58.838 0.031 7.17 1.96 9.66
7/2/2021 8:45:00 AM 14.89 58.802 0.031 7.17 1.97 9.63
7/2/2021 9:00:00 AM 14.9 58.82 0.031 7.17 1.94 9.63
7/2/2021 9:15:00 AM 14.91 58.838 0.031 7.18 1.9 9.64
7/2/2021 9:30:00 AM 14.92 58.856 0.031 7.18 1.95 9.64
7/2/2021 9:45:00 AM 14.95 58.91 0.031 7.18 1.88 9.64
7/2/2021 10:00:00 AM 14.97 58.946 0.031 7.21 1.92 9.66
7/2/2021 10:15:00 AM 15.03 59.054 0.031 7.24 1.83 9.68
7/2/2021 10:30:00 AM 15.07 59.126 0.031 7.2 1.9 9.68
7/2/2021 10:45:00 AM 15.1 59.18 0.031 7.22 1.92 9.68
7/2/2021 11:00:00 AM 15.16 59.288 0.031 7.22 1.93 9.67
7/2/2021 11:15:00 AM 15.18 59.324 0.031 7.23 1.9 9.66
7/2/2021 11:30:00 AM 15.2 59.36 0.031 7.22 1.93 9.65
7/2/2021 11:45:00 AM 15.25 59.45 0.031 7.22 1.9 9.64
7/2/2021 12:00:00 PM 15.37 59.666 0.031 7.23 1.83 9.65
7/2/2021 12:15:00 PM 15.43 59.774 0.031 7.22 1.68 9.64
7/2/2021 12:30:00 PM 15.49 59.882 0.031 7.25 1.79 9.62
7/2/2021 12:45:00 PM 15.6 60.08 0.031 7.23 1.72 9.62
7/2/2021 1:00:00 PM 15.68 60.224 0.031 7.23 1.71 9.6
7/2/2021 1:15:00 PM 15.59 60.062 0.031 7.2 1.67 9.56
7/2/2021 1:30:00 PM 15.64 60.152 0.031 7.2 1.62 9.57
7/2/2021 1:45:00 PM 15.66 60.188 0.031 7.22 1.63 9.56
7/2/2021 2:00:00 PM 15.82 60.476 0.031 7.2 1.63 9.55
7/2/2021 2:15:00 PM 15.74 60.332 0.031 7.18 1.67 9.53
7/2/2021 2:30:00 PM 15.93 60.674 0.031 7.24 1.66 9.51
7/2/2021 2:45:00 PM 15.93 60.674 0.031 7.21 1.66 9.48
7/2/2021 3:00:00 PM 16.01 60.818 0.031 7.21 1.67 9.46
7/2/2021 3:15:00 PM 16.06 60.908 0.031 7.18 1.74 9.43
7/2/2021 3:30:00 PM 16.1 60.98 0.031 7.2 1.7 9.41
7/2/2021 3:45:00 PM 16.15 61.07 0.031 7.18 1.7 9.4
7/2/2021 4:00:00 PM 16.18 61.124 0.031 7.2 1.71 9.4
7/2/2021 4:15:00 PM 16.23 61.214 0.031 7.21 1.68 9.39
7/2/2021 4:30:00 PM 16.2 61.16 0.031 7.2 1.62 9.35
7/2/2021 4:45:00 PM 16.14 61.052 0.031 7.14 1.66 9.32
7/2/2021 5:00:00 PM 16.09 60.962 0.031 7.17 1.69 9.32
7/2/2021 5:15:00 PM 16.03 60.854 0.031 7.16 1.7 9.32
7/2/2021 5:30:00 PM 15.98 60.764 0.031 7.15 1.73 9.33
7/2/2021 5:45:00 PM 15.94 60.692 0.031 7.18 1.7 9.35
7/2/2021 6:00:00 PM 15.91 60.638 0.031 7.18 1.71 9.38
7/2/2021 6:15:00 PM 15.88 60.584 0.031 7.18 1.63 9.4
7/2/2021 6:30:00 PM 15.84 60.512 0.031 7.18 1.76 9.4
7/2/2021 6:45:00 PM 15.8 60.44 0.031 7.15 1.67 9.39
7/2/2021 7:00:00 PM 15.76 60.368 0.031 7.17 1.68 9.38
7/2/2021 7:15:00 PM 15.72 60.296 0.031 7.15 1.68 9.39
7/2/2021 7:30:00 PM 15.68 60.224 0.031 7.17 1.65 9.4
7/2/2021 7:45:00 PM 15.64 60.152 0.031 7.18 1.77 9.41
7/2/2021 8:00:00 PM 15.61 60.098 0.031 7.18 1.75 9.42
7/2/2021 8:15:00 PM 15.58 60.044 0.031 7.16 1.9 9.43
7/2/2021 8:30:00 PM 15.56 60.008 0.031 7.17 2.11 9.44
7/2/2021 8:45:00 PM 15.53 59.954 0.031 7.2 2.27 9.45
7/2/2021 9:00:00 PM 15.51 59.918 0.03 7.17 2.57 9.47
7/2/2021 9:15:00 PM 15.5 59.9 0.03 7.18 2.44 9.47
7/2/2021 9:30:00 PM 15.5 59.9 0.03 7.16 2.39 9.47
7/2/2021 9:45:00 PM 15.5 59.9 0.03 7.17 2.3 9.48
7/2/2021 10:00:00 PM 15.49 59.882 0.03 7.16 2.17 9.48
7/2/2021 10:15:00 PM 15.46 59.828 0.03 7.16 2.18 9.48
7/2/2021 10:30:00 PM 15.43 59.774 0.03 7.16 2.1 9.49
7/2/2021 10:45:00 PM 15.39 59.702 0.03 7.18 2.03 9.49
7/2/2021 11:00:00 PM 15.33 59.594 0.03 7.16 1.96 9.5
7/2/2021 11:15:00 PM 15.28 59.504 0.03 7.15 1.92 9.51
7/2/2021 11:30:00 PM 15.22 59.396 0.03 7.16 1.94 9.51
7/2/2021 11:45:00 PM 15.17 59.306 0.03 7.12 2.03 9.54
7/3/2021 12:00:00 AM 15.12 59.216 0.03 7.15 1.88 9.55
7/3/2021 12:15:00 AM 15.07 59.126 0.03 7.15 1.93 9.55
7/3/2021 12:30:00 AM 15.02 59.036 0.03 7.17 1.9 9.56
7/3/2021 12:45:00 AM 14.98 58.964 0.03 7.13 1.81 9.57
7/3/2021 1:00:00 AM 14.94 58.892 0.03 7.17 1.91 9.58
7/3/2021 1:15:00 AM 14.9 58.82 0.03 7.16 1.83 9.59
7/3/2021 1:30:00 AM 14.87 58.766 0.03 7.14 1.85 9.59
7/3/2021 1:45:00 AM 14.83 58.694 0.03 7.18 1.87 9.6
7/3/2021 2:00:00 AM 14.8 58.64 0.03 7.17 1.88 9.61
7/3/2021 2:15:00 AM 14.77 58.586 0.03 7.16 1.82 9.61
7/3/2021 2:30:00 AM 14.74 58.532 0.03 7.13 1.8 9.62
7/3/2021 2:45:00 AM 14.71 58.478 0.03 7.15 1.82 9.62
7/3/2021 3:00:00 AM 14.68 58.424 0.03 7.15 1.86 9.63
7/3/2021 3:15:00 AM 14.66 58.388 0.03 7.15 1.84 9.64
7/3/2021 3:30:00 AM 14.63 58.334 0.03 7.18 1.82 9.64
7/3/2021 3:45:00 AM 14.61 58.298 0.03 7.13 1.85 9.64
7/3/2021 4:00:00 AM 14.58 58.244 0.03 7.15 1.84 9.65
7/3/2021 4:15:00 AM 14.56 58.208 0.03 7.15 1.82 9.65
7/3/2021 4:30:00 AM 14.54 58.172 0.03 7.16 1.96 9.65
7/3/2021 4:45:00 AM 14.52 58.136 0.03 7.14 1.87 9.66
7/3/2021 5:00:00 AM 14.51 58.118 0.03 7.15 1.81 9.66
7/3/2021 5:15:00 AM 14.49 58.082 0.03 7.17 1.91 9.67
7/3/2021 5:30:00 AM 14.47 58.046 0.03 7.14 2.3 9.67
7/3/2021 5:45:00 AM 14.46 58.028 0.03 7.15 1.86 9.68
7/3/2021 6:00:00 AM 14.44 57.992 0.03 7.15 1.9 9.69
7/3/2021 6:15:00 AM 14.43 57.974 0.03 7.15 1.93 9.69
7/3/2021 6:30:00 AM 14.42 57.956 0.03 7.15 1.8 9.7
7/3/2021 6:45:00 AM 14.4 57.92 0.03 7.18 1.8 9.71
7/3/2021 7:00:00 AM 14.39 57.902 0.03 7.17 1.85 9.72
7/3/2021 7:15:00 AM 14.39 57.902 0.03 7.18 1.95 9.74
7/3/2021 7:30:00 AM 14.38 57.884 0.03 7.18 1.84 9.75
7/3/2021 7:45:00 AM 14.39 57.902 0.03 7.17 1.77 9.75
7/3/2021 8:00:00 AM 14.39 57.902 0.03 7.17 1.74 9.77
7/3/2021 8:15:00 AM 14.4 57.92 0.03 7.15 1.8 9.77
7/3/2021 8:30:00 AM 14.41 57.938 0.03 7.18 1.83 9.78
7/3/2021 8:45:00 AM 14.43 57.974 0.03 7.17 1.76 9.79
7/3/2021 9:00:00 AM 14.44 57.992 0.03 7.15 1.8 9.79
7/3/2021 9:15:00 AM 14.46 58.028 0.03 7.17 1.73 9.8
7/3/2021 9:30:00 AM 14.47 58.046 0.03 7.18 1.66 9.8
7/3/2021 9:45:00 AM 14.5 58.1 0.03 7.21 1.71 9.81
7/3/2021 10:00:00 AM 14.51 58.118 0.03 7.15 1.8 9.79
7/3/2021 10:15:00 AM 14.51 58.118 0.03 7.17 1.72 9.78
7/3/2021 10:30:00 AM 14.49 58.082 0.03 7.18 1.84 9.74
7/3/2021 10:45:00 AM 14.5 58.1 0.03 7.15 1.95 9.74
7/3/2021 11:00:00 AM 14.49 58.082 0.029 7.17 1.87 9.73
7/3/2021 11:15:00 AM 14.51 58.118 0.029 7.14 1.91 9.76
7/3/2021 11:30:00 AM 14.53 58.154 0.029 7.16 1.84 9.78
7/3/2021 11:45:00 AM 14.55 58.19 0.029 7.16 1.79 9.79
7/3/2021 12:00:00 PM 14.67 58.406 0.029 7.19 1.78 9.81
7/3/2021 12:15:00 PM 14.69 58.442 0.029 7.21 1.78 9.81
7/3/2021 12:30:00 PM 14.82 58.676 0.029 7.18 1.83 9.81
7/3/2021 12:45:00 PM 14.84 58.712 0.029 7.21 1.84 9.79
7/3/2021 1:00:00 PM 14.91 58.838 0.029 7.18 1.82 9.77
7/3/2021 1:15:00 PM 15.11 59.198 0.029 7.23 1.74 9.77
7/3/2021 1:30:00 PM 15.05 59.09 0.029 7.17 1.79 9.74
7/3/2021 1:45:00 PM 15.07 59.126 0.03 7.21 2.02 9.73
7/3/2021 2:00:00 PM 15.1 59.18 0.029 7.19 1.93 9.71
7/3/2021 2:15:00 PM 15.12 59.216 0.03 7.21 1.89 9.69
7/3/2021 2:30:00 PM 15.17 59.306 0.03 7.2 1.84 9.69
7/3/2021 2:45:00 PM 15.19 59.342 0.03 7.19 1.72 9.68
7/3/2021 3:00:00 PM 15.16 59.288 0.03 7.2 1.86 9.63
7/3/2021 3:15:00 PM 15.15 59.27 0.03 7.18 1.82 9.64
7/3/2021 3:30:00 PM 15.16 59.288 0.03 7.16 1.81 9.65
7/3/2021 3:45:00 PM 15.18 59.324 0.03 7.18 1.69 9.65
7/3/2021 4:00:00 PM 15.18 59.324 0.03 7.2 1.66 9.65
7/3/2021 4:15:00 PM 15.21 59.378 0.03 7.17 1.69 9.65
7/3/2021 4:30:00 PM 15.22 59.396 0.03 7.19 1.79 9.64
7/3/2021 4:45:00 PM 15.23 59.414 0.03 7.2 1.65 9.62
7/3/2021 5:00:00 PM 15.24 59.432 0.03 7.2 1.63 9.61
7/3/2021 5:15:00 PM 15.26 59.468 0.03 7.2 1.59 9.6
7/3/2021 5:30:00 PM 15.28 59.504 0.03 7.16 1.63 9.59
7/3/2021 5:45:00 PM 15.3 59.54 0.03 7.17 1.63 9.58
7/3/2021 6:00:00 PM 15.32 59.576 0.03 7.17 1.79 9.56
7/3/2021 6:15:00 PM 15.34 59.612 0.03 7.2 1.58 9.56
7/3/2021 6:30:00 PM 15.35 59.63 0.03 7.2 1.56 9.57
7/3/2021 6:45:00 PM 15.35 59.63 0.03 7.17 1.56 9.56
7/3/2021 7:00:00 PM 15.33 59.594 0.03 7.14 1.53 9.53
7/3/2021 7:15:00 PM 15.31 59.558 0.03 7.16 1.51 9.53
7/3/2021 7:30:00 PM 15.3 59.54 0.03 7.16 1.53 9.52
7/3/2021 7:45:00 PM 15.29 59.522 0.03 7.15 1.53 9.52
7/3/2021 8:00:00 PM 15.27 59.486 0.03 7.12 3.92 9.52
7/3/2021 8:15:00 PM 15.25 59.45 0.03 7.12 1.67 9.52
7/3/2021 8:30:00 PM 15.23 59.414 0.03 7.13 1.66 9.51
7/3/2021 8:45:00 PM 15.21 59.378 0.03 7.16 1.55 9.51
7/3/2021 9:00:00 PM 15.2 59.36 0.03 7.12 1.54 9.51
7/3/2021 9:15:00 PM 15.18 59.324 0.03 7.16 1.55 9.52
7/3/2021 9:30:00 PM 15.16 59.288 0.03 7.15 1.76 9.52
7/3/2021 9:45:00 PM 15.14 59.252 0.03 7.12 1.55 9.53
7/3/2021 10:00:00 PM 15.12 59.216 0.03 7.15 1.55 9.53
7/3/2021 10:15:00 PM 15.1 59.18 0.03 7.15 1.64 9.53
7/3/2021 10:30:00 PM 15.08 59.144 0.03 7.15 1.52 9.54
7/3/2021 10:45:00 PM 15.05 59.09 0.03 7.14 1.51 9.54
7/3/2021 11:00:00 PM 15.01 59.018 0.03 7.16 1.48 9.56
7/3/2021 11:15:00 PM 14.98 58.964 0.03 7.11 1.59 9.56
7/3/2021 11:30:00 PM 14.94 58.892 0.03 7.14 1.54 9.57
7/3/2021 11:45:00 PM 14.91 58.838 0.03 7.15 1.54 9.57
7/4/2021 12:00:00 AM 14.88 58.784 0.03 7.15 1.53 9.58
7/4/2021 12:15:00 AM 14.85 58.73 0.03 7.14 1.57 9.59
7/4/2021 12:30:00 AM 14.82 58.676 0.03 7.11 1.53 9.6
7/4/2021 12:45:00 AM 14.79 58.622 0.03 7.15 1.91 9.6
7/4/2021 1:00:00 AM 14.76 58.568 0.03 7.14 1.48 9.61
7/4/2021 1:15:00 AM 14.72 58.496 0.03 7.11 1.47 9.62
7/4/2021 1:30:00 AM 14.69 58.442 0.03 7.15 1.53 9.63
7/4/2021 1:45:00 AM 14.66 58.388 0.03 7.12 1.48 9.63
7/4/2021 2:00:00 AM 14.63 58.334 0.03 7.15 1.44 9.64
7/4/2021 2:15:00 AM 14.6 58.28 0.03 7.13 1.51 9.64
7/4/2021 2:30:00 AM 14.57 58.226 0.03 7.15 1.48 9.65
7/4/2021 2:45:00 AM 14.54 58.172 0.03 7.15 1.45 9.66
7/4/2021 3:00:00 AM 14.51 58.118 0.03 7.11 1.53 9.66
7/4/2021 3:15:00 AM 14.49 58.082 0.03 7.13 1.45 9.67
7/4/2021 3:30:00 AM 14.46 58.028 0.03 7.15 1.44 9.68
7/4/2021 3:45:00 AM 14.44 57.992 0.03 7.12 1.45 9.68
7/4/2021 4:00:00 AM 14.41 57.938 0.03 7.15 1.42 9.69
7/4/2021 4:15:00 AM 14.39 57.902 0.03 7.11 1.45 9.69
7/4/2021 4:30:00 AM 14.37 57.866 0.03 7.14 1.52 9.7
7/4/2021 4:45:00 AM 14.35 57.83 0.03 7.12 1.46 9.7
7/4/2021 5:00:00 AM 14.33 57.794 0.03 7.12 1.49 9.7
7/4/2021 5:15:00 AM 14.31 57.758 0.03 7.14 1.52 9.71
7/4/2021 5:30:00 AM 14.28 57.704 0.03 7.12 1.48 9.72
7/4/2021 5:45:00 AM 14.26 57.668 0.03 7.14 1.57 9.73
7/4/2021 6:00:00 AM 14.24 57.632 0.03 7.11 1.51 9.73
7/4/2021 6:15:00 AM 14.22 57.596 0.03 7.12 1.48 9.74
7/4/2021 6:30:00 AM 14.2 57.56 0.03 7.13 1.47 9.75
7/4/2021 6:45:00 AM 14.19 57.542 0.03 7.15 1.5 9.77
7/4/2021 7:00:00 AM 14.19 57.542 0.03 7.13 1.44 9.79
7/4/2021 7:15:00 AM 14.18 57.524 0.03 7.13 1.56 9.79
7/4/2021 7:30:00 AM 14.17 57.506 0.03 7.16 1.42 9.79
7/4/2021 7:45:00 AM 14.17 57.506 0.03 7.12 1.46 9.81
7/4/2021 8:00:00 AM 14.18 57.524 0.03 7.17 1.36 9.83
7/4/2021 8:15:00 AM 14.17 57.506 0.03 7.14 1.35 9.82
7/4/2021 8:30:00 AM 14.17 57.506 0.03 7.14 1.42 9.82
7/4/2021 8:45:00 AM 14.18 57.524 0.03 7.17 1.39 9.82
7/4/2021 9:00:00 AM 14.19 57.542 0.03 7.16 1.41 9.83
7/4/2021 9:15:00 AM 14.21 57.578 0.03 7.16 1.41 9.84
7/4/2021 9:30:00 AM 14.22 57.596 0.03 7.16 1.41 9.83
7/4/2021 9:45:00 AM 14.25 57.65 0.03 7.13 1.36 9.83
7/4/2021 10:00:00 AM 14.28 57.704 0.03 7.18 1.46 9.83
7/4/2021 10:15:00 AM 14.34 57.812 0.03 7.18 1.33 9.85
7/4/2021 10:30:00 AM 14.41 57.938 0.03 7.18 1.32 9.87
7/4/2021 10:45:00 AM 14.45 58.01 0.03 7.17 1.45 9.85
7/4/2021 11:00:00 AM 14.48 58.064 0.03 7.19 1.39 9.84
7/4/2021 11:15:00 AM 14.56 58.208 0.03 7.2 1.4 9.85
7/4/2021 11:30:00 AM 14.58 58.244 0.03 7.18 1.42 9.84
7/4/2021 11:45:00 AM 14.61 58.298 0.03 7.17 1.45 9.81
7/4/2021 12:00:00 PM 14.63 58.334 0.03 7.18 1.42 9.8
7/4/2021 12:15:00 PM 14.78 58.604 0.03 7.15 1.35 9.81
7/4/2021 12:30:00 PM 14.88 58.784 0.03 7.17 1.34 9.81
7/4/2021 12:45:00 PM 14.89 58.802 0.03 7.14 1.34 9.78
7/4/2021 1:00:00 PM 15.14 59.252 0.03 7.18 1.37 9.77
7/4/2021 1:15:00 PM 15.29 59.522 0.03 7.18 1.34 9.75
7/4/2021 1:30:00 PM 15.32 59.576 0.03 7.16 1.33 9.72
7/4/2021 1:45:00 PM 15.25 59.45 0.03 7.14 1.38 9.68
7/4/2021 2:00:00 PM 15.49 59.882 0.03 7.19 1.37 9.69
7/4/2021 2:15:00 PM 15.63 60.134 0.03 7.19 1.31 9.66
7/4/2021 2:30:00 PM 15.69 60.242 0.03 7.19 1.46 9.63
7/4/2021 2:45:00 PM 15.71 60.278 0.03 7.12 1.36 9.62
7/4/2021 3:00:00 PM 15.69 60.242 0.03 7.17 1.37 9.6
7/4/2021 3:15:00 PM 15.76 60.368 0.03 7.17 1.39 9.59
7/4/2021 3:30:00 PM 15.79 60.422 0.03 7.16 1.35 9.57
7/4/2021 3:45:00 PM 15.77 60.386 0.03 7.1 1.41 9.54
7/4/2021 4:00:00 PM 15.78 60.404 0.03 7.15 1.37 9.53
7/4/2021 4:15:00 PM 15.8 60.44 0.03 7.14 1.39 9.53
7/4/2021 4:30:00 PM 15.81 60.458 0.03 7.1 1.37 9.51
7/4/2021 4:45:00 PM 15.81 60.458 0.03 7.14 1.35 9.51
7/4/2021 5:00:00 PM 15.83 60.494 0.03 7.11 1.38 9.51
7/4/2021 5:15:00 PM 15.84 60.512 0.03 7.11 1.4 9.49
7/4/2021 5:30:00 PM 15.83 60.494 0.03 7.1 1.37 9.48
7/4/2021 5:45:00 PM 15.8 60.44 0.03 7.09 1.38 9.47
7/4/2021 6:00:00 PM 15.8 60.44 0.03 7.11 1.27 9.47
7/4/2021 6:15:00 PM 15.8 60.44 0.03 7.06 1.28 9.46
7/4/2021 6:30:00 PM 15.79 60.422 0.03 7.08 1.33 9.46
7/4/2021 6:45:00 PM 15.78 60.404 0.03 7.08 1.32 9.46
7/4/2021 7:00:00 PM 15.79 60.422 0.03 7.11 1.36 9.47
7/4/2021 7:15:00 PM 15.78 60.404 0.03 7.06 1.29 9.47
7/4/2021 7:30:00 PM 15.77 60.386 0.03 7.11 1.29 9.45
7/4/2021 7:45:00 PM 15.76 60.368 0.03 7.1 1.31 9.44
7/4/2021 8:00:00 PM 15.75 60.35 0.03 7.05 1.34 9.44
7/4/2021 8:15:00 PM 15.75 60.35 0.03 7.09 1.32 9.43
7/4/2021 8:30:00 PM 15.74 60.332 0.03 7.08 1.32 9.43
7/4/2021 8:45:00 PM 15.72 60.296 0.03 7.04 1.36 9.42
7/4/2021 9:00:00 PM 15.71 60.278 0.03 7.05 1.4 9.42
7/4/2021 9:15:00 PM 15.69 60.242 0.03 7.07 1.38 9.42
7/4/2021 9:30:00 PM 15.67 60.206 0.031 7.09 1.36 9.42
7/4/2021 9:45:00 PM 15.65 60.17 0.031 7.08 1.42 9.43
7/4/2021 10:00:00 PM 15.62 60.116 0.031 7.09 1.38 9.43
7/4/2021 10:15:00 PM 15.6 60.08 0.031 7.08 1.4 9.44
7/4/2021 10:30:00 PM 15.57 60.026 0.031 7.09 1.37 9.45
7/4/2021 10:45:00 PM 15.54 59.972 0.031 7.09 1.4 9.46
7/4/2021 11:00:00 PM 15.5 59.9 0.031 7.12 1.4 9.47
7/4/2021 11:15:00 PM 15.47 59.846 0.031 7.09 1.37 9.48
7/4/2021 11:30:00 PM 15.43 59.774 0.031 7.1 1.37 9.48
7/4/2021 11:45:00 PM 15.39 59.702 0.031 7.08 1.41 9.49
7/5/2021 12:00:00 AM 15.35 59.63 0.031 7.09 1.38 9.5
7/5/2021 12:15:00 AM 15.31 59.558 0.031 7.09 1.38 9.51
7/5/2021 12:30:00 AM 15.27 59.486 0.031 7.09 1.41 9.52
7/5/2021 12:45:00 AM 15.23 59.414 0.031 7.1 1.42 9.53
7/5/2021 1:00:00 AM 15.19 59.342 0.031 7.1 1.49 9.54
7/5/2021 1:15:00 AM 15.15 59.27 0.03 7.1 1.41 9.55
7/5/2021 1:30:00 AM 15.11 59.198 0.03 7.1 1.4 9.56
7/5/2021 1:45:00 AM 15.06 59.108 0.03 7.08 1.39 9.56
7/5/2021 2:00:00 AM 15.02 59.036 0.03 7.1 1.33 9.58
7/5/2021 2:15:00 AM 14.98 58.964 0.03 7.12 1.37 9.58
7/5/2021 2:30:00 AM 14.93 58.874 0.03 7.07 1.35 9.59
7/5/2021 2:45:00 AM 14.89 58.802 0.03 7.09 1.32 9.6
7/5/2021 3:00:00 AM 14.84 58.712 0.03 7.12 1.39 9.61
7/5/2021 3:15:00 AM 14.8 58.64 0.03 7.09 1.34 9.62
7/5/2021 3:30:00 AM 14.75 58.55 0.03 7.12 1.36 9.64
7/5/2021 3:45:00 AM 14.7 58.46 0.03 7.11 1.36 9.64
7/5/2021 4:00:00 AM 14.66 58.388 0.03 7.09 1.36 9.66
7/5/2021 4:15:00 AM 14.61 58.298 0.03 7.11 1.37 9.67
7/5/2021 4:30:00 AM 14.57 58.226 0.03 7.12 1.38 9.68
7/5/2021 4:45:00 AM 14.52 58.136 0.03 7.12 1.4 9.69
7/5/2021 5:00:00 AM 14.48 58.064 0.03 7.12 1.39 9.7
7/5/2021 5:15:00 AM 14.43 57.974 0.03 7.12 1.35 9.71
7/5/2021 5:30:00 AM 14.39 57.902 0.03 7.09 1.37 9.72
7/5/2021 5:45:00 AM 14.35 57.83 0.03 7.12 1.39 9.73
7/5/2021 6:00:00 AM 14.31 57.758 0.03 7.09 1.37 9.74
7/5/2021 6:15:00 AM 14.28 57.704 0.03 7.13 1.39 9.75
7/5/2021 6:30:00 AM 14.24 57.632 0.03 7.1 1.4 9.77
7/5/2021 6:45:00 AM 14.21 57.578 0.03 7.11 1.37 9.79
7/5/2021 7:00:00 AM 14.18 57.524 0.03 7.12 1.35 9.8
7/5/2021 7:15:00 AM 14.16 57.488 0.03 7.12 1.3 9.82
7/5/2021 7:30:00 AM 14.15 57.47 0.03 7.15 1.34 9.83
7/5/2021 7:45:00 AM 14.14 57.452 0.03 7.15 1.38 9.84
7/5/2021 8:00:00 AM 14.14 57.452 0.03 7.14 1.3 9.85
7/5/2021 8:15:00 AM 14.14 57.452 0.03 7.1 1.32 9.86
7/5/2021 8:30:00 AM 14.15 57.47 0.03 7.15 1.76 9.87
7/5/2021 8:45:00 AM 14.16 57.488 0.03 7.1 1.57 9.87
7/5/2021 9:00:00 AM 14.18 57.524 0.03 7.12 1.53 9.88
7/5/2021 9:15:00 AM 14.2 57.56 0.03 7.13 1.33 9.88
7/5/2021 9:30:00 AM 14.23 57.614 0.03 7.13 1.26 9.89
7/5/2021 9:45:00 AM 14.26 57.668 0.03 7.15 1.39 9.89
7/5/2021 10:00:00 AM 14.3 57.74 0.03 7.17 1.29 9.9
7/5/2021 10:15:00 AM 14.35 57.83 0.03 7.12 1.28 9.9
7/5/2021 10:30:00 AM 14.42 57.956 0.03 7.14 1.27 9.89
7/5/2021 10:45:00 AM 14.49 58.082 0.03 7.15 1.26 9.89
7/5/2021 11:00:00 AM 14.59 58.262 0.03 7.18 1.23 9.88
7/5/2021 11:15:00 AM 14.69 58.442 0.03 7.18 1.3 9.87
7/5/2021 11:30:00 AM 14.79 58.622 0.03 7.18 1.25 9.86
7/5/2021 11:45:00 AM 14.88 58.784 0.03 7.16 1.26 9.84
7/5/2021 12:00:00 PM 15.01 59.018 0.03 7.19 1.26 9.83
7/5/2021 12:15:00 PM 15.14 59.252 0.03 7.17 1.23 9.82
7/5/2021 12:30:00 PM 15.28 59.504 0.03 7.19 1.27 9.79
7/5/2021 12:45:00 PM 15.44 59.792 0.03 7.19 1.23 9.77
7/5/2021 1:00:00 PM 15.59 60.062 0.03 7.18 1.28 9.75
7/5/2021 1:15:00 PM 15.75 60.35 0.03 7.18 1.2 9.72
7/5/2021 1:30:00 PM 15.88 60.584 0.03 7.18 1.25 9.69
7/5/2021 1:45:00 PM 16.01 60.818 0.03 7.18 1.93 9.66
7/5/2021 2:00:00 PM 16.1 60.98 0.03 7.18 1.24 9.64
7/5/2021 2:15:00 PM 16.19 61.142 0.03 7.17 1.34 9.61
7/5/2021 2:30:00 PM 16.26 61.268 0.03 7.17 1.26 9.58
7/5/2021 2:45:00 PM 16.31 61.358 0.03 7.16 1.3 9.55
7/5/2021 3:00:00 PM 16.35 61.43 0.03 7.15 1.35 9.52
7/5/2021 3:15:00 PM 16.39 61.502 0.03 7.11 1.3 9.5
7/5/2021 3:30:00 PM 16.44 61.592 0.03 7.15 1.29 9.48
7/5/2021 3:45:00 PM 16.49 61.682 0.03 7.11 1.25 9.46
7/5/2021 4:00:00 PM 16.52 61.736 0.03 7.15 1.25 9.44
7/5/2021 4:15:00 PM 16.56 61.808 0.03 7.1 1.26 9.43
7/5/2021 4:30:00 PM 16.58 61.844 0.03 7.13 1.28 9.41
7/5/2021 4:45:00 PM 16.59 61.862 0.03 7.11 1.27 9.39
7/5/2021 5:00:00 PM 16.59 61.862 0.03 7.11 1.29 9.39
7/5/2021 5:15:00 PM 16.58 61.844 0.03 7.09 1.21 9.38
7/5/2021 5:30:00 PM 16.58 61.844 0.03 7.09 1.26 9.37
7/5/2021 5:45:00 PM 16.56 61.808 0.03 7.11 1.36 9.36
7/5/2021 6:00:00 PM 16.53 61.754 0.03 7.1 1.29 9.36
7/5/2021 6:15:00 PM 16.51 61.718 0.031 7.1 1.29 9.35
7/5/2021 6:30:00 PM 16.48 61.664 0.031 7.1 1.28 9.34
7/5/2021 6:45:00 PM 16.45 61.61 0.031 7.03 1.26 9.35
7/5/2021 7:00:00 PM 16.41 61.538 0.031 7.09 1.25 9.34
7/5/2021 7:15:00 PM 16.38 61.484 0.031 7.08 1.24 9.33
7/5/2021 7:30:00 PM 16.35 61.43 0.031 7.07 1.28 9.33
7/5/2021 7:45:00 PM 16.31 61.358 0.031 7.06 1.22 9.33
7/5/2021 8:00:00 PM 16.27 61.286 0.031 7.01 1.27 9.33
7/5/2021 8:15:00 PM 16.23 61.214 0.031 7.03 1.26 9.33
7/5/2021 8:30:00 PM 16.2 61.16 0.031 7.02 1.22 9.32
7/5/2021 8:45:00 PM 16.17 61.106 0.031 7.04 1.26 9.32
7/5/2021 9:00:00 PM 16.14 61.052 0.031 7.03 1.24 9.32
7/5/2021 9:15:00 PM 16.12 61.016 0.031 7.02 1.31 9.32
7/5/2021 9:30:00 PM 16.1 60.98 0.031 7.04 1.27 9.33
7/5/2021 9:45:00 PM 16.07 60.926 0.031 7.04 1.32 9.33
7/5/2021 10:00:00 PM 16.05 60.89 0.031 7.04 1.32 9.33
7/5/2021 10:15:00 PM 16.03 60.854 0.031 7.05 1.29 9.34
7/5/2021 10:30:00 PM 16.01 60.818 0.031 7.04 1.24 9.35
7/5/2021 10:45:00 PM 15.99 60.782 0.031 7.04 1.25 9.35
7/5/2021 11:00:00 PM 15.98 60.764 0.031 7.05 1.26 9.35
7/5/2021 11:15:00 PM 15.96 60.728 0.031 7 1.24 9.35
7/5/2021 11:30:00 PM 15.95 60.71 0.031 7.06 1.27 9.35
7/5/2021 11:45:00 PM 15.94 60.692 0.031 7.06 1.24 9.36
7/6/2021 12:00:00 AM 15.93 60.674 0.031 7.05 1.24 9.36
7/6/2021 12:15:00 AM 15.91 60.638 0.031 7.06 1.26 9.37
7/6/2021 12:30:00 AM 15.9 60.62 0.031 7.03 1.21 9.37
7/6/2021 12:45:00 AM 15.89 60.602 0.031 7.07 1.27 9.37
7/6/2021 1:00:00 AM 15.88 60.584 0.031 7.01 1.24 9.37
7/6/2021 1:15:00 AM 15.87 60.566 0.031 7.07 1.26 9.37
7/6/2021 1:30:00 AM 15.86 60.548 0.031 7.07 1.24 9.38
7/6/2021 1:45:00 AM 15.85 60.53 0.031 7.03 1.26 9.37
7/6/2021 2:00:00 AM 15.84 60.512 0.031 7.07 1.24 9.38
7/6/2021 2:15:00 AM 15.83 60.494 0.031 7.02 1.29 9.38
7/6/2021 2:30:00 AM 15.82 60.476 0.031 7.07 1.26 9.38
7/6/2021 2:45:00 AM 15.81 60.458 0.031 7.05 1.37 9.39
7/6/2021 3:00:00 AM 15.79 60.422 0.031 7.07 1.27 9.39
7/6/2021 3:15:00 AM 15.77 60.386 0.031 7.04 1.3 9.39
7/6/2021 3:30:00 AM 15.75 60.35 0.031 7.06 1.35 9.4
7/6/2021 3:45:00 AM 15.73 60.314 0.031 7.07 1.24 9.4
7/6/2021 4:00:00 AM 15.71 60.278 0.031 7.03 1.3 9.41
7/6/2021 4:15:00 AM 15.68 60.224 0.031 7.08 1.28 9.41
7/6/2021 4:30:00 AM 15.66 60.188 0.031 7.08 1.29 9.42
7/6/2021 4:45:00 AM 15.63 60.134 0.031 7.08 1.28 9.43
7/6/2021 5:00:00 AM 15.61 60.098 0.031 7.02 1.24 9.43
7/6/2021 5:15:00 AM 15.58 60.044 0.031 7.08 1.29 9.44
7/6/2021 5:30:00 AM 15.55 59.99 0.031 7.07 1.25 9.45
7/6/2021 5:45:00 AM 15.53 59.954 0.031 7.04 1.26 9.45
7/6/2021 6:00:00 AM 15.5 59.9 0.031 7.08 1.27 9.46
7/6/2021 6:15:00 AM 15.48 59.864 0.031 7.05 1.34 9.47
7/6/2021 6:30:00 AM 15.46 59.828 0.031 7.08 1.3 9.48
7/6/2021 6:45:00 AM 15.44 59.792 0.031 7.08 1.35 9.5
7/6/2021 7:00:00 AM 15.42 59.756 0.031 7.03 1.24 9.51
7/6/2021 7:15:00 AM 15.4 59.72 0.031 7.06 1.29 9.53
7/6/2021 7:30:00 AM 15.39 59.702 0.031 7.07 1.29 9.54
7/6/2021 7:45:00 AM 15.38 59.684 0.031 7.06 1.21 9.55
7/6/2021 8:00:00 AM 15.38 59.684 0.031 7.1 1.26 9.56
7/6/2021 8:15:00 AM 15.37 59.666 0.031 7.04 1.23 9.57
7/6/2021 8:30:00 AM 15.38 59.684 0.031 7.06 1.23 9.58
7/6/2021 8:45:00 AM 15.39 59.702 0.031 7.07 1.26 9.58
7/6/2021 9:00:00 AM 15.41 59.738 0.031 7.07 1.17 9.59
7/6/2021 9:15:00 AM 15.42 59.756 0.031 7.06 1.24 9.6
7/6/2021 9:30:00 AM 15.45 59.81 0.031 7.09 1.22 9.6
7/6/2021 9:45:00 AM 15.49 59.882 0.031 7.06 1.22 9.6
7/6/2021 10:00:00 AM 15.53 59.954 0.031 7.09 1.24 9.61
7/6/2021 10:15:00 AM 15.61 60.098 0.031 7.13 1.21 9.6
7/6/2021 10:30:00 AM 15.7 60.26 0.031 7.1 1.22 9.6
7/6/2021 10:45:00 AM 15.8 60.44 0.031 7.16 1.24 9.6
7/6/2021 11:00:00 AM 15.88 60.584 0.031 7.15 1.19 9.59
7/6/2021 11:15:00 AM 16 60.8 0.031 7.12 1.23 9.58
7/6/2021 11:30:00 AM 16.12 61.016 0.031 7.16 1.2 9.57
7/6/2021 11:45:00 AM 16.24 61.232 0.031 7.15 1.21 9.56
7/6/2021 12:00:00 PM 16.34 61.412 0.031 7.15 1.21 9.55
7/6/2021 12:15:00 PM 16.47 61.646 0.031 7.18 1.22 9.53
7/6/2021 12:30:00 PM 16.65 61.97 0.031 7.18 1.3 9.5
7/6/2021 12:45:00 PM 16.74 62.132 0.031 7.17 1.22 9.48
7/6/2021 1:00:00 PM 16.81 62.258 0.031 7.12 1.27 9.46
7/6/2021 1:15:00 PM 16.88 62.384 0.031 7.15 1.26 9.44
7/6/2021 1:30:00 PM 17 62.6 0.031 7.15 1.28 9.43
7/6/2021 1:45:00 PM 17.13 62.834 0.031 7.16 1.31 9.4
7/6/2021 2:00:00 PM 17.26 63.068 0.031 7.14 1.25 9.37
7/6/2021 2:15:00 PM 17.31 63.158 0.031 7.16 1.23 9.35
7/6/2021 2:30:00 PM 17.36 63.248 0.031 7.15 1.23 9.33
7/6/2021 2:45:00 PM 17.28 63.104 0.031 7.11 1.27 9.28
7/6/2021 3:00:00 PM 17.22 62.996 0.031 7.13 1.24 9.22
7/6/2021 3:15:00 PM 17.17 62.906 0.031 7.12 1.35 9.21
7/6/2021 3:30:00 PM 17.15 62.87 0.031 7.09 1.33 9.24
7/6/2021 3:45:00 PM 17.15 62.87 0.031 7.14 1.22 9.27
7/6/2021 4:00:00 PM 17.15 62.87 0.03 7.11 1.22 9.27
7/6/2021 4:15:00 PM 17.16 62.888 0.03 7.1 1.19 9.27
7/6/2021 4:30:00 PM 17.16 62.888 0.031 7.12 1.24 9.25
7/6/2021 4:45:00 PM 17.17 62.906 0.031 7.11 1.21 9.24
7/6/2021 5:00:00 PM 17.17 62.906 0.031 7.1 1.16 9.23
7/6/2021 5:15:00 PM 17.17 62.906 0.031 7.08 1.18 9.21
7/6/2021 5:30:00 PM 17.16 62.888 0.031 7.1 1.17 9.21
7/6/2021 5:45:00 PM 17.14 62.852 0.031 7.11 1.16 9.21
7/6/2021 6:00:00 PM 17.12 62.816 0.031 7.11 1.2 9.21
7/6/2021 6:15:00 PM 17.1 62.78 0.031 7.09 1.16 9.2
7/6/2021 6:30:00 PM 17.06 62.708 0.031 7.08 1.15 9.2
7/6/2021 6:45:00 PM 17.03 62.654 0.031 7.07 1.17 9.2
7/6/2021 7:00:00 PM 17 62.6 0.031 7.03 1.22 9.19
7/6/2021 7:15:00 PM 16.96 62.528 0.031 7.03 1.2 9.19
7/6/2021 7:30:00 PM 16.94 62.492 0.031 7.08 1.25 9.18
7/6/2021 7:45:00 PM 16.91 62.438 0.031 7.03 1.2 9.18
7/6/2021 8:00:00 PM 16.88 62.384 0.031 7.02 1.23 9.17
7/6/2021 8:15:00 PM 16.86 62.348 0.031 7.07 1.25 9.17
7/6/2021 8:30:00 PM 16.83 62.294 0.031 7.06 1.22 9.16
7/6/2021 8:45:00 PM 16.81 62.258 0.031 7.03 1.18 9.16
7/6/2021 9:00:00 PM 16.79 62.222 0.031 7.05 1.19 9.16
7/6/2021 9:15:00 PM 16.78 62.204 0.031 7.03 1.27 9.16
7/6/2021 9:30:00 PM 16.77 62.186 0.031 7.04 1.25 9.16
7/6/2021 9:45:00 PM 16.75 62.15 0.031 7.03 1.26 9.16
7/6/2021 10:00:00 PM 16.73 62.114 0.031 7.02 1.21 9.16
7/6/2021 10:15:00 PM 16.71 62.078 0.031 7.03 1.24 9.16
7/6/2021 10:30:00 PM 16.69 62.042 0.031 6.99 1.22 9.17
7/6/2021 10:45:00 PM 16.67 62.006 0.031 7.05 1.18 9.18
7/6/2021 11:00:00 PM 16.65 61.97 0.031 6.99 1.22 9.18
7/6/2021 11:15:00 PM 16.62 61.916 0.032 7.02 1.18 9.19
7/6/2021 11:30:00 PM 16.59 61.862 0.032 7.04 1.23 9.19
7/6/2021 11:45:00 PM 16.57 61.826 0.032 7.03 1.18 9.2
7/7/2021 12:00:00 AM 16.55 61.79 0.032 7.05 1.22 9.21
7/7/2021 12:15:00 AM 16.54 61.772 0.032 7.04 1.22 9.21
7/7/2021 12:30:00 AM 16.52 61.736 0.032 7.03 1.22 9.21
7/7/2021 12:45:00 AM 16.5 61.7 0.031 7.04 1.22 9.22
7/7/2021 1:00:00 AM 16.47 61.646 0.031 7.04 1.27 9.23
7/7/2021 1:15:00 AM 16.44 61.592 0.031 7.04 1.2 9.23
7/7/2021 1:30:00 AM 16.42 61.556 0.031 7.07 1.21 9.24
7/7/2021 1:45:00 AM 16.39 61.502 0.031 7.08 1.2 9.25
7/7/2021 2:00:00 AM 16.36 61.448 0.031 7.08 1.22 9.25
7/7/2021 2:15:00 AM 16.33 61.394 0.031 7.07 1.18 9.26
7/7/2021 2:30:00 AM 16.3 61.34 0.031 7.08 1.25 9.27
7/7/2021 2:45:00 AM 16.27 61.286 0.031 7.06 1.19 9.27
7/7/2021 3:00:00 AM 16.24 61.232 0.031 7.08 1.31 9.28
7/7/2021 3:15:00 AM 16.21 61.178 0.031 7.08 1.19 9.28
7/7/2021 3:30:00 AM 16.18 61.124 0.031 7.08 1.35 9.28
7/7/2021 3:45:00 AM 16.15 61.07 0.031 7.04 2.39 9.29
7/7/2021 4:00:00 AM 16.12 61.016 0.031 7.08 1.22 9.3
7/7/2021 4:15:00 AM 16.09 60.962 0.031 7.08 1.21 9.31
7/7/2021 4:30:00 AM 16.06 60.908 0.031 7.08 1.16 9.31
7/7/2021 4:45:00 AM 16.04 60.872 0.031 7.08 1.22 9.32
7/7/2021 5:00:00 AM 16.01 60.818 0.031 7.08 1.21 9.32
7/7/2021 5:15:00 AM 15.98 60.764 0.031 7.11 1.31 9.33
7/7/2021 5:30:00 AM 15.95 60.71 0.031 7.09 1.25 9.34
7/7/2021 5:45:00 AM 15.93 60.674 0.031 7.08 1.29 9.34
7/7/2021 6:00:00 AM 15.91 60.638 0.031 7.11 1.28 9.35
7/7/2021 6:15:00 AM 15.89 60.602 0.031 7.08 1.3 9.37
7/7/2021 6:30:00 AM 15.87 60.566 0.031 7.06 1.27 9.38
7/7/2021 6:45:00 AM 15.85 60.53 0.031 7.07 1.25 9.39
7/7/2021 7:00:00 AM 15.83 60.494 0.031 7.07 1.22 9.4
7/7/2021 7:15:00 AM 15.82 60.476 0.031 7.07 1.26 9.42
7/7/2021 7:30:00 AM 15.81 60.458 0.031 7.07 1.22 9.44
7/7/2021 7:45:00 AM 15.8 60.44 0.031 7.1 1.28 9.46
7/7/2021 8:00:00 AM 15.8 60.44 0.031 7.09 1.2 9.47
7/7/2021 8:15:00 AM 15.79 60.422 0.031 7.09 1.26 9.48
7/7/2021 8:30:00 AM 15.79 60.422 0.031 7.04 1.2 9.48
7/7/2021 8:45:00 AM 15.79 60.422 0.031 7.1 1.2 9.49
7/7/2021 9:00:00 AM 15.79 60.422 0.031 7.05 1.18 9.49
7/7/2021 9:15:00 AM 15.8 60.44 0.031 7.09 1.17 9.5
7/7/2021 9:30:00 AM 15.82 60.476 0.031 7.11 1.2 9.51
7/7/2021 9:45:00 AM 15.84 60.512 0.031 7.08 1.15 9.51
7/7/2021 10:00:00 AM 15.86 60.548 0.031 7.11 1.12 9.52
7/7/2021 10:15:00 AM 15.91 60.638 0.031 7.13 1.12 9.52
7/7/2021 10:30:00 AM 15.98 60.764 0.031 7.12 1.16 9.52
7/7/2021 10:45:00 AM 16.03 60.854 0.031 7.14 1.17 9.52
7/7/2021 11:00:00 AM 16.12 61.016 0.031 7.11 1.3 9.52
7/7/2021 11:15:00 AM 16.21 61.178 0.031 7.14 1.23 9.51
7/7/2021 11:30:00 AM 16.33 61.394 0.031 7.17 1.16 9.5
7/7/2021 11:45:00 AM 16.44 61.592 0.031 7.12 1.7 9.49
7/7/2021 12:00:00 PM 16.53 61.754 0.031 7.18 1.2 9.48
7/7/2021 12:15:00 PM 16.7 62.06 0.031 7.18 1.13 9.46
7/7/2021 12:30:00 PM 16.83 62.294 0.031 7.16 1.34 9.44
7/7/2021 12:45:00 PM 17.03 62.654 0.031 7.19 1.42 9.42
7/7/2021 1:00:00 PM 17.09 62.762 0.031 7.15 1.18 9.38
7/7/2021 1:15:00 PM 17.11 62.798 0.031 7.14 1.31 9.36
7/7/2021 1:30:00 PM 17.3 63.14 0.031 7.15 1.43 9.35
7/7/2021 1:45:00 PM 17.39 63.302 0.031 7.16 1.38 9.34
7/7/2021 2:00:00 PM 17.49 63.482 0.031 7.13 1.23 9.32
7/7/2021 2:15:00 PM 17.47 63.446 0.031 7.15 1.17 9.3
7/7/2021 2:30:00 PM 17.55 63.59 0.031 7.14 1.14 9.28
7/7/2021 2:45:00 PM 17.52 63.536 0.031 7.13 1.2 9.26
7/7/2021 3:00:00 PM 17.57 63.626 0.031 7.12 1.19 9.24
7/7/2021 3:15:00 PM 17.6 63.68 0.031 7.12 1.13 9.22
7/7/2021 3:30:00 PM 17.65 63.77 0.031 7.14 1.15 9.19
7/7/2021 3:45:00 PM 17.69 63.842 0.031 7.14 1.13 9.17
7/7/2021 4:00:00 PM 17.71 63.878 0.031 7.11 1.15 9.15
7/7/2021 4:15:00 PM 17.72 63.896 0.031 7.13 1.12 9.14
7/7/2021 4:30:00 PM 17.74 63.932 0.031 7.12 1.16 9.12
7/7/2021 4:45:00 PM 17.74 63.932 0.031 7.06 1.12 9.13
7/7/2021 5:00:00 PM 17.73 63.914 0.031 7.11 1.15 9.12
7/7/2021 5:15:00 PM 17.69 63.842 0.031 7.1 1.1 9.11
7/7/2021 5:30:00 PM 17.66 63.788 0.031 7.09 1.17 9.09
7/7/2021 5:45:00 PM 17.62 63.716 0.031 7.07 2.22 9.07
7/7/2021 6:00:00 PM 17.58 63.644 0.031 7.06 1.11 9.08
7/7/2021 6:15:00 PM 17.54 63.572 0.031 7.04 1.12 9.07
7/7/2021 6:30:00 PM 17.5 63.5 0.031 7.02 1.12 9.06
7/7/2021 6:45:00 PM 17.47 63.446 0.031 7.05 1.07 9.06
7/7/2021 7:00:00 PM 17.44 63.392 0.031 7.04 1.07 9.05
7/7/2021 7:15:00 PM 17.4 63.32 0.031 6.99 1.09 9.06
7/7/2021 7:30:00 PM 17.36 63.248 0.031 7.04 1.08 9.06
7/7/2021 7:45:00 PM 17.32 63.176 0.032 6.98 2.17 9.04
7/7/2021 8:00:00 PM 17.28 63.104 0.032 7.04 1.95 9.04
7/7/2021 8:15:00 PM 17.27 63.086 0.032 7.02 1.1 9.05
7/7/2021 8:30:00 PM 17.39 63.302 0.03 7.04 3.42 9.05
7/7/2021 8:45:00 PM 17.31 63.158 0.031 7 3.38 8.97
7/7/2021 9:00:00 PM 17.29 63.122 0.031 7.04 2.72 8.95
7/7/2021 9:15:00 PM 17.26 63.068 0.031 7.02 2.69 8.97
7/7/2021 9:30:00 PM 17.26 63.068 0.031 7.04 2.49 8.99
7/7/2021 9:45:00 PM 17.22 62.996 0.031 7.02 2.45 9
7/7/2021 10:00:00 PM 17.18 62.924 0.032 7.08 3.96 9.01
7/7/2021 10:15:00 PM 17.14 62.852 0.032 7.03 4.32 9.02
7/7/2021 10:30:00 PM 17.09 62.762 0.031 7.06 4.18 9.02
7/7/2021 10:45:00 PM 17.06 62.708 0.031 7.06 3.75 9.03
7/7/2021 11:00:00 PM 17.03 62.654 0.031 7.07 3.24 9.03
7/7/2021 11:15:00 PM 17 62.6 0.032 7.06 3.16 9.04
7/7/2021 11:30:00 PM 16.99 62.582 0.032 7.06 3.05 9.04
7/7/2021 11:45:00 PM 16.97 62.546 0.032 7.07 2.78 9.05
7/8/2021 12:00:00 AM 16.95 62.51 0.033 7.09 2.8 9.06
7/8/2021 12:15:00 AM 16.93 62.474 0.033 7.12 2.62 9.07
7/8/2021 12:30:00 AM 16.92 62.456 0.033 7.15 2.35 9.08
7/8/2021 12:45:00 AM 16.9 62.42 0.033 7.15 2.12 9.08
7/8/2021 1:00:00 AM 16.88 62.384 0.033 7.14 1.96 9.09
7/8/2021 1:15:00 AM 16.86 62.348 0.033 7.14 1.89 9.09
7/8/2021 1:30:00 AM 16.84 62.312 0.033 7.14 1.82 9.1
7/8/2021 1:45:00 AM 16.81 62.258 0.033 7.1 1.71 9.11
7/8/2021 2:00:00 AM 16.78 62.204 0.033 7.08 1.63 9.11
7/8/2021 2:15:00 AM 16.76 62.168 0.033 7.11 1.56 9.12
7/8/2021 2:30:00 AM 16.73 62.114 0.033 7.13 1.51 9.12
7/8/2021 2:45:00 AM 16.7 62.06 0.033 7.08 1.48 9.13
7/8/2021 3:00:00 AM 16.66 61.988 0.033 7.1 1.4 9.13
7/8/2021 3:15:00 AM 16.62 61.916 0.033 7.1 1.42 9.14
7/8/2021 3:30:00 AM 16.58 61.844 0.033 7.13 1.42 9.15
7/8/2021 3:45:00 AM 16.54 61.772 0.033 7.12 1.34 9.16
7/8/2021 4:00:00 AM 16.5 61.7 0.033 7.07 1.36 9.17
7/8/2021 4:15:00 AM 16.46 61.628 0.033 7.1 1.28 9.18
7/8/2021 4:30:00 AM 16.43 61.574 0.033 7.12 1.33 9.18
7/8/2021 4:45:00 AM 16.4 61.52 0.032 7.09 1.35 9.19
7/8/2021 5:00:00 AM 16.37 61.466 0.032 7.08 1.41 9.2
7/8/2021 5:15:00 AM 16.34 61.412 0.032 7.11 1.27 9.2
7/8/2021 5:30:00 AM 16.31 61.358 0.032 7.11 1.29 9.21
7/8/2021 5:45:00 AM 16.29 61.322 0.032 7.09 1.3 9.22
7/8/2021 6:00:00 AM 16.26 61.268 0.032 7.11 1.25 9.23
7/8/2021 6:15:00 AM 16.24 61.232 0.032 7.12 1.27 9.24
7/8/2021 6:30:00 AM 16.22 61.196 0.032 7.12 1.25 9.25
7/8/2021 6:45:00 AM 16.2 61.16 0.032 7.11 1.25 9.26
7/8/2021 7:00:00 AM 16.18 61.124 0.032 7.1 1.24 9.27
7/8/2021 7:15:00 AM 16.16 61.088 0.032 7.11 1.19 9.29
7/8/2021 7:30:00 AM 16.14 61.052 0.032 7.12 1.22 9.3
7/8/2021 7:45:00 AM 16.12 61.016 0.032 7.1 1.19 9.31
7/8/2021 8:00:00 AM 16.11 60.998 0.032 7.12 1.19 9.32
7/8/2021 8:15:00 AM 16.1 60.98 0.032 7.08 1.19 9.33
7/8/2021 8:30:00 AM 16.09 60.962 0.032 7.11 1.26 9.35
7/8/2021 8:45:00 AM 16.09 60.962 0.032 7.11 1.22 9.38
7/8/2021 9:00:00 AM 16.08 60.944 0.032 7.11 1.25 9.38
7/8/2021 9:15:00 AM 16.07 60.926 0.032 7.12 1.16 9.38
7/8/2021 9:30:00 AM 16.07 60.926 0.032 7.07 1.21 9.39
7/8/2021 9:45:00 AM 16.07 60.926 0.032 7.11 1.22 9.39
7/8/2021 10:00:00 AM 16.08 60.944 0.032 7.07 1.24 9.42
7/8/2021 10:15:00 AM 16.13 61.034 0.032 7.15 1.19 9.46
7/8/2021 10:30:00 AM 16.12 61.016 0.032 7.15 1.18 9.45
7/8/2021 10:45:00 AM 16.14 61.052 0.032 7.13 1.15 9.45
7/8/2021 11:00:00 AM 16.17 61.106 0.032 7.18 1.18 9.46
7/8/2021 11:15:00 AM 16.17 61.106 0.032 7.17 1.19 9.44
7/8/2021 11:30:00 AM 16.19 61.142 0.032 7.16 1.14 9.44
7/8/2021 11:45:00 AM 16.19 61.142 0.032 7.18 1.22 9.44
7/8/2021 12:00:00 PM 16.21 61.178 0.032 7.18 1.22 9.45
7/8/2021 12:15:00 PM 16.24 61.232 0.032 7.15 1.23 9.47
7/8/2021 12:30:00 PM 16.29 61.322 0.032 7.18 1.28 9.48
7/8/2021 12:45:00 PM 16.3 61.34 0.032 7.2 1.22 9.47
7/8/2021 1:00:00 PM 16.33 61.394 0.032 7.2 1.23 9.46
7/8/2021 1:15:00 PM 16.34 61.412 0.032 7.17 1.27 9.46
7/8/2021 1:30:00 PM 16.37 61.466 0.032 7.17 1.2 9.45
7/8/2021 1:45:00 PM 16.37 61.466 0.032 7.19 1.24 9.43
7/8/2021 2:00:00 PM 16.38 61.484 0.032 7.14 1.24 9.41
7/8/2021 2:15:00 PM 16.39 61.502 0.032 7.18 1.31 9.41
7/8/2021 2:30:00 PM 16.38 61.484 0.032 7.12 1.24 9.39
7/8/2021 2:45:00 PM 16.41 61.538 0.032 7.14 1.26 9.4
7/8/2021 3:00:00 PM 16.43 61.574 0.032 7.15 1.31 9.41
7/8/2021 3:15:00 PM 16.43 61.574 0.032 7.16 1.24 9.4
7/8/2021 3:30:00 PM 16.41 61.538 0.032 7.14 1.23 9.35
7/8/2021 3:45:00 PM 16.42 61.556 0.032 7.17 1.22 9.35
7/8/2021 4:00:00 PM 16.41 61.538 0.032 7.15 1.11 9.34
7/8/2021 4:15:00 PM 16.43 61.574 0.032 7.12 1.18 9.36
7/8/2021 4:30:00 PM 16.43 61.574 0.032 7.16 1.17 9.36
7/8/2021 4:45:00 PM 16.43 61.574 0.032 7.13 1.19 9.36
7/8/2021 5:00:00 PM 16.42 61.556 0.032 7.16 1.17 9.34
7/8/2021 5:15:00 PM 16.42 61.556 0.032 7.16 1.14 9.34
7/8/2021 5:30:00 PM 16.41 61.538 0.032 7.16 1.16 9.34
7/8/2021 5:45:00 PM 16.4 61.52 0.032 7.11 1.2 9.33
7/8/2021 6:00:00 PM 16.39 61.502 0.032 7.12 1.15 9.31
7/8/2021 6:15:00 PM 16.38 61.484 0.032 7.16 1.15 9.31
7/8/2021 6:30:00 PM 16.38 61.484 0.032 7.15 1.17 9.31
7/8/2021 6:45:00 PM 16.38 61.484 0.032 7.16 1.16 9.31
7/8/2021 7:00:00 PM 16.37 61.466 0.032 7.15 1.17 9.29
7/8/2021 7:15:00 PM 16.36 61.448 0.032 7.11 1.2 9.29
7/8/2021 7:30:00 PM 16.35 61.43 0.032 7.15 1.16 9.28
7/8/2021 7:45:00 PM 16.36 61.448 0.032 7.12 1.19 9.29
7/8/2021 8:00:00 PM 16.36 61.448 0.032 7.14 1.23 9.29
7/8/2021 8:15:00 PM 16.35 61.43 0.032 7.13 1.11 9.26
7/8/2021 8:30:00 PM 16.33 61.394 0.032 7.14 1.18 9.25
7/8/2021 8:45:00 PM 16.32 61.376 0.032 7.15 1.2 9.24
7/8/2021 9:00:00 PM 16.31 61.358 0.032 7.13 1.15 9.24
7/8/2021 9:15:00 PM 16.29 61.322 0.032 7.14 1.21 9.24
7/8/2021 9:30:00 PM 16.26 61.268 0.032 7.13 1.15 9.24
7/8/2021 9:45:00 PM 16.23 61.214 0.032 7.11 1.21 9.25
7/8/2021 10:00:00 PM 16.2 61.16 0.032 7.1 1.23 9.25
7/8/2021 10:15:00 PM 16.17 61.106 0.032 7.09 1.19 9.25
7/8/2021 10:30:00 PM 16.14 61.052 0.032 7.09 1.17 9.27
7/8/2021 10:45:00 PM 16.12 61.016 0.032 7.12 1.19 9.27
7/8/2021 11:00:00 PM 16.1 60.98 0.032 7.08 1.12 9.27
7/8/2021 11:15:00 PM 16.08 60.944 0.032 7.1 1.2 9.28
7/8/2021 11:30:00 PM 16.06 60.908 0.032 7.12 1.22 9.28
7/8/2021 11:45:00 PM 16.03 60.854 0.032 7.11 1.17 9.28
7/9/2021 12:00:00 AM 16.01 60.818 0.032 7.1 1.2 9.29
7/9/2021 12:15:00 AM 15.99 60.782 0.032 7.12 1.2 9.29
7/9/2021 12:30:00 AM 15.97 60.746 0.032 7.12 1.2 9.29
7/9/2021 12:45:00 AM 15.95 60.71 0.032 7.08 1.16 9.3
7/9/2021 1:00:00 AM 15.93 60.674 0.032 7.12 1.16 9.3
7/9/2021 1:15:00 AM 15.91 60.638 0.032 7.13 1.24 9.3
7/9/2021 1:30:00 AM 15.89 60.602 0.032 7.09 1.21 9.31
7/9/2021 1:45:00 AM 15.87 60.566 0.032 7.12 1.19 9.31
7/9/2021 2:00:00 AM 15.85 60.53 0.032 7.11 1.2 9.31
7/9/2021 2:15:00 AM 15.83 60.494 0.032 7.1 1.17 9.32
7/9/2021 2:30:00 AM 15.81 60.458 0.032 7.12 1.18 9.32
7/9/2021 2:45:00 AM 15.79 60.422 0.032 7.07 1.16 9.33
7/9/2021 3:00:00 AM 15.77 60.386 0.032 7.09 4.37 9.32
7/9/2021 3:15:00 AM 15.74 60.332 0.032 7.09 1.16 9.33
7/9/2021 3:30:00 AM 15.72 60.296 0.032 7.12 1.18 9.34
7/9/2021 3:45:00 AM 15.7 60.26 0.032 7.11 1.15 9.34
7/9/2021 4:00:00 AM 15.69 60.242 0.032 7.11 1.13 9.34
7/9/2021 4:15:00 AM 15.67 60.206 0.032 7.08 1.18 9.34
7/9/2021 4:30:00 AM 15.65 60.17 0.032 7.08 1.12 9.34
7/9/2021 4:45:00 AM 15.64 60.152 0.032 7.11 1.19 9.34
7/9/2021 5:00:00 AM 15.62 60.116 0.032 7.11 1.19 9.35
7/9/2021 5:15:00 AM 15.61 60.098 0.032 7.11 1.17 9.35
7/9/2021 5:30:00 AM 15.6 60.08 0.032 7.1 1.28 9.35
7/9/2021 5:45:00 AM 15.58 60.044 0.032 7.09 1.22 9.35
7/9/2021 6:00:00 AM 15.57 60.026 0.032 7.05 1.17 9.36
7/9/2021 6:15:00 AM 15.56 60.008 0.032 7.11 1.14 9.37
7/9/2021 6:30:00 AM 15.55 59.99 0.032 7.1 1.14 9.38
7/9/2021 6:45:00 AM 15.54 59.972 0.032 7.09 1.18 9.38
7/9/2021 7:00:00 AM 15.53 59.954 0.032 7.1 1.09 9.39
7/9/2021 7:15:00 AM 15.52 59.936 0.032 7.09 1.19 9.4
7/9/2021 7:30:00 AM 15.52 59.936 0.032 7.1 1.14 9.41
7/9/2021 7:45:00 AM 15.51 59.918 0.032 7.07 1.14 9.4
7/9/2021 8:00:00 AM 15.5 59.9 0.032 7.1 1.14 9.42
7/9/2021 8:15:00 AM 15.51 59.918 0.032 7.09 1.1 9.45
7/9/2021 8:30:00 AM 15.53 59.954 0.032 7.06 1.1 9.47
7/9/2021 8:45:00 AM 15.54 59.972 0.032 7.11 1.13 9.48
7/9/2021 9:00:00 AM 15.57 60.026 0.032 7.1 1.16 9.51
7/9/2021 9:15:00 AM 15.59 60.062 0.032 7.14 1.17 9.52
7/9/2021 9:30:00 AM 15.63 60.134 0.032 7.13 1.12 9.53
7/9/2021 9:45:00 AM 15.65 60.17 0.032 7.16 1.1 9.52
7/9/2021 10:00:00 AM 15.68 60.224 0.032 7.16 1.17 9.53
7/9/2021 10:15:00 AM 15.74 60.332 0.032 7.18 1.1 9.53
7/9/2021 10:30:00 AM 15.8 60.44 0.032 7.16 1.13 9.54
7/9/2021 10:45:00 AM 15.87 60.566 0.032 7.21 1.1 9.54
7/9/2021 11:00:00 AM 15.95 60.71 0.032 7.2 1.11 9.53
7/9/2021 11:15:00 AM 16.01 60.818 0.032 7.16 1.09 9.52
7/9/2021 11:30:00 AM 16.03 60.854 0.032 7.19 1.16 9.5
7/9/2021 11:45:00 AM 16.06 60.908 0.032 7.16 1.12 9.49
7/9/2021 12:00:00 PM 16.17 61.106 0.032 7.2 1.1 9.5
7/9/2021 12:15:00 PM 16.19 61.142 0.032 7.2 1.1 9.5
7/9/2021 12:30:00 PM 16.17 61.106 0.032 7.18 1.09 9.46
7/9/2021 12:45:00 PM 16.17 61.106 0.032 7.14 1.1 9.44
7/9/2021 1:00:00 PM 16.29 61.322 0.032 7.2 1.13 9.46
7/9/2021 1:15:00 PM 16.28 61.304 0.032 7.17 1.07 9.44
7/9/2021 1:30:00 PM 16.32 61.376 0.032 7.16 1.11 9.44
7/9/2021 1:45:00 PM 16.41 61.538 0.032 7.17 1.19 9.45
7/9/2021 2:00:00 PM 16.4 61.52 0.032 7.17 1.16 9.42
7/9/2021 2:15:00 PM 16.4 61.52 0.032 7.16 1.23 9.39
7/9/2021 2:30:00 PM 16.39 61.502 0.032 7.16 1.08 9.36
7/9/2021 2:45:00 PM 16.36 61.448 0.032 7.17 1.09 9.36
7/9/2021 3:00:00 PM 16.4 61.52 0.032 7.16 1.1 9.37
7/9/2021 3:15:00 PM 16.42 61.556 0.032 7.18 1.11 9.37
7/9/2021 3:30:00 PM 16.44 61.592 0.032 7.16 1.12 9.38
7/9/2021 3:45:00 PM 16.43 61.574 0.032 7.17 1.17 9.37
7/9/2021 4:00:00 PM 16.47 61.646 0.032 7.18 1.13 9.38
7/9/2021 4:15:00 PM 16.49 61.682 0.032 7.18 1.1 9.34
7/9/2021 4:30:00 PM 16.52 61.736 0.032 7.19 1.23 9.33
7/9/2021 4:45:00 PM 16.53 61.754 0.032 7.19 1.13 9.33
7/9/2021 5:00:00 PM 16.51 61.718 0.032 7.16 1.2 9.31
7/9/2021 5:15:00 PM 16.54 61.772 0.032 7.16 1.17 9.31
7/9/2021 5:30:00 PM 16.57 61.826 0.032 7.16 1.26 9.31
7/9/2021 5:45:00 PM 16.59 61.862 0.031 7.19 1.2 9.3
7/9/2021 6:00:00 PM 16.59 61.862 0.031 7.14 1.22 9.27
7/9/2021 6:15:00 PM 16.58 61.844 0.032 7.16 1.63 9.26
7/9/2021 6:30:00 PM 16.56 61.808 0.032 7.13 1.36 9.26
7/9/2021 6:45:00 PM 16.52 61.736 0.031 7.12 1.25 9.25
7/9/2021 7:00:00 PM 16.49 61.682 0.031 7.12 1.22 9.25
7/9/2021 7:15:00 PM 16.47 61.646 0.031 7.11 1.23 9.24
7/9/2021 7:30:00 PM 16.45 61.61 0.031 7.12 1.3 9.26
7/9/2021 7:45:00 PM 16.43 61.574 0.031 7.09 1.41 9.25
7/9/2021 8:00:00 PM 16.42 61.556 0.032 7.14 1.76 9.25
7/9/2021 8:15:00 PM 16.46 61.628 0.032 7.14 2.13 9.25
7/9/2021 8:30:00 PM 16.45 61.61 0.032 7.11 2.02 9.25
7/9/2021 8:45:00 PM 16.43 61.574 0.031 7.13 1.96 9.24
7/9/2021 9:00:00 PM 16.42 61.556 0.031 7.08 1.88 9.25
7/9/2021 9:15:00 PM 16.42 61.556 0.031 7.11 1.8 9.26
7/9/2021 9:30:00 PM 16.43 61.574 0.031 7.11 1.69 9.26
7/9/2021 9:45:00 PM 16.45 61.61 0.031 7.12 1.8 9.26
7/9/2021 10:00:00 PM 16.48 61.664 0.031 7.11 1.63 9.25
7/9/2021 10:15:00 PM 16.49 61.682 0.031 7.12 1.49 9.25
7/9/2021 10:30:00 PM 16.51 61.718 0.031 7.08 1.51 9.25
7/9/2021 10:45:00 PM 16.51 61.718 0.031 7.09 1.48 9.25
7/9/2021 11:00:00 PM 16.5 61.7 0.031 7.1 1.4 9.26
7/9/2021 11:15:00 PM 16.47 61.646 0.031 7.12 1.49 9.26
7/9/2021 11:30:00 PM 16.44 61.592 0.031 7.14 1.34 9.27
7/9/2021 11:45:00 PM 16.4 61.52 0.031 7.13 1.42 9.28
7/10/2021 12:00:00 AM 16.36 61.448 0.031 7.09 1.36 9.3
7/10/2021 12:15:00 AM 16.32 61.376 0.031 7.12 1.48 9.3
7/10/2021 12:30:00 AM 16.28 61.304 0.031 7.11 1.45 9.31
7/10/2021 12:45:00 AM 16.25 61.25 0.031 7.11 1.35 9.32
7/10/2021 1:00:00 AM 16.21 61.178 0.031 7.12 1.39 9.32
7/10/2021 1:15:00 AM 16.18 61.124 0.031 7.11 1.39 9.34
7/10/2021 1:30:00 AM 16.14 61.052 0.031 7.1 1.41 9.34
7/10/2021 1:45:00 AM 16.1 60.98 0.031 7.12 1.37 9.35
7/10/2021 2:00:00 AM 16.06 60.908 0.031 7.11 1.35 9.36
7/10/2021 2:15:00 AM 16.04 60.872 0.031 7.13 1.42 9.37
7/10/2021 2:30:00 AM 16.01 60.818 0.031 7.1 1.61 9.38
7/10/2021 2:45:00 AM 15.99 60.782 0.031 7.13 1.63 9.39
7/10/2021 3:00:00 AM 15.97 60.746 0.031 7.12 1.57 9.4
7/10/2021 3:15:00 AM 15.95 60.71 0.031 7.14 1.63 9.4
7/10/2021 3:30:00 AM 15.93 60.674 0.031 7.15 1.5 9.41
7/10/2021 3:45:00 AM 15.91 60.638 0.031 7.14 1.51 9.41
7/10/2021 4:00:00 AM 15.89 60.602 0.031 7.14 1.53 9.41
7/10/2021 4:15:00 AM 15.86 60.548 0.031 7.14 1.5 9.42
7/10/2021 4:30:00 AM 15.83 60.494 0.031 7.09 1.45 9.42
7/10/2021 4:45:00 AM 15.79 60.422 0.031 7.14 1.46 9.43
7/10/2021 5:00:00 AM 15.76 60.368 0.031 7.13 1.47 9.44
7/10/2021 5:15:00 AM 15.72 60.296 0.031 7.14 1.44 9.45
7/10/2021 5:30:00 AM 15.68 60.224 0.031 7.13 1.48 9.46
7/10/2021 5:45:00 AM 15.64 60.152 0.031 7.12 1.41 9.46
7/10/2021 6:00:00 AM 15.61 60.098 0.031 7.12 1.33 9.48
7/10/2021 6:15:00 AM 15.58 60.044 0.031 7.15 1.36 9.49
7/10/2021 6:30:00 AM 15.54 59.972 0.031 7.13 1.43 9.5
7/10/2021 6:45:00 AM 15.51 59.918 0.031 7.15 1.32 9.52
7/10/2021 7:00:00 AM 15.48 59.864 0.031 7.15 1.41 9.53
7/10/2021 7:15:00 AM 15.46 59.828 0.031 7.18 1.46 9.54
7/10/2021 7:30:00 AM 15.44 59.792 0.031 7.15 1.4 9.55
7/10/2021 7:45:00 AM 15.42 59.756 0.031 7.15 1.33 9.57
7/10/2021 8:00:00 AM 15.42 59.756 0.031 7.16 1.3 9.59
7/10/2021 8:15:00 AM 15.41 59.738 0.031 7.14 1.33 9.61
7/10/2021 8:30:00 AM 15.4 59.72 0.031 7.16 1.27 9.61
7/10/2021 8:45:00 AM 15.4 59.72 0.031 7.15 1.28 9.62
7/10/2021 9:00:00 AM 15.39 59.702 0.031 7.18 1.24 9.63
7/10/2021 9:15:00 AM 15.4 59.72 0.031 7.17 1.22 9.65
7/10/2021 9:30:00 AM 15.4 59.72 0.031 7.13 1.2 9.65
7/10/2021 9:45:00 AM 15.4 59.72 0.031 7.18 1.3 9.65
7/10/2021 10:00:00 AM 15.41 59.738 0.031 7.14 1.29 9.66
7/10/2021 10:15:00 AM 15.41 59.738 0.031 7.19 1.25 9.65
7/10/2021 10:30:00 AM 15.42 59.756 0.031 7.19 1.21 9.65
7/10/2021 10:45:00 AM 15.42 59.756 0.031 7.19 1.26 9.65
7/10/2021 11:00:00 AM 15.43 59.774 0.031 7.15 1.2 9.66
7/10/2021 11:15:00 AM 15.44 59.792 0.031 7.19 1.24 9.66
7/10/2021 11:30:00 AM 15.44 59.792 0.031 7.18 1.44 9.65
7/10/2021 11:45:00 AM 15.46 59.828 0.031 7.16 1.33 9.67
7/10/2021 12:00:00 PM 15.64 60.152 0.031 7.2 1.28 9.68
7/10/2021 12:15:00 PM 15.61 60.098 0.031 7.21 1.27 9.66
7/10/2021 12:30:00 PM 15.63 60.134 0.031 7.2 1.29 9.63
7/10/2021 12:45:00 PM 15.81 60.458 0.031 7.18 1.28 9.64
7/10/2021 1:00:00 PM 16.03 60.854 0.03 7.24 1.24 9.62
7/10/2021 1:15:00 PM 16.14 61.052 0.03 7.21 1.27 9.6
7/10/2021 1:30:00 PM 16.08 60.944 0.03 7.19 1.24 9.57
7/10/2021 1:45:00 PM 16.2 61.16 0.03 7.22 1.3 9.57
7/10/2021 2:00:00 PM 16.15 61.07 0.03 7.16 1.24 9.56
7/10/2021 2:15:00 PM 16.17 61.106 0.03 7.18 1.27 9.55
7/10/2021 2:30:00 PM 16.18 61.124 0.03 7.2 1.33 9.54
7/10/2021 2:45:00 PM 16.28 61.304 0.03 7.18 1.34 9.53
7/10/2021 3:00:00 PM 16.34 61.412 0.03 7.2 1.27 9.52
7/10/2021 3:15:00 PM 16.35 61.43 0.03 7.13 1.3 9.47
7/10/2021 3:30:00 PM 16.34 61.412 0.031 7.18 1.25 9.44
7/10/2021 3:45:00 PM 16.33 61.394 0.031 7.16 1.23 9.46
7/10/2021 4:00:00 PM 16.31 61.358 0.031 7.16 1.21 9.47
7/10/2021 4:15:00 PM 16.3 61.34 0.031 7.15 1.23 9.47
7/10/2021 4:30:00 PM 16.3 61.34 0.031 7.16 1.31 9.46
7/10/2021 4:45:00 PM 16.31 61.358 0.031 7.13 1.85 9.45
7/10/2021 5:00:00 PM 16.3 61.34 0.031 7.17 1.53 9.43
7/10/2021 5:15:00 PM 16.29 61.322 0.031 7.16 2.65 9.43
7/10/2021 5:30:00 PM 16.28 61.304 0.031 7.13 1.52 9.43
7/10/2021 5:45:00 PM 16.25 61.25 0.031 7.14 1.34 9.43
7/10/2021 6:00:00 PM 16.22 61.196 0.031 7.13 1.77 9.44
7/10/2021 6:15:00 PM 16.2 61.16 0.031 7.13 1.35 9.43
7/10/2021 6:30:00 PM 16.18 61.124 0.031 7.14 1.24 9.42
7/10/2021 6:45:00 PM 16.17 61.106 0.031 7.14 1.24 9.41
7/10/2021 7:00:00 PM 16.16 61.088 0.031 7.1 1.3 9.4
7/10/2021 7:15:00 PM 16.14 61.052 0.031 7.12 1.19 9.39
7/10/2021 7:30:00 PM 16.12 61.016 0.031 7.08 1.23 9.39
7/10/2021 7:45:00 PM 16.09 60.962 0.031 7.1 1.3 9.38
7/10/2021 8:00:00 PM 16.07 60.926 0.031 7.12 1.19 9.37
7/10/2021 8:15:00 PM 16.04 60.872 0.031 7.11 1.23 9.36
7/10/2021 8:30:00 PM 16.02 60.836 0.031 7.09 1.25 9.36
7/10/2021 8:45:00 PM 15.99 60.782 0.031 7.09 1.26 9.36
7/10/2021 9:00:00 PM 15.97 60.746 0.031 7.13 1.22 9.36
7/10/2021 9:15:00 PM 15.94 60.692 0.031 7.13 1.24 9.36
7/10/2021 9:30:00 PM 15.91 60.638 0.031 7.14 1.22 9.36
7/10/2021 9:45:00 PM 15.88 60.584 0.031 7.14 1.27 9.38
7/10/2021 10:00:00 PM 15.86 60.548 0.031 7.13 1.23 9.38
7/10/2021 10:15:00 PM 15.83 60.494 0.031 7.12 1.2 9.39
7/10/2021 10:30:00 PM 15.8 60.44 0.031 7.15 1.24 9.39
7/10/2021 10:45:00 PM 15.78 60.404 0.031 7.15 1.19 9.4
7/10/2021 11:00:00 PM 15.75 60.35 0.031 7.15 1.23 9.4
7/10/2021 11:15:00 PM 15.72 60.296 0.031 7.14 1.24 9.41
7/10/2021 11:30:00 PM 15.69 60.242 0.031 7.1 1.24 9.42
7/10/2021 11:45:00 PM 15.66 60.188 0.031 7.14 1.19 9.43
7/11/2021 12:00:00 AM 15.63 60.134 0.031 7.15 1.2 9.43
7/11/2021 12:15:00 AM 15.6 60.08 0.031 7.12 1.25 9.43
7/11/2021 12:30:00 AM 15.58 60.044 0.031 7.15 1.23 9.44
7/11/2021 12:45:00 AM 15.54 59.972 0.031 7.14 1.19 9.45
7/11/2021 1:00:00 AM 15.51 59.918 0.031 7.13 1.19 9.45
7/11/2021 1:15:00 AM 15.48 59.864 0.031 7.15 1.24 9.46
7/11/2021 1:30:00 AM 15.44 59.792 0.031 7.11 1.17 9.47
7/11/2021 1:45:00 AM 15.41 59.738 0.031 7.13 1.19 9.48
7/11/2021 2:00:00 AM 15.37 59.666 0.031 7.14 1.16 9.48
7/11/2021 2:15:00 AM 15.34 59.612 0.031 7.15 1.18 9.49
7/11/2021 2:30:00 AM 15.3 59.54 0.031 7.11 1.18 9.5
7/11/2021 2:45:00 AM 15.27 59.486 0.031 7.15 1.24 9.5
7/11/2021 3:00:00 AM 15.23 59.414 0.031 7.15 1.2 9.51
7/11/2021 3:15:00 AM 15.2 59.36 0.031 7.15 1.19 9.52
7/11/2021 3:30:00 AM 15.16 59.288 0.031 7.12 1.23 9.53
7/11/2021 3:45:00 AM 15.13 59.234 0.031 7.13 1.15 9.53
7/11/2021 4:00:00 AM 15.1 59.18 0.031 7.14 1.18 9.54
7/11/2021 4:15:00 AM 15.07 59.126 0.031 7.13 1.18 9.54
7/11/2021 4:30:00 AM 15.05 59.09 0.031 7.15 1.29 9.55
7/11/2021 4:45:00 AM 15.02 59.036 0.031 7.13 1.21 9.56
7/11/2021 5:00:00 AM 14.99 58.982 0.031 7.15 1.18 9.56
7/11/2021 5:15:00 AM 14.97 58.946 0.031 7.15 1.23 9.57
7/11/2021 5:30:00 AM 14.95 58.91 0.031 7.14 1.17 9.58
7/11/2021 5:45:00 AM 14.93 58.874 0.031 7.16 1.28 9.58
7/11/2021 6:00:00 AM 14.91 58.838 0.031 7.1 1.23 9.59
7/11/2021 6:15:00 AM 14.89 58.802 0.031 7.16 1.15 9.6
7/11/2021 6:30:00 AM 14.88 58.784 0.031 7.16 1.15 9.61
7/11/2021 6:45:00 AM 14.86 58.748 0.031 7.14 1.22 9.61
7/11/2021 7:00:00 AM 14.85 58.73 0.031 7.13 1.19 9.62
7/11/2021 7:15:00 AM 14.84 58.712 0.031 7.14 1.18 9.63
7/11/2021 7:30:00 AM 14.84 58.712 0.031 7.15 1.16 9.63
7/11/2021 7:45:00 AM 14.83 58.694 0.031 7.13 1.13 9.63
7/11/2021 8:00:00 AM 14.82 58.676 0.031 7.13 1.13 9.63
7/11/2021 8:15:00 AM 14.83 58.694 0.031 7.13 1.14 9.65
7/11/2021 8:30:00 AM 14.83 58.694 0.031 7.14 1.22 9.65
7/11/2021 8:45:00 AM 14.82 58.676 0.031 7.14 1.3 9.63
7/11/2021 9:00:00 AM 14.83 58.694 0.031 7.1 1.2 9.65
7/11/2021 9:15:00 AM 14.84 58.712 0.031 7.12 1.22 9.67
7/11/2021 9:30:00 AM 14.84 58.712 0.031 7.15 1.18 9.68
7/11/2021 9:45:00 AM 14.85 58.73 0.031 7.15 1.15 9.68
7/11/2021 10:00:00 AM 14.86 58.748 0.031 7.12 1.16 9.69
7/11/2021 10:15:00 AM 14.87 58.766 0.031 7.16 1.15 9.69
7/11/2021 10:30:00 AM 14.87 58.766 0.031 7.11 1.16 9.69
7/11/2021 10:45:00 AM 14.91 58.838 0.031 7.14 1.16 9.72
7/11/2021 11:00:00 AM 14.91 58.838 0.031 7.16 1.16 9.72
7/11/2021 11:15:00 AM 14.92 58.856 0.031 7.15 1.18 9.71
7/11/2021 11:30:00 AM 14.93 58.874 0.031 7.13 1.16 9.69
7/11/2021 11:45:00 AM 14.93 58.874 0.031 7.15 1.15 9.67
7/11/2021 12:00:00 PM 14.94 58.892 0.031 7.14 1.18 9.68
7/11/2021 12:15:00 PM 14.95 58.91 0.031 7.11 1.14 9.69
7/11/2021 12:30:00 PM 14.96 58.928 0.031 7.14 1.18 9.69
7/11/2021 12:45:00 PM 14.98 58.964 0.031 7.12 1.17 9.69
7/11/2021 1:00:00 PM 15 59 0.031 7.13 1.19 9.7
7/11/2021 1:15:00 PM 15.01 59.018 0.031 7.12 1.33 9.69
7/11/2021 1:30:00 PM 15.01 59.018 0.031 7.14 1.29 9.68
7/11/2021 1:45:00 PM 15.03 59.054 0.031 7.13 1.15 9.68
7/11/2021 2:00:00 PM 15.03 59.054 0.031 7.11 1.21 9.67
7/11/2021 2:15:00 PM 15.04 59.072 0.031 7.13 1.17 9.66
7/11/2021 2:30:00 PM 15.04 59.072 0.031 7.11 1.13 9.66
7/11/2021 2:45:00 PM 15.04 59.072 0.031 7.13 1.28 9.64
7/11/2021 3:00:00 PM 15.04 59.072 0.031 7.12 1.32 9.63
7/11/2021 3:15:00 PM 15.04 59.072 0.031 7.13 1.27 9.62
7/11/2021 3:30:00 PM 15.05 59.09 0.031 7.12 1.25 9.62
7/11/2021 3:45:00 PM 15.06 59.108 0.031 7.11 1.23 9.64
7/11/2021 4:00:00 PM 15.06 59.108 0.031 7.12 1.35 9.63
7/11/2021 4:15:00 PM 15.07 59.126 0.031 7.11 1.38 9.61
7/11/2021 4:30:00 PM 15.08 59.144 0.031 7.1 1.34 9.62
7/11/2021 4:45:00 PM 15.08 59.144 0.031 7.1 1.31 9.61
7/11/2021 5:00:00 PM 15.09 59.162 0.031 7.1 1.29 9.61
7/11/2021 5:15:00 PM 15.1 59.18 0.031 7.05 1.28 9.62
7/11/2021 5:30:00 PM 15.1 59.18 0.031 7.06 1.32 9.6
7/11/2021 5:45:00 PM 15.1 59.18 0.031 7.08 1.37 9.6
7/11/2021 6:00:00 PM 15.1 59.18 0.031 7.06 1.26 9.59
7/11/2021 6:15:00 PM 15.1 59.18 0.031 7.08 1.3 9.59
7/11/2021 6:30:00 PM 15.1 59.18 0.031 7.06 1.27 9.58
7/11/2021 6:45:00 PM 15.1 59.18 0.031 7.05 1.28 9.56
7/11/2021 7:00:00 PM 15.1 59.18 0.031 7.07 1.32 9.55
7/11/2021 7:15:00 PM 15.1 59.18 0.031 7.07 1.27 9.54
7/11/2021 7:30:00 PM 15.11 59.198 0.031 7.05 1.37 9.53
7/11/2021 7:45:00 PM 15.12 59.216 0.031 7.04 1.36 9.51
7/11/2021 8:00:00 PM 15.13 59.234 0.031 7.04 1.47 9.5
7/11/2021 8:15:00 PM 15.16 59.288 0.031 7.04 1.52 9.49
7/11/2021 8:30:00 PM 15.19 59.342 0.031 7.04 1.59 9.48
7/11/2021 8:45:00 PM 15.2 59.36 0.031 7.02 1.6 9.46
7/11/2021 9:00:00 PM 15.21 59.378 0.031 7.02 1.62 9.46
7/11/2021 9:15:00 PM 15.23 59.414 0.031 7.03 1.51 9.46
7/11/2021 9:30:00 PM 15.28 59.504 0.031 7.03 1.65 9.46
7/11/2021 9:45:00 PM 15.3 59.54 0.031 7.07 1.73 9.45
7/11/2021 10:00:00 PM 15.35 59.63 0.03 7.06 2.17 9.44
7/11/2021 10:15:00 PM 15.36 59.648 0.03 7.05 2.02 9.43
7/11/2021 10:30:00 PM 15.35 59.63 0.031 7.05 2.18 9.45
7/11/2021 10:45:00 PM 15.32 59.576 0.031 7.05 2.71 9.45
7/11/2021 11:00:00 PM 15.33 59.594 0.032 7.09 4.33 9.44
7/11/2021 11:15:00 PM 15.39 59.702 0.032 7.1 4.63 9.43
7/11/2021 11:30:00 PM 15.41 59.738 0.032 7.1 4.58 9.45
7/11/2021 11:45:00 PM 15.42 59.756 0.032 7.08 4.45 9.46
7/12/2021 12:00:00 AM 15.43 59.774 0.032 7.04 4.6 9.48
7/12/2021 12:15:00 AM 15.45 59.81 0.032 7.07 6.2 9.5
7/12/2021 12:30:00 AM 15.48 59.864 0.032 7.1 8.27 9.53
7/12/2021 12:45:00 AM 15.51 59.918 0.032 7.05 11.02 9.56
7/12/2021 1:00:00 AM 15.52 59.936 0.031 7.09 11.34 9.58
7/12/2021 1:15:00 AM 15.51 59.918 0.031 7.06 10.38 9.59
7/12/2021 1:30:00 AM 15.44 59.792 0.031 7 8.87 9.61
7/12/2021 1:45:00 AM 15.36 59.648 0.03 7.02 6.97 9.63
7/12/2021 2:00:00 AM 15.3 59.54 0.03 7.01 6.22 9.64
7/12/2021 2:15:00 AM 15.24 59.432 0.03 7.02 5.21 9.65
7/12/2021 2:30:00 AM 15.19 59.342 0.03 6.98 4.8 9.66
7/12/2021 2:45:00 AM 15.15 59.27 0.03 7.02 4.18 9.67
7/12/2021 3:00:00 AM 15.12 59.216 0.03 6.97 3.82 9.67
7/12/2021 3:15:00 AM 15.09 59.162 0.03 7.01 3.66 9.68
7/12/2021 3:30:00 AM 15.07 59.126 0.03 6.99 3.54 9.68
7/12/2021 3:45:00 AM 15.05 59.09 0.03 7 3.46 9.67
7/12/2021 4:00:00 AM 15.03 59.054 0.03 6.99 3.41 9.68
7/12/2021 4:15:00 AM 15.01 59.018 0.03 7.01 3.12 9.68
7/12/2021 4:30:00 AM 15 59 0.03 6.95 3.03 9.68
7/12/2021 4:45:00 AM 14.98 58.964 0.03 6.99 3.02 9.68
7/12/2021 5:00:00 AM 14.97 58.946 0.03 6.93 2.94 9.68
7/12/2021 5:15:00 AM 14.96 58.928 0.03 6.96 2.96 9.68
7/12/2021 5:30:00 AM 14.95 58.91 0.03 6.97 3.07 9.68
7/12/2021 5:45:00 AM 14.95 58.91 0.03 6.97 2.79 9.68
7/12/2021 6:00:00 AM 14.94 58.892 0.03 6.96 2.73 9.68
7/12/2021 6:15:00 AM 14.94 58.892 0.03 6.96 2.75 9.68
7/12/2021 6:30:00 AM 14.94 58.892 0.03 6.98 2.67 9.68
7/12/2021 6:45:00 AM 14.93 58.874 0.03 6.97 2.51 9.69
7/12/2021 7:00:00 AM 14.93 58.874 0.03 6.93 2.42 9.69
7/12/2021 7:15:00 AM 14.93 58.874 0.03 6.96 2.37 9.69
7/12/2021 7:30:00 AM 14.93 58.874 0.03 6.99 2.37 9.72
7/12/2021 7:45:00 AM 14.94 58.892 0.03 6.98 2.25 9.72
7/12/2021 8:00:00 AM 14.94 58.892 0.03 6.98 2.24 9.71
7/12/2021 8:15:00 AM 14.94 58.892 0.03 6.99 2.26 9.72
7/12/2021 8:30:00 AM 14.94 58.892 0.03 6.98 2.2 9.72
7/12/2021 8:45:00 AM 14.96 58.928 0.03 6.94 2.04 9.74
7/12/2021 9:00:00 AM 14.98 58.964 0.03 6.99 2.05 9.76
7/12/2021 9:15:00 AM 15 59 0.03 7 2.03 9.78
7/12/2021 9:30:00 AM 15.02 59.036 0.03 6.97 2.05 9.77
7/12/2021 9:45:00 AM 15.03 59.054 0.03 6.99 1.95 9.75
7/12/2021 10:00:00 AM 15.05 59.09 0.03 7.01 1.92 9.74
7/12/2021 10:15:00 AM 15.07 59.126 0.03 7.02 1.95 9.76
7/12/2021 10:30:00 AM 15.09 59.162 0.03 7.04 1.91 9.76
7/12/2021 10:45:00 AM 15.1 59.18 0.03 7.05 1.91 9.75
7/12/2021 11:00:00 AM 15.14 59.252 0.03 7.06 1.85 9.77
7/12/2021 11:15:00 AM 15.21 59.378 0.03 7.09 1.79 9.79
7/12/2021 11:30:00 AM 15.25 59.45 0.03 7.1 1.78 9.78
7/12/2021 11:45:00 AM 15.33 59.594 0.03 7.13 1.81 9.78
7/12/2021 12:00:00 PM 15.39 59.702 0.029 7.14 1.8 9.78
7/12/2021 12:15:00 PM 15.42 59.756 0.029 7.13 1.81 9.75
7/12/2021 12:30:00 PM 15.52 59.936 0.029 7.14 1.74 9.75
7/12/2021 12:45:00 PM 15.51 59.918 0.029 7.11 1.74 9.72
7/12/2021 1:00:00 PM 15.54 59.972 0.029 7.13 1.65 9.71
7/12/2021 1:15:00 PM 15.55 59.99 0.029 7.12 1.69 9.71
7/12/2021 1:30:00 PM 15.56 60.008 0.029 7.08 1.67 9.67
7/12/2021 1:45:00 PM 15.57 60.026 0.029 7.08 1.65 9.66
7/12/2021 2:00:00 PM 15.7 60.26 0.029 7.1 1.66 9.69
7/12/2021 2:15:00 PM 15.81 60.458 0.029 7.12 1.61 9.66
7/12/2021 2:30:00 PM 15.9 60.62 0.029 7.12 1.69 9.65
7/12/2021 2:45:00 PM 16.03 60.854 0.029 7.12 1.76 9.63
7/12/2021 3:00:00 PM 16.09 60.962 0.029 7.13 1.57 9.6
7/12/2021 3:15:00 PM 16.1 60.98 0.029 7.13 1.62 9.57
7/12/2021 3:30:00 PM 16.09 60.962 0.029 7.09 1.69 9.56
7/12/2021 3:45:00 PM 16.1 60.98 0.029 7.09 1.64 9.57
7/12/2021 4:00:00 PM 16.17 61.106 0.029 7.1 1.67 9.57
7/12/2021 4:15:00 PM 16.23 61.214 0.029 7.12 1.61 9.55
7/12/2021 4:30:00 PM 16.27 61.286 0.029 7.11 1.53 9.52
7/12/2021 4:45:00 PM 16.31 61.358 0.029 7.08 1.63 9.52
7/12/2021 5:00:00 PM 16.33 61.394 0.029 7.11 1.62 9.52
7/12/2021 5:15:00 PM 16.35 61.43 0.029 7.12 1.63 9.5
7/12/2021 5:30:00 PM 16.39 61.502 0.029 7.11 1.57 9.48
7/12/2021 5:45:00 PM 16.42 61.556 0.029 7.13 1.57 9.46
7/12/2021 6:00:00 PM 16.44 61.592 0.029 7.11 1.5 9.44
7/12/2021 6:15:00 PM 16.46 61.628 0.029 7.09 1.47 9.41
7/12/2021 6:30:00 PM 16.47 61.646 0.029 7.08 1.55 9.41
7/12/2021 6:45:00 PM 16.47 61.646 0.029 7.07 1.56 9.4
7/12/2021 7:00:00 PM 16.48 61.664 0.029 7.06 1.49 9.39
7/12/2021 7:15:00 PM 16.48 61.664 0.029 7.04 1.47 9.38
7/12/2021 7:30:00 PM 16.48 61.664 0.029 7.04 1.51 9.36
7/12/2021 7:45:00 PM 16.49 61.682 0.029 7.03 1.49 9.35
7/12/2021 8:00:00 PM 16.52 61.736 0.029 7.02 1.48 9.34
7/12/2021 8:15:00 PM 16.54 61.772 0.029 7.02 1.55 9.33
7/12/2021 8:30:00 PM 16.54 61.772 0.029 7.02 1.46 9.33
7/12/2021 8:45:00 PM 16.54 61.772 0.03 6.99 1.52 9.32
7/12/2021 9:00:00 PM 16.55 61.79 0.03 7 1.47 9.32
7/12/2021 9:15:00 PM 16.54 61.772 0.03 7.01 1.52 9.32
7/12/2021 9:30:00 PM 16.53 61.754 0.03 6.99 1.52 9.32
7/12/2021 9:45:00 PM 16.51 61.718 0.03 6.99 1.48 9.33
7/12/2021 10:00:00 PM 16.5 61.7 0.03 6.98 1.48 9.32
7/12/2021 10:15:00 PM 16.49 61.682 0.03 6.93 1.51 9.33
7/12/2021 10:30:00 PM 16.48 61.664 0.03 6.99 1.54 9.33
7/12/2021 10:45:00 PM 16.47 61.646 0.03 6.98 1.64 9.33
7/12/2021 11:00:00 PM 16.46 61.628 0.03 6.97 1.47 9.33
7/12/2021 11:15:00 PM 16.44 61.592 0.03 6.96 1.5 9.34
7/12/2021 11:30:00 PM 16.43 61.574 0.03 6.95 1.51 9.33
7/12/2021 11:45:00 PM 16.42 61.556 0.03 6.96 1.48 9.34
7/13/2021 12:00:00 AM 16.4 61.52 0.03 6.98 1.48 9.34
7/13/2021 12:15:00 AM 16.4 61.52 0.03 6.97 1.46 9.35
7/13/2021 12:30:00 AM 16.39 61.502 0.03 6.96 1.54 9.35
7/13/2021 12:45:00 AM 16.38 61.484 0.03 6.98 1.56 9.35
7/13/2021 1:00:00 AM 16.37 61.466 0.03 6.98 1.43 9.36
7/13/2021 1:15:00 AM 16.36 61.448 0.03 6.98 1.42 9.36
7/13/2021 1:30:00 AM 16.34 61.412 0.03 6.97 1.49 9.36
7/13/2021 1:45:00 AM 16.32 61.376 0.03 6.96 1.47 9.36
7/13/2021 2:00:00 AM 16.3 61.34 0.03 6.97 1.48 9.36
7/13/2021 2:15:00 AM 16.29 61.322 0.03 6.93 1.47 9.37
7/13/2021 2:30:00 AM 16.26 61.268 0.03 6.97 1.47 9.38
7/13/2021 2:45:00 AM 16.24 61.232 0.03 6.97 1.48 9.38
7/13/2021 3:00:00 AM 16.22 61.196 0.03 6.97 1.47 9.39
7/13/2021 3:15:00 AM 16.2 61.16 0.03 6.96 1.51 9.39
7/13/2021 3:30:00 AM 16.18 61.124 0.03 6.99 1.49 9.4
7/13/2021 3:45:00 AM 16.15 61.07 0.03 6.99 1.51 9.4
7/13/2021 4:00:00 AM 16.13 61.034 0.03 6.97 1.49 9.41
7/13/2021 4:15:00 AM 16.11 60.998 0.03 6.99 1.5 9.41
7/13/2021 4:30:00 AM 16.08 60.944 0.03 6.98 1.5 9.42
7/13/2021 4:45:00 AM 16.05 60.89 0.03 6.99 1.47 9.42
7/13/2021 5:00:00 AM 16.03 60.854 0.03 6.98 1.51 9.43
7/13/2021 5:15:00 AM 16.01 60.818 0.03 6.97 1.5 9.43
7/13/2021 5:30:00 AM 15.98 60.764 0.03 6.92 1.56 9.44
7/13/2021 5:45:00 AM 15.96 60.728 0.03 6.95 1.53 9.44
7/13/2021 6:00:00 AM 15.94 60.692 0.03 6.97 1.54 9.45
7/13/2021 6:15:00 AM 15.93 60.674 0.03 6.96 1.53 9.45
7/13/2021 6:30:00 AM 15.91 60.638 0.03 6.92 1.51 9.46
7/13/2021 6:45:00 AM 15.9 60.62 0.03 6.97 1.49 9.47
7/13/2021 7:00:00 AM 15.88 60.584 0.03 6.95 1.46 9.48
7/13/2021 7:15:00 AM 15.86 60.548 0.03 6.94 1.46 9.49
7/13/2021 7:30:00 AM 15.85 60.53 0.03 6.94 1.44 9.49
7/13/2021 7:45:00 AM 15.84 60.512 0.03 6.93 1.43 9.5
7/13/2021 8:00:00 AM 15.83 60.494 0.03 6.96 1.44 9.51
7/13/2021 8:15:00 AM 15.83 60.494 0.03 6.92 1.4 9.53
7/13/2021 8:30:00 AM 15.82 60.476 0.03 6.97 1.36 9.54
7/13/2021 8:45:00 AM 15.83 60.494 0.03 6.98 1.38 9.55
7/13/2021 9:00:00 AM 15.84 60.512 0.03 6.99 1.66 9.57
7/13/2021 9:15:00 AM 15.85 60.53 0.03 7 1.69 9.58
7/13/2021 9:30:00 AM 15.85 60.53 0.03 6.96 1.53 9.56
7/13/2021 9:45:00 AM 15.85 60.53 0.03 7.01 1.6 9.56
7/13/2021 10:00:00 AM 15.85 60.53 0.03 7 1.48 9.55
7/13/2021 10:15:00 AM 15.88 60.584 0.03 7.01 1.59 9.59
7/13/2021 10:30:00 AM 15.95 60.71 0.03 7.04 1.56 9.63
7/13/2021 10:45:00 AM 16.04 60.872 0.03 7.02 1.51 9.64
7/13/2021 11:00:00 AM 16.09 60.962 0.03 7.09 1.45 9.62
7/13/2021 11:15:00 AM 16.13 61.034 0.03 7.08 1.48 9.6
7/13/2021 11:30:00 AM 16.19 61.142 0.03 7.11 1.51 9.6
7/13/2021 11:45:00 AM 16.23 61.214 0.029 7.12 1.56 9.61
7/13/2021 12:00:00 PM 16.32 61.376 0.029 7.13 1.53 9.59
7/13/2021 12:15:00 PM 16.39 61.502 0.029 7.14 1.52 9.58
7/13/2021 12:30:00 PM 16.48 61.664 0.029 7.14 1.52 9.57
7/13/2021 12:45:00 PM 16.52 61.736 0.029 7.08 1.49 9.54
7/13/2021 1:00:00 PM 16.57 61.826 0.029 7.11 1.42 9.54
7/13/2021 1:15:00 PM 16.63 61.934 0.029 7.13 1.47 9.53
7/13/2021 1:30:00 PM 16.67 62.006 0.029 7.1 1.41 9.5
7/13/2021 1:45:00 PM 16.68 62.024 0.029 7.13 1.46 9.45
7/13/2021 2:00:00 PM 16.78 62.204 0.029 7.11 1.47 9.46
7/13/2021 2:15:00 PM 16.77 62.186 0.029 7.11 1.48 9.46
7/13/2021 2:30:00 PM 16.84 62.312 0.029 7.1 1.55 9.45
7/13/2021 2:45:00 PM 16.86 62.348 0.029 7.12 1.51 9.45
7/13/2021 3:00:00 PM 16.88 62.384 0.029 7.12 1.64 9.41
7/13/2021 3:15:00 PM 16.88 62.384 0.029 7.1 1.67 9.37
7/13/2021 3:30:00 PM 16.91 62.438 0.029 7.1 1.66 9.38
7/13/2021 3:45:00 PM 16.93 62.474 0.029 7.09 1.62 9.38
7/13/2021 4:00:00 PM 16.99 62.582 0.029 7.11 1.43 9.36
7/13/2021 4:15:00 PM 17.04 62.672 0.029 7.12 1.44 9.35
7/13/2021 4:30:00 PM 17.07 62.726 0.029 7.11 1.45 9.34
7/13/2021 4:45:00 PM 17.1 62.78 0.029 7.07 1.45 9.35
7/13/2021 5:00:00 PM 17.11 62.798 0.029 7.09 1.41 9.34
7/13/2021 5:15:00 PM 17.12 62.816 0.029 7.11 1.52 9.32
7/13/2021 5:30:00 PM 17.12 62.816 0.029 7.07 1.6 9.31
7/13/2021 5:45:00 PM 17.14 62.852 0.029 7.1 1.61 9.31
7/13/2021 6:00:00 PM 17.16 62.888 0.029 7.12 1.74 9.3
7/13/2021 6:15:00 PM 17.18 62.924 0.029 7.11 1.71 9.29
7/13/2021 6:30:00 PM 17.18 62.924 0.029 7.08 1.69 9.27
7/13/2021 6:45:00 PM 17.18 62.924 0.029 7.03 1.7 9.26
7/13/2021 7:00:00 PM 17.17 62.906 0.029 7.08 1.64 9.26
7/13/2021 7:15:00 PM 17.18 62.924 0.029 7.05 1.67 9.25
7/13/2021 7:30:00 PM 17.21 62.978 0.029 7.01 1.55 9.23
7/13/2021 7:45:00 PM 17.21 62.978 0.029 7.02 1.48 9.22
7/13/2021 8:00:00 PM 17.19 62.942 0.029 7 1.47 9.22
7/13/2021 8:15:00 PM 17.17 62.906 0.029 7.01 1.53 9.21
7/13/2021 8:30:00 PM 17.16 62.888 0.029 7.01 1.56 9.22
7/13/2021 8:45:00 PM 17.25 63.05 0.029 7.04 2.34 9.25
7/13/2021 9:00:00 PM 17.25 63.05 0.028 7.06 3.6 9.23
7/13/2021 9:15:00 PM 17.2 62.96 0.028 7 3.37 9.2
7/13/2021 9:30:00 PM 17.16 62.888 0.028 7.04 4.35 9.21
7/13/2021 9:45:00 PM 17.13 62.834 0.03 7.1 11.86 9.19
7/13/2021 10:00:00 PM 17.25 63.05 0.031 7.13 16.23 9.14
7/13/2021 10:15:00 PM 17.26 63.068 0.03 7.14 15.25 9.15
7/13/2021 10:30:00 PM 17.23 63.014 0.03 7.14 11.56 9.17
7/13/2021 10:45:00 PM 17.2 62.96 0.031 7.16 9.43 9.18
7/13/2021 11:00:00 PM 17.18 62.924 0.033 7.21 8.72 9.21
7/13/2021 11:15:00 PM 17.16 62.888 0.033 7.22 10.12 9.24
7/13/2021 11:30:00 PM 17.14 62.852 0.033 7.22 12.47 9.27
7/13/2021 11:45:00 PM 17.13 62.834 0.033 7.21 12.4 9.29
7/14/2021 12:00:00 AM 17.09 62.762 0.032 7.18 9.44 9.31
7/14/2021 12:15:00 AM 17.02 62.636 0.032 7.13 8.21 9.32
7/14/2021 12:30:00 AM 16.94 62.492 0.031 7.15 6.55 9.34
7/14/2021 12:45:00 AM 16.86 62.348 0.031 7.17 5.77 9.37
7/14/2021 1:00:00 AM 16.78 62.204 0.031 7.13 5 9.38
7/14/2021 1:15:00 AM 16.72 62.096 0.031 7.18 4.59 9.39
7/14/2021 1:30:00 AM 16.66 61.988 0.031 7.15 4.49 9.4
7/14/2021 1:45:00 AM 16.6 61.88 0.031 7.18 4.12 9.41
7/14/2021 2:00:00 AM 16.55 61.79 0.031 7.18 3.98 9.42
7/14/2021 2:15:00 AM 16.49 61.682 0.031 7.16 3.85 9.43
7/14/2021 2:30:00 AM 16.44 61.592 0.031 7.14 3.64 9.44
7/14/2021 2:45:00 AM 16.39 61.502 0.031 7.19 3.49 9.45
7/14/2021 3:00:00 AM 16.34 61.412 0.031 7.17 3.42 9.46
7/14/2021 3:15:00 AM 16.3 61.34 0.031 7.14 3.43 9.46
7/14/2021 3:30:00 AM 16.25 61.25 0.031 7.16 3.17 9.47
7/14/2021 3:45:00 AM 16.21 61.178 0.031 7.16 3.11 9.48
7/14/2021 4:00:00 AM 16.17 61.106 0.031 7.18 3.11 9.48
7/14/2021 4:15:00 AM 16.13 61.034 0.031 7.17 3.07 9.49
7/14/2021 4:30:00 AM 16.09 60.962 0.031 7.13 2.91 9.5
7/14/2021 4:45:00 AM 16.05 60.89 0.031 7.18 2.71 9.51
7/14/2021 5:00:00 AM 16.02 60.836 0.031 7.12 2.81 9.51
7/14/2021 5:15:00 AM 15.99 60.782 0.031 7.17 2.76 9.51
7/14/2021 5:30:00 AM 15.96 60.728 0.031 7.17 2.83 9.52
7/14/2021 5:45:00 AM 15.93 60.674 0.031 7.16 2.71 9.52
7/14/2021 6:00:00 AM 15.9 60.62 0.031 7.15 2.75 9.53
7/14/2021 6:15:00 AM 15.87 60.566 0.031 7.14 2.54 9.54
7/14/2021 6:30:00 AM 15.84 60.512 0.031 7.12 2.68 9.55
7/14/2021 6:45:00 AM 15.81 60.458 0.031 7.14 2.51 9.56
7/14/2021 7:00:00 AM 15.79 60.422 0.031 7.13 2.44 9.56
7/14/2021 7:15:00 AM 15.77 60.386 0.031 7.14 2.38 9.58
7/14/2021 7:30:00 AM 15.75 60.35 0.031 7.14 2.4 9.59
7/14/2021 7:45:00 AM 15.73 60.314 0.031 7.14 2.31 9.59
7/14/2021 8:00:00 AM 15.72 60.296 0.031 7.15 2.32 9.6
7/14/2021 8:15:00 AM 15.7 60.26 0.031 7.15 2.21 9.61
7/14/2021 8:30:00 AM 15.69 60.242 0.031 7.13 2.13 9.62
7/14/2021 8:45:00 AM 15.68 60.224 0.031 7.15 2.1 9.64
7/14/2021 9:00:00 AM 15.69 60.242 0.031 7.17 2.12 9.65
7/14/2021 9:15:00 AM 15.68 60.224 0.031 7.13 2.35 9.65
7/14/2021 9:30:00 AM 15.68 60.224 0.031 7.14 2.06 9.67
7/14/2021 9:45:00 AM 15.69 60.242 0.031 7.14 2.22 9.67
7/14/2021 10:00:00 AM 15.7 60.26 0.031 7.14 2.17 9.66
7/14/2021 10:15:00 AM 15.73 60.314 0.031 7.19 2.11 9.67
7/14/2021 10:30:00 AM 15.77 60.386 0.03 7.19 2.18 9.67
7/14/2021 10:45:00 AM 15.79 60.422 0.03 7.15 2.12 9.67
7/14/2021 11:00:00 AM 15.83 60.494 0.03 7.21 2.25 9.68
7/14/2021 11:15:00 AM 15.89 60.602 0.03 7.2 2.11 9.68
7/14/2021 11:30:00 AM 15.94 60.692 0.03 7.17 2.1 9.66
7/14/2021 11:45:00 AM 15.95 60.71 0.03 7.18 2.14 9.64
7/14/2021 12:00:00 PM 16 60.8 0.03 7.21 2.14 9.65
7/14/2021 12:15:00 PM 16.08 60.944 0.03 7.21 2.03 9.65
7/14/2021 12:30:00 PM 16.13 61.034 0.03 7.21 2.02 9.61
7/14/2021 12:45:00 PM 16.28 61.304 0.03 7.21 2 9.61
7/14/2021 1:00:00 PM 16.33 61.394 0.03 7.18 2.02 9.59
7/14/2021 1:15:00 PM 16.47 61.646 0.03 7.23 1.92 9.58
7/14/2021 1:30:00 PM 16.49 61.682 0.03 7.21 1.9 9.55
7/14/2021 1:45:00 PM 16.66 61.988 0.03 7.22 1.94 9.53
7/14/2021 2:00:00 PM 16.76 62.168 0.03 7.22 1.92 9.51
7/14/2021 2:15:00 PM 16.86 62.348 0.03 7.2 2 9.49
7/14/2021 2:30:00 PM 16.95 62.51 0.03 7.19 1.9 9.46
7/14/2021 2:45:00 PM 16.93 62.474 0.03 7.18 1.93 9.44
7/14/2021 3:00:00 PM 16.95 62.51 0.03 7.18 1.92 9.45
7/14/2021 3:15:00 PM 16.98 62.564 0.03 7.18 1.92 9.43
7/14/2021 3:30:00 PM 17 62.6 0.03 7.18 1.91 9.41
7/14/2021 3:45:00 PM 17.05 62.69 0.03 7.17 1.88 9.4
7/14/2021 4:00:00 PM 17.04 62.672 0.03 7.17 1.93 9.38
7/14/2021 4:15:00 PM 17.04 62.672 0.03 7.17 1.9 9.38
7/14/2021 4:30:00 PM 17.03 62.654 0.03 7.18 1.98 9.38
7/14/2021 4:45:00 PM 17.04 62.672 0.03 7.17 1.86 9.36
7/14/2021 5:00:00 PM 17.01 62.618 0.03 7.18 1.81 9.36
7/14/2021 5:15:00 PM 17.01 62.618 0.03 7.18 1.88 9.34
7/14/2021 5:30:00 PM 16.99 62.582 0.03 7.17 1.94 9.33
7/14/2021 5:45:00 PM 16.97 62.546 0.03 7.16 1.88 9.34
7/14/2021 6:00:00 PM 16.95 62.51 0.03 7.15 1.82 9.34
7/14/2021 6:15:00 PM 16.93 62.474 0.03 7.14 1.75 9.34
7/14/2021 6:30:00 PM 16.91 62.438 0.03 7.09 1.84 9.32
7/14/2021 6:45:00 PM 16.88 62.384 0.03 7.14 1.79 9.31
7/14/2021 7:00:00 PM 16.86 62.348 0.03 7.13 1.76 9.33
7/14/2021 7:15:00 PM 16.84 62.312 0.03 7.1 1.83 9.35
7/14/2021 7:30:00 PM 16.81 62.258 0.03 7.12 1.74 9.35
7/14/2021 7:45:00 PM 16.79 62.222 0.03 7.11 1.77 9.33
7/14/2021 8:00:00 PM 16.77 62.186 0.03 7.12 1.73 9.32
7/14/2021 8:15:00 PM 16.77 62.186 0.03 7.09 1.83 9.31
7/14/2021 8:30:00 PM 16.77 62.186 0.03 7.1 1.72 9.3
7/14/2021 8:45:00 PM 16.76 62.168 0.03 7.09 1.72 9.3
7/14/2021 9:00:00 PM 16.75 62.15 0.03 7.08 1.76 9.3
7/14/2021 9:15:00 PM 16.73 62.114 0.03 7.1 1.8 9.3
7/14/2021 9:30:00 PM 16.7 62.06 0.03 7.11 1.76 9.31
7/14/2021 9:45:00 PM 16.65 61.97 0.03 7.05 1.86 9.32
7/14/2021 10:00:00 PM 16.61 61.898 0.03 7.11 1.83 9.33
7/14/2021 10:15:00 PM 16.56 61.808 0.03 7.09 1.77 9.34
7/14/2021 10:30:00 PM 16.53 61.754 0.03 7.11 1.87 9.35
7/14/2021 10:45:00 PM 16.49 61.682 0.03 7.09 1.76 9.36
7/14/2021 11:00:00 PM 16.46 61.628 0.03 7.11 1.83 9.37
7/14/2021 11:15:00 PM 16.41 61.538 0.03 7.11 1.72 9.38
7/14/2021 11:30:00 PM 16.37 61.466 0.03 7.12 1.72 9.38
7/14/2021 11:45:00 PM 16.33 61.394 0.03 7.1 1.77 9.39
7/15/2021 12:00:00 AM 16.29 61.322 0.03 7.08 1.8 9.4
7/15/2021 12:15:00 AM 16.26 61.268 0.03 7.13 1.72 9.41
7/15/2021 12:30:00 AM 16.22 61.196 0.03 7.12 1.82 9.42
7/15/2021 12:45:00 AM 16.19 61.142 0.03 7.12 1.73 9.42
7/15/2021 1:00:00 AM 16.16 61.088 0.03 7.13 1.7 9.43
7/15/2021 1:15:00 AM 16.13 61.034 0.03 7.1 1.74 9.43
7/15/2021 1:30:00 AM 16.1 60.98 0.03 7.12 1.77 9.44
7/15/2021 1:45:00 AM 16.07 60.926 0.03 7.12 1.75 9.44
7/15/2021 2:00:00 AM 16.04 60.872 0.03 7.12 1.74 9.45
7/15/2021 2:15:00 AM 16.01 60.818 0.03 7.12 1.71 9.45
7/15/2021 2:30:00 AM 15.98 60.764 0.03 7.12 1.75 9.46
7/15/2021 2:45:00 AM 15.96 60.728 0.03 7.07 1.77 9.46
7/15/2021 3:00:00 AM 15.93 60.674 0.03 7.13 1.71 9.47
7/15/2021 3:15:00 AM 15.9 60.62 0.03 7.1 1.75 9.48
7/15/2021 3:30:00 AM 15.87 60.566 0.03 7.15 1.73 9.48
7/15/2021 3:45:00 AM 15.84 60.512 0.03 7.14 1.82 9.49
7/15/2021 4:00:00 AM 15.81 60.458 0.03 7.13 1.76 9.5
7/15/2021 4:15:00 AM 15.79 60.422 0.03 7.15 1.69 9.51
7/15/2021 4:30:00 AM 15.76 60.368 0.03 7.13 1.72 9.51
7/15/2021 4:45:00 AM 15.74 60.332 0.03 7.11 1.7 9.51
7/15/2021 5:00:00 AM 15.72 60.296 0.03 7.11 1.68 9.52
7/15/2021 5:15:00 AM 15.69 60.242 0.03 7.13 1.7 9.52
7/15/2021 5:30:00 AM 15.66 60.188 0.03 7.12 1.69 9.53
7/15/2021 5:45:00 AM 15.64 60.152 0.03 7.1 1.93 9.53
7/15/2021 6:00:00 AM 15.61 60.098 0.03 7.14 3.73 9.54
7/15/2021 6:15:00 AM 15.58 60.044 0.03 7.15 1.65 9.55
7/15/2021 6:30:00 AM 15.56 60.008 0.03 7.14 1.69 9.56
7/15/2021 6:45:00 AM 15.54 59.972 0.03 7.14 1.62 9.57
7/15/2021 7:00:00 AM 15.52 59.936 0.03 7.11 1.59 9.58
7/15/2021 7:15:00 AM 15.51 59.918 0.03 7.13 1.6 9.6
7/15/2021 7:30:00 AM 15.49 59.882 0.03 7.16 1.57 9.61
7/15/2021 7:45:00 AM 15.48 59.864 0.03 7.14 1.59 9.62
7/15/2021 8:00:00 AM 15.47 59.846 0.03 7.1 1.58 9.62
7/15/2021 8:15:00 AM 15.46 59.828 0.03 7.15 1.56 9.64
7/15/2021 8:30:00 AM 15.46 59.828 0.03 7.13 1.54 9.66
7/15/2021 8:45:00 AM 15.47 59.846 0.03 7.15 1.56 9.66
7/15/2021 9:00:00 AM 15.48 59.864 0.03 7.17 1.58 9.68
7/15/2021 9:15:00 AM 15.49 59.882 0.03 7.17 1.53 9.68
7/15/2021 9:30:00 AM 15.49 59.882 0.03 7.16 1.54 9.67
7/15/2021 9:45:00 AM 15.49 59.882 0.03 7.19 1.59 9.67
7/15/2021 10:00:00 AM 15.51 59.918 0.03 7.19 1.54 9.67
7/15/2021 10:15:00 AM 15.55 59.99 0.03 7.15 1.55 9.67
7/15/2021 10:30:00 AM 15.59 60.062 0.03 7.17 1.55 9.66
7/15/2021 10:45:00 AM 15.66 60.188 0.03 7.19 1.54 9.67
7/15/2021 11:00:00 AM 15.69 60.242 0.03 7.19 1.53 9.64
7/15/2021 11:15:00 AM 15.77 60.386 0.03 7.19 1.51 9.65
7/15/2021 11:30:00 AM 15.84 60.512 0.03 7.17 1.49 9.65
7/15/2021 11:45:00 AM 15.94 60.692 0.03 7.19 1.6 9.64
7/15/2021 12:00:00 PM 16.03 60.854 0.03 7.2 1.54 9.63
7/15/2021 12:15:00 PM 16.1 60.98 0.03 7.19 1.51 9.62
7/15/2021 12:30:00 PM 16.21 61.178 0.03 7.23 1.52 9.6
7/15/2021 12:45:00 PM 16.32 61.376 0.03 7.19 1.57 9.59
7/15/2021 1:00:00 PM 16.41 61.538 0.03 7.2 1.64 9.56
7/15/2021 1:15:00 PM 16.48 61.664 0.03 7.22 1.51 9.53
7/15/2021 1:30:00 PM 16.65 61.97 0.03 7.23 1.52 9.52
7/15/2021 1:45:00 PM 16.81 62.258 0.03 7.23 1.52 9.5
7/15/2021 2:00:00 PM 16.89 62.402 0.03 7.21 1.57 9.48
7/15/2021 2:15:00 PM 16.91 62.438 0.03 7.22 1.63 9.46
7/15/2021 2:30:00 PM 16.9 62.42 0.03 7.2 1.61 9.44
7/15/2021 2:45:00 PM 16.88 62.384 0.03 7.18 1.64 9.41
7/15/2021 3:00:00 PM 16.88 62.384 0.03 7.17 1.54 9.41
7/15/2021 3:15:00 PM 16.89 62.402 0.03 7.18 1.53 9.42
7/15/2021 3:30:00 PM 16.9 62.42 0.03 7.19 1.57 9.42
7/15/2021 3:45:00 PM 16.9 62.42 0.03 7.17 1.59 9.42
7/15/2021 4:00:00 PM 16.89 62.402 0.03 7.14 1.59 9.41
7/15/2021 4:15:00 PM 16.89 62.402 0.03 7.16 1.49 9.39
7/15/2021 4:30:00 PM 16.86 62.348 0.03 7.17 1.45 9.38
7/15/2021 4:45:00 PM 16.85 62.33 0.03 7.17 1.44 9.38
7/15/2021 5:00:00 PM 16.83 62.294 0.03 7.13 1.47 9.38
7/15/2021 5:15:00 PM 16.83 62.294 0.03 7.17 1.53 9.37
7/15/2021 5:30:00 PM 16.82 62.276 0.03 7.13 1.52 9.36
7/15/2021 5:45:00 PM 16.82 62.276 0.03 7.17 1.52 9.34
7/15/2021 6:00:00 PM 16.83 62.294 0.03 7.16 1.43 9.33
7/15/2021 6:15:00 PM 16.83 62.294 0.03 7.16 1.45 9.33
7/15/2021 6:30:00 PM 16.82 62.276 0.03 7.15 1.4 9.32
7/15/2021 6:45:00 PM 16.81 62.258 0.03 7.15 1.49 9.31
7/15/2021 7:00:00 PM 16.8 62.24 0.03 7.13 1.49 9.3
7/15/2021 7:15:00 PM 16.8 62.24 0.03 7.12 1.52 9.3
7/15/2021 7:30:00 PM 16.79 62.222 0.03 7.12 1.45 9.3
7/15/2021 7:45:00 PM 16.78 62.204 0.03 7.08 1.59 9.29
7/15/2021 8:00:00 PM 16.77 62.186 0.03 7.11 1.53 9.29
7/15/2021 8:15:00 PM 16.75 62.15 0.03 7.1 1.43 9.27
7/15/2021 8:30:00 PM 16.73 62.114 0.03 7.09 1.44 9.27
7/15/2021 8:45:00 PM 16.7 62.06 0.03 7.1 1.53 9.26
7/15/2021 9:00:00 PM 16.68 62.024 0.03 7.1 1.54 9.26
7/15/2021 9:15:00 PM 16.64 61.952 0.03 7.09 1.57 9.27
7/15/2021 9:30:00 PM 16.61 61.898 0.03 7.07 1.57 9.27
7/15/2021 9:45:00 PM 16.58 61.844 0.03 7.1 1.44 9.28
7/15/2021 10:00:00 PM 16.55 61.79 0.03 7.11 1.51 9.29
7/15/2021 10:15:00 PM 16.53 61.754 0.03 7.1 1.44 9.29
7/15/2021 10:30:00 PM 16.51 61.718 0.03 7.07 1.56 9.3
7/15/2021 10:45:00 PM 16.5 61.7 0.03 7.12 1.46 9.3
7/15/2021 11:00:00 PM 16.49 61.682 0.03 7.09 1.54 9.3
7/15/2021 11:15:00 PM 16.48 61.664 0.03 7.13 1.46 9.3
7/15/2021 11:30:00 PM 16.47 61.646 0.03 7.12 1.44 9.3
7/15/2021 11:45:00 PM 16.45 61.61 0.03 7.13 1.45 9.31
7/16/2021 12:00:00 AM 16.43 61.574 0.03 7.11 1.5 9.31
7/16/2021 12:15:00 AM 16.41 61.538 0.03 7.09 1.44 9.32
7/16/2021 12:30:00 AM 16.38 61.484 0.03 7.11 1.52 9.32
7/16/2021 12:45:00 AM 16.36 61.448 0.03 7.1 1.46 9.33
7/16/2021 1:00:00 AM 16.33 61.394 0.03 7.11 1.5 9.33
7/16/2021 1:15:00 AM 16.31 61.358 0.03 7.12 1.59 9.33
7/16/2021 1:30:00 AM 16.28 61.304 0.03 7.13 1.49 9.34
7/16/2021 1:45:00 AM 16.25 61.25 0.03 7.14 1.56 9.35
7/16/2021 2:00:00 AM 16.21 61.178 0.03 7.14 1.56 9.35
7/16/2021 2:15:00 AM 16.18 61.124 0.03 7.13 1.48 9.36
7/16/2021 2:30:00 AM 16.14 61.052 0.03 7.14 1.52 9.37
7/16/2021 2:45:00 AM 16.11 60.998 0.03 7.09 1.48 9.38
7/16/2021 3:00:00 AM 16.08 60.944 0.03 7.11 1.47 9.39
7/16/2021 3:15:00 AM 16.04 60.872 0.03 7.13 1.48 9.39
7/16/2021 3:30:00 AM 16.01 60.818 0.03 7.13 1.43 9.4
7/16/2021 3:45:00 AM 15.98 60.764 0.03 7.13 1.44 9.4
7/16/2021 4:00:00 AM 15.95 60.71 0.03 7.12 1.49 9.41
7/16/2021 4:15:00 AM 15.92 60.656 0.03 7.1 1.44 9.42
7/16/2021 4:30:00 AM 15.88 60.584 0.03 7.14 1.39 9.43
7/16/2021 4:45:00 AM 15.85 60.53 0.03 7.1 1.45 9.43
7/16/2021 5:00:00 AM 15.82 60.476 0.03 7.14 1.49 9.44
7/16/2021 5:15:00 AM 15.79 60.422 0.03 7.1 1.49 9.45
7/16/2021 5:30:00 AM 15.76 60.368 0.03 7.12 1.53 9.45
7/16/2021 5:45:00 AM 15.73 60.314 0.03 7.13 1.48 9.46
7/16/2021 6:00:00 AM 15.7 60.26 0.03 7.15 1.46 9.47
7/16/2021 6:15:00 AM 15.68 60.224 0.03 7.14 1.48 9.47
7/16/2021 6:30:00 AM 15.66 60.188 0.03 7.13 1.47 9.49
7/16/2021 6:45:00 AM 15.63 60.134 0.03 7.1 1.5 9.5
7/16/2021 7:00:00 AM 15.62 60.116 0.03 7.15 1.49 9.51
7/16/2021 7:15:00 AM 15.6 60.08 0.03 7.1 1.68 9.53
7/16/2021 7:30:00 AM 15.59 60.062 0.03 7.15 1.48 9.54
7/16/2021 7:45:00 AM 15.57 60.026 0.03 7.12 1.45 9.54
7/16/2021 8:00:00 AM 15.56 60.008 0.03 7.13 1.43 9.55
7/16/2021 8:15:00 AM 15.55 59.99 0.03 7.11 1.39 9.55
7/16/2021 8:30:00 AM 15.55 59.99 0.03 7.14 1.34 9.56
7/16/2021 8:45:00 AM 15.54 59.972 0.03 7.1 1.43 9.57
7/16/2021 9:00:00 AM 15.55 59.99 0.03 7.12 1.31 9.58
7/16/2021 9:15:00 AM 15.55 59.99 0.03 7.14 1.44 9.59
7/16/2021 9:30:00 AM 15.57 60.026 0.03 7.17 1.39 9.59
7/16/2021 9:45:00 AM 15.6 60.08 0.03 7.12 1.34 9.61
7/16/2021 10:00:00 AM 15.65 60.17 0.03 7.18 1.33 9.63
7/16/2021 10:15:00 AM 15.69 60.242 0.03 7.16 1.37 9.63
7/16/2021 10:30:00 AM 15.7 60.26 0.03 7.14 1.33 9.62
7/16/2021 10:45:00 AM 15.74 60.332 0.03 7.14 1.4 9.63
7/16/2021 11:00:00 AM 15.78 60.404 0.03 7.18 1.35 9.62
7/16/2021 11:15:00 AM 15.86 60.548 0.03